Time,TemperatureF,DewpointF,PressureIn,WindDirection,WindDirectionDegrees,WindSpeedMPH,WindSpeedGustMPH,Humidity,HourlyPrecipIn,Conditions,Clouds,dailyrainin,SoftwareType,DateUTC
2013-03-09 00:00:00,47.3,42.4,29.82,WSW,248,11.0,11.0,83,0.00,,,0.00,VWS V14.01,2013-03-09 08:00:00,
2013-03-09 00:01:00,47.5,43.2,29.79,WNW,292,12.5,12.5,85,0.00,,,0.00,VWS V14.01,2013-03-09 08:01:00,
2013-03-09 00:02:00,47.3,42.4,29.82,WSW,248,7.8,7.8,83,0.00,,,0.00,VWS V14.01,2013-03-09 08:02:00,
2013-03-09 00:03:00,47.3,42.4,29.82,WNW,292,13.0,13.0,83,0.00,,,0.00,VWS V14.01,2013-03-09 08:03:00,
2013-03-09 00:04:00,47.3,42.4,29.82,WSW,248,10.5,10.5,83,0.00,,,0.00,VWS V14.01,2013-03-09 08:04:00,
2013-03-09 00:05:00,47.3,42.4,29.82,WSW,248,10.5,10.5,83,0.00,,,0.00,VWS V14.01,2013-03-09 08:05:00,
2013-03-09 00:06:00,47.5,43.2,29.79,WSW,248,11.0,11.0,85,0.00,,,0.00,VWS V14.01,2013-03-09 08:06:00,
2013-03-09 00:07:00,47.3,42.7,29.82,WSW,248,10.1,10.1,84,0.00,,,0.00,VWS V14.01,2013-03-09 08:07:00,
2013-03-09 00:08:00,47.3,42.7,29.82,WSW,248,10.7,10.7,84,0.00,,,0.00,VWS V14.01,2013-03-09 08:08:00,
2013-03-09 00:09:00,47.3,42.7,29.82,SW,225,10.5,10.5,84,0.00,,,0.00,VWS V14.01,2013-03-09 08:09:00,
2013-03-09 00:10:00,47.3,42.7,29.82,WSW,248,6.5,6.5,84,0.00,,,0.00,VWS V14.01,2013-03-09 08:10:00,
2013-03-09 00:11:00,47.5,43.2,29.79,WSW,248,8.1,8.1,85,0.00,,,0.00,VWS V14.01,2013-03-09 08:11:00,
2013-03-09 00:12:00,47.3,42.4,29.82,WSW,248,8.1,8.1,83,0.00,,,0.00,VWS V14.01,2013-03-09 08:12:00,
2013-03-09 00:13:00,47.3,42.4,29.82,WSW,248,3.8,3.8,83,0.00,,,0.00,VWS V14.01,2013-03-09 08:13:00,
2013-03-09 00:14:00,47.3,42.4,29.82,WNW,292,10.1,10.1,83,0.00,,,0.00,VWS V14.01,2013-03-09 08:14:00,
2013-03-09 00:15:00,47.3,42.4,29.82,West,270,11.0,11.0,83,0.00,,,0.00,VWS V14.01,2013-03-09 08:15:00,
2013-03-09 00:16:00,47.5,43.2,29.79,WSW,248,11.0,11.0,85,0.00,,,0.00,VWS V14.01,2013-03-09 08:16:00,
2013-03-09 00:17:00,47.3,42.4,29.82,WSW,248,11.0,11.0,83,0.00,,,0.00,VWS V14.01,2013-03-09 08:17:00,
2013-03-09 00:18:00,47.3,42.4,29.82,SSW,202,7.8,7.8,83,0.00,,,0.00,VWS V14.01,2013-03-09 08:18:00,
2013-03-09 00:19:00,47.3,42.4,29.82,WSW,248,10.7,10.7,83,0.00,,,0.00,VWS V14.01,2013-03-09 08:19:00,
2013-03-09 00:20:00,47.3,42.4,29.82,WSW,248,8.7,8.7,83,0.00,,,0.00,VWS V14.01,2013-03-09 08:20:00,
2013-03-09 00:21:00,47.5,43.2,29.79,WNW,292,10.1,10.1,85,0.00,,,0.00,VWS V14.01,2013-03-09 08:21:00,
2013-03-09 00:22:00,47.3,42.7,29.85,WSW,248,7.8,7.8,84,0.00,,,0.00,VWS V14.01,2013-03-09 08:22:00,
2013-03-09 00:23:00,47.3,42.7,29.85,NW,315,9.8,9.8,84,0.00,,,0.00,VWS V14.01,2013-03-09 08:23:00,
2013-03-09 00:24:00,47.3,42.7,29.85,WSW,248,8.7,8.7,84,0.00,,,0.00,VWS V14.01,2013-03-09 08:24:00,
2013-03-09 00:25:00,47.3,42.7,29.85,WSW,248,12.8,12.8,84,0.00,,,0.00,VWS V14.01,2013-03-09 08:25:00,
2013-03-09 00:26:00,47.5,43.2,29.79,West,270,6.0,6.0,85,0.00,,,0.00,VWS V14.01,2013-03-09 08:26:00,
2013-03-09 00:27:00,47.3,42.7,29.85,West,270,6.9,6.9,84,0.00,,,0.00,VWS V14.01,2013-03-09 08:27:00,
2013-03-09 00:28:00,47.3,42.7,29.85,WSW,248,10.3,10.3,84,0.00,,,0.00,VWS V14.01,2013-03-09 08:28:00,
2013-03-09 00:29:00,47.3,42.7,29.85,WSW,248,8.7,8.7,84,0.00,,,0.00,VWS V14.01,2013-03-09 08:29:00,
2013-03-09 00:30:00,47.3,42.7,29.85,WSW,248,8.5,8.5,84,0.00,,,0.00,VWS V14.01,2013-03-09 08:30:00,
2013-03-09 00:31:00,47.3,43.0,29.79,WSW,248,6.5,6.5,85,0.00,,,0.00,VWS V14.01,2013-03-09 08:31:00,
2013-03-09 00:32:00,47.3,42.7,29.85,SW,225,10.1,10.1,84,0.00,,,0.00,VWS V14.01,2013-03-09 08:32:00,
2013-03-09 00:33:00,47.3,42.7,29.85,WSW,248,4.3,4.3,84,0.00,,,0.00,VWS V14.01,2013-03-09 08:33:00,
2013-03-09 00:34:00,47.3,42.7,29.85,West,270,7.8,7.8,84,0.00,,,0.00,VWS V14.01,2013-03-09 08:34:00,
2013-03-09 00:35:00,47.3,42.7,29.85,WNW,292,6.9,6.9,84,0.00,,,0.00,VWS V14.01,2013-03-09 08:35:00,
2013-03-09 00:36:00,47.5,43.2,29.79,WNW,292,13.2,13.2,85,0.00,,,0.00,VWS V14.01,2013-03-09 08:36:00,
2013-03-09 00:37:00,47.3,42.7,29.85,WNW,292,6.9,6.9,84,0.00,,,0.00,VWS V14.01,2013-03-09 08:37:00,
2013-03-09 00:38:00,47.1,42.5,29.82,West,270,4.0,4.0,84,0.00,,,0.00,VWS V14.01,2013-03-09 08:38:00,
2013-03-09 00:39:00,47.1,42.5,29.82,WSW,248,4.9,4.9,84,0.00,,,0.00,VWS V14.01,2013-03-09 08:39:00,
2013-03-09 00:40:00,47.1,42.5,29.82,WSW,248,3.6,3.6,84,0.00,,,0.00,VWS V14.01,2013-03-09 08:40:00,
2013-03-09 00:41:00,47.5,42.9,29.79,WSW,248,10.5,10.5,84,0.00,,,0.00,VWS V14.01,2013-03-09 08:41:00,
2013-03-09 00:42:00,47.1,42.5,29.82,WSW,248,6.3,6.3,84,0.00,,,0.00,VWS V14.01,2013-03-09 08:42:00,
2013-03-09 00:43:00,47.1,42.5,29.82,SW,225,6.3,6.3,84,0.00,,,0.00,VWS V14.01,2013-03-09 08:43:00,
2013-03-09 00:44:00,47.1,42.5,29.82,WSW,248,6.3,6.3,84,0.00,,,0.00,VWS V14.01,2013-03-09 08:44:00,
2013-03-09 00:45:00,47.1,42.2,29.82,West,270,4.9,4.9,83,0.00,,,0.00,VWS V14.01,2013-03-09 08:45:00,
2013-03-09 00:46:00,47.3,42.7,29.79,WSW,248,7.6,7.6,84,0.00,,,0.00,VWS V14.01,2013-03-09 08:46:00,
2013-03-09 00:47:00,47.1,42.2,29.82,NW,315,4.3,4.3,83,0.00,,,0.00,VWS V14.01,2013-03-09 08:47:00,
2013-03-09 00:48:00,47.1,42.2,29.82,WSW,248,3.8,3.8,83,0.00,,,0.00,VWS V14.01,2013-03-09 08:48:00,
2013-03-09 00:49:00,47.1,42.2,29.82,WSW,248,3.8,3.8,83,0.00,,,0.00,VWS V14.01,2013-03-09 08:49:00,
2013-03-09 00:50:00,47.1,42.2,29.82,West,270,5.4,5.4,83,0.00,,,0.00,VWS V14.01,2013-03-09 08:50:00,
2013-03-09 00:51:00,47.3,42.7,29.82,West,270,10.3,10.3,84,0.00,,,0.00,VWS V14.01,2013-03-09 08:51:00,
2013-03-09 00:52:00,47.1,42.2,29.85,WSW,248,6.9,6.9,83,0.00,,,0.00,VWS V14.01,2013-03-09 08:52:00,
2013-03-09 00:53:00,47.1,42.2,29.85,West,270,7.8,7.8,83,0.00,,,0.00,VWS V14.01,2013-03-09 08:53:00,
2013-03-09 00:54:00,47.1,42.2,29.85,WSW,248,6.0,6.0,83,0.00,,,0.00,VWS V14.01,2013-03-09 08:54:00,
2013-03-09 00:55:00,47.1,42.2,29.85,SW,225,3.6,3.6,83,0.00,,,0.00,VWS V14.01,2013-03-09 08:55:00,
2013-03-09 00:56:00,47.3,42.4,29.82,West,270,5.6,5.6,83,0.00,,,0.00,VWS V14.01,2013-03-09 08:56:00,
2013-03-09 00:57:00,47.1,42.2,29.85,WSW,248,6.3,6.3,83,0.00,,,0.00,VWS V14.01,2013-03-09 08:57:00,
2013-03-09 00:58:00,47.1,42.2,29.85,WSW,248,6.0,6.0,83,0.00,,,0.00,VWS V14.01,2013-03-09 08:58:00,
2013-03-09 00:59:00,47.1,42.2,29.85,WSW,248,9.6,9.6,83,0.00,,,0.00,VWS V14.01,2013-03-09 08:59:00,
2013-03-09 01:00:00,47.1,42.2,29.85,WSW,248,6.3,6.3,83,0.00,,,0.00,VWS V14.01,2013-03-09 09:00:00,
2013-03-09 01:01:00,47.3,42.4,29.82,WSW,248,6.3,6.3,83,0.00,,,0.00,VWS V14.01,2013-03-09 09:01:00,
2013-03-09 01:02:00,47.1,41.9,29.85,West,270,7.4,7.4,82,0.00,,,0.00,VWS V14.01,2013-03-09 09:02:00,
2013-03-09 01:03:00,47.1,41.9,29.85,WSW,248,8.1,8.1,82,0.00,,,0.00,VWS V14.01,2013-03-09 09:03:00,
2013-03-09 01:04:00,47.1,41.9,29.85,WSW,248,8.7,8.7,82,0.00,,,0.00,VWS V14.01,2013-03-09 09:04:00,
2013-03-09 01:05:00,47.1,41.9,29.85,WSW,248,7.2,7.2,82,0.00,,,0.00,VWS V14.01,2013-03-09 09:05:00,
2013-03-09 01:06:00,47.3,42.7,29.82,WSW,248,10.1,10.1,84,0.00,,,0.00,VWS V14.01,2013-03-09 09:06:00,
2013-03-09 01:07:00,47.1,41.9,29.85,WNW,292,9.6,9.6,82,0.00,,,0.00,VWS V14.01,2013-03-09 09:07:00,
2013-03-09 01:08:00,47.1,41.9,29.85,WNW,292,9.6,9.6,82,0.00,,,0.00,VWS V14.01,2013-03-09 09:08:00,
2013-03-09 01:09:00,47.1,41.9,29.85,WNW,292,9.6,9.6,82,0.00,,,0.00,VWS V14.01,2013-03-09 09:09:00,
2013-03-09 01:10:00,47.1,41.6,29.85,WNW,292,8.1,8.1,81,0.00,,,0.00,VWS V14.01,2013-03-09 09:10:00,
2013-03-09 01:11:00,47.3,42.4,29.82,WSW,248,13.4,13.4,83,0.00,,,0.00,VWS V14.01,2013-03-09 09:11:00,
2013-03-09 01:12:00,47.1,41.6,29.85,WSW,248,7.8,7.8,81,0.00,,,0.00,VWS V14.01,2013-03-09 09:12:00,
2013-03-09 01:13:00,47.1,41.6,29.85,WSW,248,4.0,4.0,81,0.00,,,0.00,VWS V14.01,2013-03-09 09:13:00,
2013-03-09 01:14:00,47.1,41.6,29.85,WSW,248,4.0,4.0,81,0.00,,,0.00,VWS V14.01,2013-03-09 09:14:00,
2013-03-09 01:15:00,47.1,41.6,29.85,WSW,248,5.8,5.8,81,0.00,,,0.00,VWS V14.01,2013-03-09 09:15:00,
2013-03-09 01:16:00,47.3,42.4,29.82,West,270,11.0,11.0,83,0.00,,,0.00,VWS V14.01,2013-03-09 09:16:00,
2013-03-09 01:17:00,47.1,41.6,29.85,WSW,248,5.8,5.8,81,0.00,,,0.00,VWS V14.01,2013-03-09 09:17:00,
2013-03-09 01:18:00,47.1,41.6,29.85,WNW,292,4.9,4.9,81,0.00,,,0.00,VWS V14.01,2013-03-09 09:18:00,
2013-03-09 01:19:00,47.1,41.6,29.85,WNW,292,4.9,4.9,81,0.00,,,0.00,VWS V14.01,2013-03-09 09:19:00,
2013-03-09 01:20:00,47.1,41.6,29.85,WNW,292,4.9,4.9,81,0.00,,,0.00,VWS V14.01,2013-03-09 09:20:00,
2013-03-09 01:21:00,47.3,42.7,29.85,WSW,248,11.2,11.2,84,0.00,,,0.00,VWS V14.01,2013-03-09 09:21:00,
2013-03-09 01:22:00,47.1,41.3,29.82,West,270,7.2,7.2,80,0.00,,,0.00,VWS V14.01,2013-03-09 09:22:00,
2013-03-09 01:23:00,47.1,41.3,29.82,West,270,7.2,7.2,80,0.00,,,0.00,VWS V14.01,2013-03-09 09:23:00,
2013-03-09 01:24:00,47.1,41.3,29.82,West,270,3.8,3.8,80,0.00,,,0.00,VWS V14.01,2013-03-09 09:24:00,
2013-03-09 01:25:00,47.1,41.3,29.82,West,270,3.8,3.8,80,0.00,,,0.00,VWS V14.01,2013-03-09 09:25:00,
2013-03-09 01:26:00,47.3,42.7,29.85,WSW,248,8.5,8.5,84,0.00,,,0.00,VWS V14.01,2013-03-09 09:26:00,
2013-03-09 01:28:00,46.9,41.1,29.82,WSW,248,4.9,4.9,80,0.00,,,0.00,VWS V14.01,2013-03-09 09:28:00,
2013-03-09 01:29:00,46.9,41.1,29.82,West,270,4.7,4.7,80,0.00,,,0.00,VWS V14.01,2013-03-09 09:29:00,
2013-03-09 01:30:00,46.9,41.1,29.82,WSW,248,5.4,5.4,80,0.00,,,0.00,VWS V14.01,2013-03-09 09:30:00,
2013-03-09 01:31:00,47.3,42.7,29.85,SW,225,6.0,6.0,84,0.00,,,0.00,VWS V14.01,2013-03-09 09:31:00,
2013-03-09 01:32:00,46.9,41.1,29.82,WSW,248,4.3,4.3,80,0.00,,,0.00,VWS V14.01,2013-03-09 09:32:00,
2013-03-09 01:33:00,46.9,41.1,29.82,SW,225,2.7,2.7,80,0.00,,,0.00,VWS V14.01,2013-03-09 09:33:00,
2013-03-09 01:34:00,46.9,41.1,29.82,WSW,248,4.3,4.3,80,0.00,,,0.00,VWS V14.01,2013-03-09 09:34:00,
2013-03-09 01:35:00,46.9,41.1,29.82,WSW,248,3.8,3.8,80,0.00,,,0.00,VWS V14.01,2013-03-09 09:35:00,
2013-03-09 01:36:00,47.3,42.7,29.85,WNW,292,6.9,6.9,84,0.00,,,0.00,VWS V14.01,2013-03-09 09:36:00,
2013-03-09 01:37:00,46.8,40.9,29.82,WSW,248,2.0,2.0,80,0.00,,,0.00,VWS V14.01,2013-03-09 09:37:00,
2013-03-09 01:38:00,46.8,40.9,29.82,WSW,248,3.6,3.6,80,0.00,,,0.00,VWS V14.01,2013-03-09 09:38:00,
2013-03-09 01:39:00,46.8,40.9,29.82,WSW,248,3.1,3.1,80,0.00,,,0.00,VWS V14.01,2013-03-09 09:39:00,
2013-03-09 01:40:00,46.8,40.9,29.82,SW,225,3.6,3.6,80,0.00,,,0.00,VWS V14.01,2013-03-09 09:40:00,
2013-03-09 01:41:00,47.1,42.5,29.82,WSW,248,4.3,4.3,84,0.00,,,0.00,VWS V14.01,2013-03-09 09:41:00,
2013-03-09 01:42:00,46.8,40.9,29.82,WSW,248,3.6,3.6,80,0.00,,,0.00,VWS V14.01,2013-03-09 09:42:00,
2013-03-09 01:43:00,46.8,40.9,29.82,WSW,248,2.5,2.5,80,0.00,,,0.00,VWS V14.01,2013-03-09 09:43:00,
2013-03-09 01:44:00,46.6,40.8,29.82,SW,225,2.7,2.7,80,0.00,,,0.00,VWS V14.01,2013-03-09 09:44:00,
2013-03-09 01:45:00,46.6,40.8,29.82,SW,225,2.7,2.7,80,0.00,,,0.00,VWS V14.01,2013-03-09 09:45:00,
2013-03-09 01:46:00,47.1,42.2,29.82,NW,315,4.3,4.3,83,0.00,,,0.00,VWS V14.01,2013-03-09 09:46:00,
2013-03-09 01:47:00,46.6,40.8,29.82,WSW,248,4.7,4.7,80,0.00,,,0.00,VWS V14.01,2013-03-09 09:47:00,
2013-03-09 01:48:00,46.6,40.8,29.82,WSW,248,3.8,3.8,80,0.00,,,0.00,VWS V14.01,2013-03-09 09:48:00,
2013-03-09 01:49:00,46.8,40.9,29.82,SSW,202,4.0,4.0,80,0.00,,,0.00,VWS V14.01,2013-03-09 09:49:00,
2013-03-09 01:50:00,46.8,40.9,29.82,WSW,248,2.7,2.7,80,0.00,,,0.00,VWS V14.01,2013-03-09 09:50:00,
2013-03-09 01:51:00,47.1,42.2,29.85,WSW,248,6.9,6.9,83,0.00,,,0.00,VWS V14.01,2013-03-09 09:51:00,
2013-03-09 01:52:00,46.8,40.9,29.82,WSW,248,4.9,4.9,80,0.00,,,0.00,VWS V14.01,2013-03-09 09:52:00,
2013-03-09 01:53:00,46.8,40.9,29.82,WSW,248,3.8,3.8,80,0.00,,,0.00,VWS V14.01,2013-03-09 09:53:00,
2013-03-09 01:54:00,46.8,40.9,29.82,WSW,248,4.3,4.3,80,0.00,,,0.00,VWS V14.01,2013-03-09 09:54:00,
2013-03-09 01:55:00,46.8,40.9,29.82,WSW,248,4.7,4.7,80,0.00,,,0.00,VWS V14.01,2013-03-09 09:55:00,
2013-03-09 01:56:00,47.1,42.2,29.85,WSW,248,6.0,6.0,83,0.00,,,0.00,VWS V14.01,2013-03-09 09:56:00,
2013-03-09 01:57:00,46.8,40.9,29.82,WNW,292,3.6,3.6,80,0.00,,,0.00,VWS V14.01,2013-03-09 09:57:00,
2013-03-09 01:58:00,46.8,40.9,29.82,WSW,248,3.4,3.4,80,0.00,,,0.00,VWS V14.01,2013-03-09 09:58:00,
2013-03-09 01:59:00,46.8,40.9,29.82,West,270,4.3,4.3,80,0.00,,,0.00,VWS V14.01,2013-03-09 09:59:00,
2013-03-09 02:00:00,46.8,40.9,29.82,WSW,248,3.1,3.1,80,0.00,,,0.00,VWS V14.01,2013-03-09 10:00:00,
2013-03-09 02:01:00,47.1,41.9,29.85,WSW,248,6.0,6.0,82,0.00,,,0.00,VWS V14.01,2013-03-09 10:01:00,
2013-03-09 02:02:00,46.8,40.9,29.82,WSW,248,3.8,3.8,80,0.00,,,0.00,VWS V14.01,2013-03-09 10:02:00,
2013-03-09 02:03:00,46.8,40.9,29.82,WSW,248,5.4,5.4,80,0.00,,,0.00,VWS V14.01,2013-03-09 10:03:00,
2013-03-09 02:04:00,46.8,40.9,29.82,WSW,248,4.3,4.3,80,0.00,,,0.00,VWS V14.01,2013-03-09 10:04:00,
2013-03-09 02:05:00,46.6,40.8,29.82,WSW,248,3.6,3.6,80,0.00,,,0.00,VWS V14.01,2013-03-09 10:05:00,
2013-03-09 02:06:00,47.1,41.9,29.85,WNW,292,9.6,9.6,82,0.00,,,0.00,VWS V14.01,2013-03-09 10:06:00,
2013-03-09 02:07:00,46.6,40.8,29.82,SSW,202,3.8,3.8,80,0.00,,,0.00,VWS V14.01,2013-03-09 10:07:00,
2013-03-09 02:08:00,46.4,40.6,29.82,WSW,248,3.8,3.8,80,0.00,,,0.00,VWS V14.01,2013-03-09 10:08:00,
2013-03-09 02:09:00,46.4,40.6,29.82,WSW,248,3.4,3.4,80,0.00,,,0.00,VWS V14.01,2013-03-09 10:09:00,
2013-03-09 02:10:00,46.4,40.6,29.85,WSW,248,3.8,3.8,80,0.00,,,0.00,VWS V14.01,2013-03-09 10:10:00,
2013-03-09 02:11:00,47.1,41.6,29.85,WSW,248,6.3,6.3,81,0.00,,,0.00,VWS V14.01,2013-03-09 10:11:00,
2013-03-09 02:12:00,46.2,40.7,29.85,SW,225,3.4,3.4,81,0.00,,,0.00,VWS V14.01,2013-03-09 10:12:00,
2013-03-09 02:13:00,46.2,40.7,29.85,WSW,248,3.8,3.8,81,0.00,,,0.00,VWS V14.01,2013-03-09 10:13:00,
2013-03-09 02:14:00,46.2,40.7,29.85,SW,225,4.7,4.7,81,0.00,,,0.00,VWS V14.01,2013-03-09 10:14:00,
2013-03-09 02:15:00,46.2,40.7,29.85,SW,225,4.0,4.0,81,0.00,,,0.00,VWS V14.01,2013-03-09 10:15:00,
2013-03-09 02:16:00,47.1,41.6,29.85,WSW,248,5.8,5.8,81,0.00,,,0.00,VWS V14.01,2013-03-09 10:16:00,
2013-03-09 02:17:00,46.2,40.7,29.85,WSW,248,4.3,4.3,81,0.00,,,0.00,VWS V14.01,2013-03-09 10:17:00,
2013-03-09 02:18:00,46.2,40.7,29.85,SW,225,4.0,4.0,81,0.00,,,0.00,VWS V14.01,2013-03-09 10:18:00,
2013-03-09 02:19:00,46.2,40.7,29.85,SW,225,2.5,2.5,81,0.00,,,0.00,VWS V14.01,2013-03-09 10:19:00,
2013-03-09 02:21:00,47.1,41.3,29.82,WSW,248,3.8,3.8,80,0.00,,,0.00,VWS V14.01,2013-03-09 10:21:00,
2013-03-09 02:22:00,46.2,40.7,29.85,SW,225,3.4,3.4,81,0.00,,,0.00,VWS V14.01,2013-03-09 10:22:00,
2013-03-09 02:23:00,46.2,40.7,29.85,SW,225,4.3,4.3,81,0.00,,,0.00,VWS V14.01,2013-03-09 10:23:00,
2013-03-09 02:24:00,46.2,40.7,29.85,SW,225,3.6,3.6,81,0.00,,,0.00,VWS V14.01,2013-03-09 10:24:00,
2013-03-09 02:26:00,47.1,41.3,29.82,WSW,248,6.0,6.0,80,0.00,,,0.00,VWS V14.01,2013-03-09 10:26:00,
2013-03-09 02:27:00,46.0,40.5,29.85,SW,225,3.8,3.8,81,0.00,,,0.00,VWS V14.01,2013-03-09 10:27:00,
2013-03-09 02:28:00,46.0,40.5,29.85,SW,225,4.3,4.3,81,0.00,,,0.00,VWS V14.01,2013-03-09 10:28:00,
2013-03-09 02:29:00,46.0,40.5,29.85,WSW,248,3.8,3.8,81,0.00,,,0.00,VWS V14.01,2013-03-09 10:29:00,
2013-03-09 02:30:00,46.0,40.5,29.85,SW,225,4.9,4.9,81,0.00,,,0.00,VWS V14.01,2013-03-09 10:30:00,
2013-03-09 02:31:00,46.9,41.1,29.82,WSW,248,3.8,3.8,80,0.00,,,0.00,VWS V14.01,2013-03-09 10:31:00,
2013-03-09 02:33:00,46.0,40.9,29.85,SW,225,3.8,3.8,82,0.00,,,0.00,VWS V14.01,2013-03-09 10:33:00,
2013-03-09 02:34:00,46.0,40.9,29.85,SW,225,5.6,5.6,82,0.00,,,0.00,VWS V14.01,2013-03-09 10:34:00,
2013-03-09 02:35:00,46.0,40.9,29.85,SW,225,6.7,6.7,82,0.00,,,0.00,VWS V14.01,2013-03-09 10:35:00,
2013-03-09 02:36:00,46.8,40.9,29.82,SW,225,2.9,2.9,80,0.00,,,0.00,VWS V14.01,2013-03-09 10:36:00,
2013-03-09 02:37:00,46.0,40.9,29.85,SW,225,5.8,5.8,82,0.00,,,0.00,VWS V14.01,2013-03-09 10:37:00,
2013-03-09 02:38:00,46.0,40.9,29.85,SW,225,5.6,5.6,82,0.00,,,0.00,VWS V14.01,2013-03-09 10:38:00,
2013-03-09 02:39:00,46.0,40.9,29.85,SW,225,6.5,6.5,82,0.00,,,0.00,VWS V14.01,2013-03-09 10:39:00,
2013-03-09 02:40:00,46.0,40.9,29.85,SSW,202,6.0,6.0,82,0.00,,,0.00,VWS V14.01,2013-03-09 10:40:00,
2013-03-09 02:41:00,46.8,40.9,29.82,SSW,202,2.9,2.9,80,0.00,,,0.00,VWS V14.01,2013-03-09 10:41:00,
2013-03-09 02:42:00,46.0,40.9,29.85,SSW,202,5.6,5.6,82,0.00,,,0.00,VWS V14.01,2013-03-09 10:42:00,
2013-03-09 02:43:00,46.0,40.9,29.85,SSW,202,4.0,4.0,82,0.00,,,0.00,VWS V14.01,2013-03-09 10:43:00,
2013-03-09 02:44:00,46.0,40.9,29.85,SW,225,4.9,4.9,82,0.00,,,0.00,VWS V14.01,2013-03-09 10:44:00,
2013-03-09 02:45:00,46.0,40.9,29.85,SW,225,3.8,3.8,82,0.00,,,0.00,VWS V14.01,2013-03-09 10:45:00,
2013-03-09 02:46:00,46.6,40.8,29.82,WSW,248,4.7,4.7,80,0.00,,,0.00,VWS V14.01,2013-03-09 10:46:00,
2013-03-09 02:47:00,46.0,41.2,29.85,SW,225,5.8,5.8,83,0.00,,,0.00,VWS V14.01,2013-03-09 10:47:00,
2013-03-09 02:48:00,46.0,41.2,29.85,SW,225,5.8,5.8,83,0.00,,,0.00,VWS V14.01,2013-03-09 10:48:00,
2013-03-09 02:49:00,46.0,41.2,29.85,WSW,248,4.9,4.9,83,0.00,,,0.00,VWS V14.01,2013-03-09 10:49:00,
2013-03-09 02:50:00,46.0,41.2,29.85,SSW,202,5.4,5.4,83,0.00,,,0.00,VWS V14.01,2013-03-09 10:50:00,
2013-03-09 02:51:00,46.8,40.9,29.82,WSW,248,2.9,2.9,80,0.00,,,0.00,VWS V14.01,2013-03-09 10:51:00,
2013-03-09 02:52:00,46.0,41.2,29.88,SSW,202,6.0,6.0,83,0.00,,,0.00,VWS V14.01,2013-03-09 10:52:00,
2013-03-09 02:53:00,45.9,41.0,29.88,SW,225,4.3,4.3,83,0.00,,,0.00,VWS V14.01,2013-03-09 10:53:00,
2013-03-09 02:54:00,46.0,41.2,29.88,WSW,248,4.3,4.3,83,0.00,,,0.00,VWS V14.01,2013-03-09 10:54:00,
2013-03-09 02:55:00,46.0,41.2,29.88,SW,225,4.0,4.0,83,0.00,,,0.00,VWS V14.01,2013-03-09 10:55:00,
2013-03-09 02:56:00,46.8,40.9,29.82,WSW,248,3.4,3.4,80,0.00,,,0.00,VWS V14.01,2013-03-09 10:56:00,
2013-03-09 02:58:00,46.0,41.2,29.88,WSW,248,6.5,6.5,83,0.00,,,0.00,VWS V14.01,2013-03-09 10:58:00,
2013-03-09 02:59:00,46.0,41.2,29.88,SW,225,4.3,4.3,83,0.00,,,0.00,VWS V14.01,2013-03-09 10:59:00,
2013-03-09 03:00:00,46.0,41.2,29.88,WSW,248,4.3,4.3,83,0.00,,,0.00,VWS V14.01,2013-03-09 11:00:00,
2013-03-09 03:01:00,46.8,40.9,29.82,WSW,248,4.0,4.0,80,0.00,,,0.00,VWS V14.01,2013-03-09 11:01:00,
2013-03-09 03:02:00,46.0,41.2,29.88,SSW,202,5.8,5.8,83,0.00,,,0.00,VWS V14.01,2013-03-09 11:02:00,
2013-03-09 03:03:00,46.0,41.2,29.88,SW,225,4.9,4.9,83,0.00,,,0.00,VWS V14.01,2013-03-09 11:03:00,
2013-03-09 03:04:00,46.0,41.2,29.88,SW,225,4.3,4.3,83,0.00,,,0.00,VWS V14.01,2013-03-09 11:04:00,
2013-03-09 03:05:00,46.0,41.2,29.88,WSW,248,3.4,3.4,83,0.00,,,0.00,VWS V14.01,2013-03-09 11:05:00,
2013-03-09 03:06:00,46.6,40.8,29.82,WSW,248,2.7,2.7,80,0.00,,,0.00,VWS V14.01,2013-03-09 11:06:00,
2013-03-09 03:07:00,46.0,41.2,29.88,SW,225,3.6,3.6,83,0.00,,,0.00,VWS V14.01,2013-03-09 11:07:00,
2013-03-09 03:08:00,46.0,41.2,29.88,WSW,248,2.7,2.7,83,0.00,,,0.00,VWS V14.01,2013-03-09 11:08:00,
2013-03-09 03:09:00,46.0,41.2,29.88,WSW,248,2.5,2.5,83,0.00,,,0.00,VWS V14.01,2013-03-09 11:09:00,
2013-03-09 03:10:00,46.0,41.2,29.88,WSW,248,1.6,1.6,83,0.00,,,0.00,VWS V14.01,2013-03-09 11:10:00,
2013-03-09 03:11:00,46.4,40.6,29.85,SW,225,3.4,3.4,80,0.00,,,0.00,VWS V14.01,2013-03-09 11:11:00,
2013-03-09 03:12:00,46.0,41.2,29.88,SW,225,3.8,3.8,83,0.00,,,0.00,VWS V14.01,2013-03-09 11:12:00,
2013-03-09 03:13:00,46.0,41.2,29.88,WSW,248,3.1,3.1,83,0.00,,,0.00,VWS V14.01,2013-03-09 11:13:00,
2013-03-09 03:14:00,46.0,41.2,29.88,SW,225,4.0,4.0,83,0.00,,,0.00,VWS V14.01,2013-03-09 11:14:00,
2013-03-09 03:15:00,46.0,41.2,29.88,West,270,2.9,2.9,83,0.00,,,0.00,VWS V14.01,2013-03-09 11:15:00,
2013-03-09 03:16:00,46.4,40.6,29.85,SW,225,3.6,3.6,80,0.00,,,0.00,VWS V14.01,2013-03-09 11:16:00,
2013-03-09 03:17:00,45.9,41.0,29.88,WSW,248,3.6,3.6,83,0.00,,,0.00,VWS V14.01,2013-03-09 11:17:00,
2013-03-09 03:18:00,45.9,41.0,29.88,SW,225,6.3,6.3,83,0.00,,,0.00,VWS V14.01,2013-03-09 11:18:00,
2013-03-09 03:19:00,45.9,41.0,29.88,SW,225,3.4,3.4,83,0.00,,,0.00,VWS V14.01,2013-03-09 11:19:00,
2013-03-09 03:20:00,45.9,41.0,29.88,SW,225,3.8,3.8,83,0.00,,,0.00,VWS V14.01,2013-03-09 11:20:00,
2013-03-09 03:21:00,46.2,40.7,29.85,SW,225,2.7,2.7,81,0.00,,,0.00,VWS V14.01,2013-03-09 11:21:00,
2013-03-09 03:22:00,45.9,41.0,29.88,SW,225,4.3,4.3,83,0.00,,,0.00,VWS V14.01,2013-03-09 11:22:00,
2013-03-09 03:23:00,46.0,41.5,29.88,SW,225,5.8,5.8,84,0.00,,,0.00,VWS V14.01,2013-03-09 11:23:00,
2013-03-09 03:24:00,46.0,41.5,29.88,SW,225,4.0,4.0,84,0.00,,,0.00,VWS V14.01,2013-03-09 11:24:00,
2013-03-09 03:25:00,46.0,41.5,29.88,WSW,248,6.0,6.0,84,0.00,,,0.00,VWS V14.01,2013-03-09 11:25:00,
2013-03-09 03:26:00,46.0,40.5,29.85,SW,225,3.8,3.8,81,0.00,,,0.00,VWS V14.01,2013-03-09 11:26:00,
2013-03-09 03:27:00,46.0,41.5,29.88,WSW,248,3.8,3.8,84,0.00,,,0.00,VWS V14.01,2013-03-09 11:27:00,
2013-03-09 03:28:00,46.0,41.5,29.88,SW,225,3.4,3.4,84,0.00,,,0.00,VWS V14.01,2013-03-09 11:28:00,
2013-03-09 03:29:00,46.0,41.5,29.88,SSW,202,5.8,5.8,84,0.00,,,0.00,VWS V14.01,2013-03-09 11:29:00,
2013-03-09 03:30:00,46.2,41.7,29.88,WSW,248,6.0,6.0,84,0.00,,,0.00,VWS V14.01,2013-03-09 11:30:00,
2013-03-09 03:31:00,46.0,40.9,29.85,WSW,248,4.0,4.0,82,0.00,,,0.00,VWS V14.01,2013-03-09 11:31:00,
2013-03-09 03:32:00,46.2,41.7,29.88,WSW,248,5.4,5.4,84,0.00,,,0.00,VWS V14.01,2013-03-09 11:32:00,
2013-03-09 03:33:00,46.2,41.7,29.88,WSW,248,4.0,4.0,84,0.00,,,0.00,VWS V14.01,2013-03-09 11:33:00,
2013-03-09 03:34:00,46.2,41.7,29.88,SSW,202,4.9,4.9,84,0.00,,,0.00,VWS V14.01,2013-03-09 11:34:00,
2013-03-09 03:35:00,46.2,41.7,29.88,West,270,3.1,3.1,84,0.00,,,0.00,VWS V14.01,2013-03-09 11:35:00,
2013-03-09 03:36:00,46.0,40.9,29.85,SW,225,5.6,5.6,82,0.00,,,0.00,VWS V14.01,2013-03-09 11:36:00,
2013-03-09 03:37:00,46.0,41.5,29.91,SW,225,5.6,5.6,84,0.00,,,0.00,VWS V14.01,2013-03-09 11:37:00,
2013-03-09 03:38:00,46.0,41.5,29.91,WSW,248,4.0,4.0,84,0.00,,,0.00,VWS V14.01,2013-03-09 11:38:00,
2013-03-09 03:39:00,46.0,41.5,29.91,WSW,248,4.3,4.3,84,0.00,,,0.00,VWS V14.01,2013-03-09 11:39:00,
2013-03-09 03:40:00,46.0,41.5,29.91,WSW,248,5.4,5.4,84,0.00,,,0.00,VWS V14.01,2013-03-09 11:40:00,
2013-03-09 03:41:00,46.0,40.9,29.85,SW,225,6.5,6.5,82,0.00,,,0.00,VWS V14.01,2013-03-09 11:41:00,
2013-03-09 03:42:00,46.0,41.5,29.91,WSW,248,8.1,8.1,84,0.00,,,0.00,VWS V14.01,2013-03-09 11:42:00,
2013-03-09 03:43:00,46.0,41.5,29.91,WSW,248,4.0,4.0,84,0.00,,,0.00,VWS V14.01,2013-03-09 11:43:00,
2013-03-09 03:44:00,46.0,41.5,29.91,WSW,248,6.5,6.5,84,0.00,,,0.00,VWS V14.01,2013-03-09 11:44:00,
2013-03-09 03:45:00,46.0,41.5,29.91,SSW,202,5.8,5.8,84,0.00,,,0.00,VWS V14.01,2013-03-09 11:45:00,
2013-03-09 03:46:00,46.0,40.9,29.85,SSW,202,4.3,4.3,82,0.00,,,0.00,VWS V14.01,2013-03-09 11:46:00,
2013-03-09 03:47:00,46.0,41.5,29.91,WSW,248,4.9,4.9,84,0.00,,,0.00,VWS V14.01,2013-03-09 11:47:00,
2013-03-09 03:48:00,46.0,41.5,29.91,WSW,248,4.0,4.0,84,0.00,,,0.00,VWS V14.01,2013-03-09 11:48:00,
2013-03-09 03:49:00,46.0,41.5,29.91,WSW,248,4.0,4.0,84,0.00,,,0.00,VWS V14.01,2013-03-09 11:49:00,
2013-03-09 03:50:00,46.0,41.5,29.91,WSW,248,6.5,6.5,84,0.00,,,0.00,VWS V14.01,2013-03-09 11:50:00,
2013-03-09 03:51:00,46.0,41.2,29.88,SSW,202,6.0,6.0,83,0.00,,,0.00,VWS V14.01,2013-03-09 11:51:00,
2013-03-09 03:52:00,46.2,41.7,29.91,WSW,248,6.3,6.3,84,0.00,,,0.00,VWS V14.01,2013-03-09 11:52:00,
2013-03-09 03:53:00,46.2,41.7,29.91,SW,225,4.3,4.3,84,0.00,,,0.00,VWS V14.01,2013-03-09 11:53:00,
2013-03-09 03:54:00,46.2,41.7,29.91,WSW,248,6.5,6.5,84,0.00,,,0.00,VWS V14.01,2013-03-09 11:54:00,
2013-03-09 03:55:00,46.2,41.7,29.91,SW,225,4.3,4.3,84,0.00,,,0.00,VWS V14.01,2013-03-09 11:55:00,
2013-03-09 03:56:00,46.0,41.2,29.88,WSW,248,6.5,6.5,83,0.00,,,0.00,VWS V14.01,2013-03-09 11:56:00,
2013-03-09 03:57:00,46.2,41.7,29.91,WSW,248,5.6,5.6,84,0.00,,,0.00,VWS V14.01,2013-03-09 11:57:00,
2013-03-09 03:58:00,46.0,41.5,29.91,WSW,248,3.8,3.8,84,0.00,,,0.00,VWS V14.01,2013-03-09 11:58:00,
2013-03-09 03:59:00,46.0,41.5,29.91,West,270,5.4,5.4,84,0.00,,,0.00,VWS V14.01,2013-03-09 11:59:00,
2013-03-09 04:00:00,46.0,41.8,29.91,WSW,248,3.1,3.1,85,0.00,,,0.00,VWS V14.01,2013-03-09 12:00:00,
2013-03-09 04:01:00,46.0,41.2,29.88,SW,225,3.8,3.8,83,0.00,,,0.00,VWS V14.01,2013-03-09 12:01:00,
2013-03-09 04:02:00,46.0,41.8,29.91,West,270,3.8,3.8,85,0.00,,,0.00,VWS V14.01,2013-03-09 12:02:00,
2013-03-09 04:03:00,46.0,41.8,29.91,West,270,3.8,3.8,85,0.00,,,0.00,VWS V14.01,2013-03-09 12:03:00,
2013-03-09 04:04:00,46.0,41.8,29.91,West,270,3.1,3.1,85,0.00,,,0.00,VWS V14.01,2013-03-09 12:04:00,
2013-03-09 04:05:00,46.0,41.8,29.91,West,270,3.8,3.8,85,0.00,,,0.00,VWS V14.01,2013-03-09 12:05:00,
2013-03-09 04:06:00,46.0,41.2,29.88,WSW,248,3.1,3.1,83,0.00,,,0.00,VWS V14.01,2013-03-09 12:06:00,
2013-03-09 04:07:00,46.0,41.8,29.91,West,270,5.4,5.4,85,0.00,,,0.00,VWS V14.01,2013-03-09 12:07:00,
2013-03-09 04:08:00,46.0,41.8,29.91,West,270,4.0,4.0,85,0.00,,,0.00,VWS V14.01,2013-03-09 12:08:00,
2013-03-09 04:09:00,45.9,41.6,29.91,West,270,4.9,4.9,85,0.00,,,0.00,VWS V14.01,2013-03-09 12:09:00,
2013-03-09 04:10:00,46.0,41.8,29.91,SW,225,5.6,5.6,85,0.00,,,0.00,VWS V14.01,2013-03-09 12:10:00,
2013-03-09 04:11:00,46.0,41.2,29.88,WSW,248,5.4,5.4,83,0.00,,,0.00,VWS V14.01,2013-03-09 12:11:00,
2013-03-09 04:12:00,46.0,41.8,29.91,WSW,248,6.3,6.3,85,0.00,,,0.00,VWS V14.01,2013-03-09 12:12:00,
2013-03-09 04:13:00,46.0,41.8,29.91,WSW,248,4.0,4.0,85,0.00,,,0.00,VWS V14.01,2013-03-09 12:13:00,
2013-03-09 04:15:00,45.9,41.6,29.91,WSW,248,4.0,4.0,85,0.00,,,0.00,VWS V14.01,2013-03-09 12:15:00,
2013-03-09 04:16:00,45.9,41.0,29.88,WSW,248,2.0,2.0,83,0.00,,,0.00,VWS V14.01,2013-03-09 12:16:00,
2013-03-09 04:17:00,45.9,41.6,29.91,WSW,248,3.8,3.8,85,0.00,,,0.00,VWS V14.01,2013-03-09 12:17:00,
2013-03-09 04:18:00,45.9,41.6,29.91,WSW,248,6.3,6.3,85,0.00,,,0.00,VWS V14.01,2013-03-09 12:18:00,
2013-03-09 04:19:00,46.0,41.8,29.91,WSW,248,7.8,7.8,85,0.00,,,0.00,VWS V14.01,2013-03-09 12:19:00,
2013-03-09 04:20:00,46.0,41.8,29.91,WSW,248,5.4,5.4,85,0.00,,,0.00,VWS V14.01,2013-03-09 12:20:00,
2013-03-09 04:21:00,45.9,41.0,29.88,WSW,248,5.8,5.8,83,0.00,,,0.00,VWS V14.01,2013-03-09 12:21:00,
2013-03-09 04:22:00,46.0,41.8,29.91,WSW,248,4.9,4.9,85,0.00,,,0.00,VWS V14.01,2013-03-09 12:22:00,
2013-03-09 04:23:00,46.0,41.8,29.91,WSW,248,6.0,6.0,85,0.00,,,0.00,VWS V14.01,2013-03-09 12:23:00,
2013-03-09 04:24:00,46.0,41.8,29.91,WSW,248,4.9,4.9,85,0.00,,,0.00,VWS V14.01,2013-03-09 12:24:00,
2013-03-09 04:25:00,46.0,41.8,29.91,WSW,248,5.4,5.4,85,0.00,,,0.00,VWS V14.01,2013-03-09 12:25:00,
2013-03-09 04:26:00,46.0,41.5,29.88,SSW,202,6.3,6.3,84,0.00,,,0.00,VWS V14.01,2013-03-09 12:26:00,
2013-03-09 04:27:00,46.0,41.8,29.91,SSW,202,6.3,6.3,85,0.00,,,0.00,VWS V14.01,2013-03-09 12:27:00,
2013-03-09 04:28:00,46.0,41.8,29.91,SW,225,5.6,5.6,85,0.00,,,0.00,VWS V14.01,2013-03-09 12:28:00,
2013-03-09 04:29:00,46.0,41.8,29.91,WSW,248,4.0,4.0,85,0.00,,,0.00,VWS V14.01,2013-03-09 12:29:00,
2013-03-09 04:30:00,46.0,41.8,29.91,WSW,248,7.8,7.8,85,0.00,,,0.00,VWS V14.01,2013-03-09 12:30:00,
2013-03-09 04:31:00,46.2,41.7,29.88,WSW,248,3.1,3.1,84,0.00,,,0.00,VWS V14.01,2013-03-09 12:31:00,
2013-03-09 04:32:00,46.0,41.8,29.91,WSW,248,7.6,7.6,85,0.00,,,0.00,VWS V14.01,2013-03-09 12:32:00,
2013-03-09 04:33:00,46.0,41.8,29.91,SW,225,5.4,5.4,85,0.00,,,0.00,VWS V14.01,2013-03-09 12:33:00,
2013-03-09 04:34:00,46.0,41.8,29.91,WSW,248,6.9,6.9,85,0.00,,,0.00,VWS V14.01,2013-03-09 12:34:00,
2013-03-09 04:35:00,46.0,41.8,29.91,SW,225,4.0,4.0,85,0.00,,,0.00,VWS V14.01,2013-03-09 12:35:00,
2013-03-09 04:36:00,46.2,41.7,29.91,WSW,248,3.8,3.8,84,0.00,,,0.00,VWS V14.01,2013-03-09 12:36:00,
2013-03-09 04:37:00,46.0,41.8,29.94,WSW,248,5.8,5.8,85,0.00,,,0.00,VWS V14.01,2013-03-09 12:37:00,
2013-03-09 04:38:00,46.0,41.8,29.94,SW,225,4.7,4.7,85,0.00,,,0.00,VWS V14.01,2013-03-09 12:38:00,
2013-03-09 04:39:00,46.0,41.8,29.94,WSW,248,8.1,8.1,85,0.00,,,0.00,VWS V14.01,2013-03-09 12:39:00,
2013-03-09 04:40:00,46.0,41.8,29.94,SW,225,4.0,4.0,85,0.00,,,0.00,VWS V14.01,2013-03-09 12:40:00,
2013-03-09 04:41:00,46.0,41.5,29.91,WNW,292,5.4,5.4,84,0.00,,,0.00,VWS V14.01,2013-03-09 12:41:00,
2013-03-09 04:42:00,46.0,41.8,29.94,West,270,4.3,4.3,85,0.00,,,0.00,VWS V14.01,2013-03-09 12:42:00,
2013-03-09 04:43:00,46.0,41.8,29.94,WSW,248,5.4,5.4,85,0.00,,,0.00,VWS V14.01,2013-03-09 12:43:00,
2013-03-09 04:44:00,46.0,41.5,29.94,WSW,248,5.4,5.4,84,0.00,,,0.00,VWS V14.01,2013-03-09 12:44:00,
2013-03-09 04:45:00,46.0,41.5,29.94,West,270,2.7,2.7,84,0.00,,,0.00,VWS V14.01,2013-03-09 12:45:00,
2013-03-09 04:46:00,46.0,41.5,29.91,WSW,248,6.5,6.5,84,0.00,,,0.00,VWS V14.01,2013-03-09 12:46:00,
2013-03-09 04:47:00,46.0,41.5,29.94,WNW,292,4.0,4.0,84,0.00,,,0.00,VWS V14.01,2013-03-09 12:47:00,
2013-03-09 04:48:00,46.0,41.5,29.94,NNW,338,0.0,0.0,84,0.00,,,0.00,VWS V14.01,2013-03-09 12:48:00,
2013-03-09 04:49:00,45.7,41.1,29.94,NW,315,2.5,2.5,84,0.00,,,0.00,VWS V14.01,2013-03-09 12:49:00,
2013-03-09 04:50:00,45.7,41.1,29.94,WNW,292,3.6,3.6,84,0.00,,,0.00,VWS V14.01,2013-03-09 12:50:00,
2013-03-09 04:51:00,46.2,41.7,29.91,WSW,248,6.3,6.3,84,0.00,,,0.00,VWS V14.01,2013-03-09 12:51:00,
2013-03-09 04:52:00,45.5,41.0,29.94,WSW,248,2.0,2.0,84,0.00,,,0.00,VWS V14.01,2013-03-09 12:52:00,
2013-03-09 04:53:00,45.5,41.0,29.94,NW,315,3.4,3.4,84,0.00,,,0.00,VWS V14.01,2013-03-09 12:53:00,
2013-03-09 04:54:00,45.5,41.0,29.94,WNW,292,3.1,3.1,84,0.00,,,0.00,VWS V14.01,2013-03-09 12:54:00,
2013-03-09 04:55:00,45.5,41.0,29.94,WNW,292,3.6,3.6,84,0.00,,,0.00,VWS V14.01,2013-03-09 12:55:00,
2013-03-09 04:56:00,46.2,41.7,29.91,SW,225,4.3,4.3,84,0.00,,,0.00,VWS V14.01,2013-03-09 12:56:00,
2013-03-09 04:57:00,45.5,41.0,29.94,WSW,248,3.4,3.4,84,0.00,,,0.00,VWS V14.01,2013-03-09 12:57:00,
2013-03-09 04:58:00,45.5,41.0,29.94,WSW,248,3.1,3.1,84,0.00,,,0.00,VWS V14.01,2013-03-09 12:58:00,
2013-03-09 04:59:00,45.5,41.0,29.94,West,270,4.0,4.0,84,0.00,,,0.00,VWS V14.01,2013-03-09 12:59:00,
2013-03-09 05:00:00,46.0,41.8,29.91,WSW,248,5.4,5.4,85,0.00,,,0.00,VWS V14.01,2013-03-09 13:00:00,
2013-03-09 05:01:00,45.5,41.0,29.94,WSW,248,3.6,3.6,84,0.00,,,0.00,VWS V14.01,2013-03-09 13:01:00,
2013-03-09 05:02:00,45.5,41.0,29.94,West,270,3.8,3.8,84,0.00,,,0.00,VWS V14.01,2013-03-09 13:02:00,
2013-03-09 05:03:00,45.5,41.0,29.94,WSW,248,4.3,4.3,84,0.00,,,0.00,VWS V14.01,2013-03-09 13:03:00,
2013-03-09 05:04:00,45.5,41.0,29.94,WSW,248,3.8,3.8,84,0.00,,,0.00,VWS V14.01,2013-03-09 13:04:00,
2013-03-09 05:05:00,46.0,41.8,29.91,WSW,248,4.3,4.3,85,0.00,,,0.00,VWS V14.01,2013-03-09 13:05:00,
2013-03-09 05:06:00,45.5,41.0,29.94,WSW,248,2.5,2.5,84,0.00,,,0.00,VWS V14.01,2013-03-09 13:06:00,
2013-03-09 05:07:00,45.5,41.0,29.94,WSW,248,2.7,2.7,84,0.00,,,0.00,VWS V14.01,2013-03-09 13:07:00,
2013-03-09 05:08:00,45.5,41.0,29.94,WSW,248,3.8,3.8,84,0.00,,,0.00,VWS V14.01,2013-03-09 13:08:00,
2013-03-09 05:09:00,45.5,41.0,29.94,WSW,248,3.8,3.8,84,0.00,,,0.00,VWS V14.01,2013-03-09 13:09:00,
2013-03-09 05:10:00,46.0,41.8,29.91,WSW,248,6.3,6.3,85,0.00,,,0.00,VWS V14.01,2013-03-09 13:10:00,
2013-03-09 05:11:00,45.7,41.1,29.94,WSW,248,3.8,3.8,84,0.00,,,0.00,VWS V14.01,2013-03-09 13:11:00,
2013-03-09 05:13:00,45.7,41.1,29.94,WSW,248,3.8,3.8,84,0.00,,,0.00,VWS V14.01,2013-03-09 13:13:00,
2013-03-09 05:14:00,45.7,40.8,29.94,WNW,292,3.1,3.1,83,0.00,,,0.00,VWS V14.01,2013-03-09 13:14:00,
2013-03-09 05:15:00,45.9,41.6,29.91,WSW,248,5.4,5.4,85,0.00,,,0.00,VWS V14.01,2013-03-09 13:15:00,
2013-03-09 05:16:00,45.9,41.0,29.94,WNW,292,3.1,3.1,83,0.00,,,0.00,VWS V14.01,2013-03-09 13:16:00,
2013-03-09 05:17:00,45.9,41.0,29.94,WNW,292,2.9,2.9,83,0.00,,,0.00,VWS V14.01,2013-03-09 13:17:00,
2013-03-09 05:18:00,45.9,41.0,29.94,West,270,3.4,3.4,83,0.00,,,0.00,VWS V14.01,2013-03-09 13:18:00,
2013-03-09 05:19:00,45.9,41.0,29.94,West,270,3.6,3.6,83,0.00,,,0.00,VWS V14.01,2013-03-09 13:19:00,
2013-03-09 05:20:00,46.0,41.8,29.91,SW,225,4.7,4.7,85,0.00,,,0.00,VWS V14.01,2013-03-09 13:20:00,
2013-03-09 05:21:00,45.9,41.0,29.94,West,270,2.9,2.9,83,0.00,,,0.00,VWS V14.01,2013-03-09 13:21:00,
2013-03-09 05:22:00,45.9,41.0,29.94,WSW,248,2.9,2.9,83,0.00,,,0.00,VWS V14.01,2013-03-09 13:22:00,
2013-03-09 05:23:00,45.7,40.8,29.94,WSW,248,1.6,1.6,83,0.00,,,0.00,VWS V14.01,2013-03-09 13:23:00,
2013-03-09 05:24:00,45.7,40.8,29.94,WSW,248,3.8,3.8,83,0.00,,,0.00,VWS V14.01,2013-03-09 13:24:00,
2013-03-09 05:25:00,46.0,41.8,29.91,WSW,248,5.4,5.4,85,0.00,,,0.00,VWS V14.01,2013-03-09 13:25:00,
2013-03-09 05:26:00,45.7,40.8,29.94,WSW,248,2.7,2.7,83,0.00,,,0.00,VWS V14.01,2013-03-09 13:26:00,
2013-03-09 05:27:00,45.7,40.8,29.94,West,270,3.4,3.4,83,0.00,,,0.00,VWS V14.01,2013-03-09 13:27:00,
2013-03-09 05:28:00,45.7,40.8,29.94,West,270,3.1,3.1,83,0.00,,,0.00,VWS V14.01,2013-03-09 13:28:00,
2013-03-09 05:29:00,45.7,40.8,29.94,West,270,3.8,3.8,83,0.00,,,0.00,VWS V14.01,2013-03-09 13:29:00,
2013-03-09 05:30:00,46.0,41.8,29.91,WSW,248,6.5,6.5,85,0.00,,,0.00,VWS V14.01,2013-03-09 13:30:00,
2013-03-09 05:31:00,45.7,40.8,29.94,WNW,292,2.5,2.5,83,0.00,,,0.00,VWS V14.01,2013-03-09 13:31:00,
2013-03-09 05:32:00,45.9,41.0,29.94,WNW,292,3.4,3.4,83,0.00,,,0.00,VWS V14.01,2013-03-09 13:32:00,
2013-03-09 05:33:00,45.9,41.0,29.94,WNW,292,3.1,3.1,83,0.00,,,0.00,VWS V14.01,2013-03-09 13:33:00,
2013-03-09 05:34:00,45.9,41.0,29.94,WNW,292,1.6,1.6,83,0.00,,,0.00,VWS V14.01,2013-03-09 13:34:00,
2013-03-09 05:35:00,46.0,41.8,29.94,SSW,202,6.3,6.3,85,0.00,,,0.00,VWS V14.01,2013-03-09 13:35:00,
2013-03-09 05:36:00,45.9,41.0,29.97,WSW,248,3.4,3.4,83,0.00,,,0.00,VWS V14.01,2013-03-09 13:36:00,
2013-03-09 05:37:00,45.3,40.5,29.97,WSW,248,3.8,3.8,83,0.00,,,0.00,VWS V14.01,2013-03-09 13:37:00,
2013-03-09 05:38:00,45.3,40.5,29.97,WSW,248,3.1,3.1,83,0.00,,,0.00,VWS V14.01,2013-03-09 13:38:00,
2013-03-09 05:39:00,45.1,40.3,29.97,WNW,292,2.7,2.7,83,0.00,,,0.00,VWS V14.01,2013-03-09 13:39:00,
2013-03-09 05:40:00,46.0,41.8,29.94,WSW,248,5.8,5.8,85,0.00,,,0.00,VWS V14.01,2013-03-09 13:40:00,
2013-03-09 05:41:00,45.3,40.5,29.97,WNW,292,2.7,2.7,83,0.00,,,0.00,VWS V14.01,2013-03-09 13:41:00,
2013-03-09 05:42:00,45.3,40.5,29.97,WNW,292,2.7,2.7,83,0.00,,,0.00,VWS V14.01,2013-03-09 13:42:00,
2013-03-09 05:43:00,45.3,40.5,29.97,WNW,292,3.1,3.1,83,0.00,,,0.00,VWS V14.01,2013-03-09 13:43:00,
2013-03-09 05:44:00,45.3,40.5,29.97,WNW,292,3.1,3.1,83,0.00,,,0.00,VWS V14.01,2013-03-09 13:44:00,
2013-03-09 05:45:00,46.0,41.5,29.94,West,270,4.0,4.0,84,0.00,,,0.00,VWS V14.01,2013-03-09 13:45:00,
2013-03-09 05:46:00,45.5,40.7,29.97,NW,315,2.9,2.9,83,0.00,,,0.00,VWS V14.01,2013-03-09 13:46:00,
2013-03-09 05:47:00,45.5,40.7,29.97,NNW,338,4.0,4.0,83,0.00,,,0.00,VWS V14.01,2013-03-09 13:47:00,
2013-03-09 05:48:00,45.5,40.3,29.97,WNW,292,2.9,2.9,82,0.00,,,0.00,VWS V14.01,2013-03-09 13:48:00,
2013-03-09 05:49:00,45.7,40.5,29.97,NW,315,3.4,3.4,82,0.00,,,0.00,VWS V14.01,2013-03-09 13:49:00,
2013-03-09 05:50:00,45.5,41.0,29.94,WNW,292,3.6,3.6,84,0.00,,,0.00,VWS V14.01,2013-03-09 13:50:00,
2013-03-09 05:51:00,45.7,40.5,29.97,NW,315,2.7,2.7,82,0.00,,,0.00,VWS V14.01,2013-03-09 13:51:00,
2013-03-09 05:52:00,45.7,40.5,29.97,NW,315,2.9,2.9,82,0.00,,,0.00,VWS V14.01,2013-03-09 13:52:00,
2013-03-09 05:53:00,45.9,40.7,29.97,NW,315,2.5,2.5,82,0.00,,,0.00,VWS V14.01,2013-03-09 13:53:00,
2013-03-09 05:54:00,45.9,40.7,29.97,NW,315,2.9,2.9,82,0.00,,,0.00,VWS V14.01,2013-03-09 13:54:00,
2013-03-09 05:55:00,45.5,41.0,29.94,West,270,2.7,2.7,84,0.00,,,0.00,VWS V14.01,2013-03-09 13:55:00,
2013-03-09 05:56:00,45.9,40.7,29.97,NW,315,3.1,3.1,82,0.00,,,0.00,VWS V14.01,2013-03-09 13:56:00,
2013-03-09 05:58:00,45.9,40.7,29.97,NW,315,3.8,3.8,82,0.00,,,0.00,VWS V14.01,2013-03-09 13:58:00,
2013-03-09 05:59:00,45.9,40.7,29.97,NW,315,3.8,3.8,82,0.00,,,0.00,VWS V14.01,2013-03-09 13:59:00,
2013-03-09 06:00:00,45.5,41.0,29.94,WSW,248,3.6,3.6,84,0.00,,,0.00,VWS V14.01,2013-03-09 14:00:00,
2013-03-09 06:01:00,46.0,40.9,29.97,NNW,338,2.7,2.7,82,0.00,,,0.00,VWS V14.01,2013-03-09 14:01:00,
2013-03-09 06:02:00,46.0,41.2,29.97,WNW,292,1.1,1.1,83,0.00,,,0.00,VWS V14.01,2013-03-09 14:02:00,
2013-03-09 06:03:00,46.0,41.2,29.97,WNW,292,1.1,1.1,83,0.00,,,0.00,VWS V14.01,2013-03-09 14:03:00,
2013-03-09 06:04:00,46.0,41.2,29.97,WNW,292,1.1,1.1,83,0.00,,,0.00,VWS V14.01,2013-03-09 14:04:00,
2013-03-09 06:05:00,45.5,41.0,29.94,WSW,248,4.9,4.9,84,0.00,,,0.00,VWS V14.01,2013-03-09 14:05:00,
2013-03-09 06:06:00,46.2,41.3,29.97,NW,315,1.6,1.6,83,0.00,,,0.00,VWS V14.01,2013-03-09 14:06:00,
2013-03-09 06:07:00,46.2,41.3,29.97,WNW,292,0.9,0.9,83,0.00,,,0.00,VWS V14.01,2013-03-09 14:07:00,
2013-03-09 06:08:00,46.2,41.3,29.97,WNW,292,1.6,1.6,83,0.00,,,0.00,VWS V14.01,2013-03-09 14:08:00,
2013-03-09 06:09:00,46.4,41.2,29.97,WNW,292,0.9,0.9,82,0.00,,,0.00,VWS V14.01,2013-03-09 14:09:00,
2013-03-09 06:10:00,45.7,41.1,29.94,WSW,248,2.7,2.7,84,0.00,,,0.00,VWS V14.01,2013-03-09 14:10:00,
2013-03-09 06:11:00,46.6,41.4,29.97,WNW,292,0.9,0.9,82,0.00,,,0.00,VWS V14.01,2013-03-09 14:11:00,
2013-03-09 06:12:00,46.6,41.4,29.97,NW,315,2.0,2.0,82,0.00,,,0.00,VWS V14.01,2013-03-09 14:12:00,
2013-03-09 06:13:00,46.6,41.4,29.97,NW,315,2.0,2.0,82,0.00,,,0.00,VWS V14.01,2013-03-09 14:13:00,
2013-03-09 06:14:00,46.6,41.4,29.97,NW,315,2.5,2.5,82,0.00,,,0.00,VWS V14.01,2013-03-09 14:14:00,
2013-03-09 06:15:00,45.9,41.0,29.94,WNW,292,3.1,3.1,83,0.00,,,0.00,VWS V14.01,2013-03-09 14:15:00,
2013-03-09 06:16:00,46.8,41.6,29.97,NW,315,2.7,2.7,82,0.00,,,0.00,VWS V14.01,2013-03-09 14:16:00,
2013-03-09 06:17:00,46.8,41.6,29.97,NW,315,2.7,2.7,82,0.00,,,0.00,VWS V14.01,2013-03-09 14:17:00,
2013-03-09 06:18:00,46.8,41.6,29.97,NW,315,1.6,1.6,82,0.00,,,0.00,VWS V14.01,2013-03-09 14:18:00,
2013-03-09 06:19:00,46.9,41.7,29.97,NW,315,2.5,2.5,82,0.00,,,0.00,VWS V14.01,2013-03-09 14:19:00,
2013-03-09 06:20:00,45.9,41.0,29.94,West,270,2.9,2.9,83,0.00,,,0.00,VWS V14.01,2013-03-09 14:20:00,
2013-03-09 06:21:00,46.9,41.7,29.97,NW,315,1.6,1.6,82,0.00,,,0.00,VWS V14.01,2013-03-09 14:21:00,
2013-03-09 06:22:00,46.9,41.7,29.97,NW,315,2.5,2.5,82,0.00,,,0.00,VWS V14.01,2013-03-09 14:22:00,
2013-03-09 06:23:00,46.9,41.7,29.97,NW,315,2.0,2.0,82,0.00,,,0.00,VWS V14.01,2013-03-09 14:23:00,
2013-03-09 06:24:00,46.9,41.7,29.97,NNW,338,1.6,1.6,82,0.00,,,0.00,VWS V14.01,2013-03-09 14:24:00,
2013-03-09 06:25:00,45.7,40.8,29.94,West,270,3.8,3.8,83,0.00,,,0.00,VWS V14.01,2013-03-09 14:25:00,
2013-03-09 06:26:00,47.1,42.2,29.97,NNW,338,1.6,1.6,83,0.00,,,0.00,VWS V14.01,2013-03-09 14:26:00,
2013-03-09 06:27:00,47.1,42.2,29.97,NNW,338,1.6,1.6,83,0.00,,,0.00,VWS V14.01,2013-03-09 14:27:00,
2013-03-09 06:28:00,47.1,42.2,29.97,NNW,338,1.1,1.1,83,0.00,,,0.00,VWS V14.01,2013-03-09 14:28:00,
2013-03-09 06:29:00,47.1,42.2,29.97,NNW,338,2.0,2.0,83,0.00,,,0.00,VWS V14.01,2013-03-09 14:29:00,
2013-03-09 06:30:00,45.7,40.8,29.94,WNW,292,2.5,2.5,83,0.00,,,0.00,VWS V14.01,2013-03-09 14:30:00,
2013-03-09 06:31:00,47.1,42.2,29.97,NNW,338,2.0,2.0,83,0.00,,,0.00,VWS V14.01,2013-03-09 14:31:00,
2013-03-09 06:32:00,47.1,42.2,29.97,NNW,338,2.0,2.0,83,0.00,,,0.00,VWS V14.01,2013-03-09 14:32:00,
2013-03-09 06:33:00,47.1,42.2,29.97,NNW,338,2.0,2.0,83,0.00,,,0.00,VWS V14.01,2013-03-09 14:33:00,
2013-03-09 06:34:00,47.1,42.2,29.97,NNW,338,1.6,1.6,83,0.00,,,0.00,VWS V14.01,2013-03-09 14:34:00,
2013-03-09 06:35:00,45.9,41.0,29.97,WSW,248,3.4,3.4,83,0.00,,,0.00,VWS V14.01,2013-03-09 14:35:00,
2013-03-09 06:36:00,47.7,42.8,29.97,NNW,338,2.0,2.0,83,0.00,,,0.00,VWS V14.01,2013-03-09 14:36:00,
2013-03-09 06:38:00,47.8,42.9,29.97,North,0,2.5,2.5,83,0.00,,,0.00,VWS V14.01,2013-03-09 14:38:00,
2013-03-09 06:39:00,47.8,42.9,29.97,NNE,22,1.6,1.6,83,0.00,,,0.00,VWS V14.01,2013-03-09 14:39:00,
2013-03-09 06:40:00,45.3,40.5,29.97,WNW,292,1.3,1.3,83,0.00,,,0.00,VWS V14.01,2013-03-09 14:40:00,
2013-03-09 06:41:00,48.2,43.3,29.97,NNE,22,1.3,1.3,83,0.00,,,0.00,VWS V14.01,2013-03-09 14:41:00,
2013-03-09 06:42:00,48.4,43.5,29.97,NNE,22,1.3,1.3,83,0.00,,,0.00,VWS V14.01,2013-03-09 14:42:00,
2013-03-09 06:43:00,48.4,43.5,29.97,East,90,2.5,2.5,83,0.00,,,0.00,VWS V14.01,2013-03-09 14:43:00,
2013-03-09 06:44:00,48.6,43.6,29.97,ESE,112,1.6,1.6,83,0.00,,,0.00,VWS V14.01,2013-03-09 14:44:00,
2013-03-09 06:45:00,45.5,40.7,29.97,NW,315,2.9,2.9,83,0.00,,,0.00,VWS V14.01,2013-03-09 14:45:00,
2013-03-09 06:46:00,48.7,43.8,29.97,ESE,112,2.5,2.5,83,0.00,,,0.00,VWS V14.01,2013-03-09 14:46:00,
2013-03-09 06:47:00,48.7,43.8,29.97,East,90,2.9,2.9,83,0.00,,,0.00,VWS V14.01,2013-03-09 14:47:00,
2013-03-09 06:48:00,48.9,44.0,29.97,East,90,2.9,2.9,83,0.00,,,0.00,VWS V14.01,2013-03-09 14:48:00,
2013-03-09 06:49:00,48.7,43.8,29.97,ENE,68,3.4,3.4,83,0.00,,,0.00,VWS V14.01,2013-03-09 14:49:00,
2013-03-09 06:50:00,45.7,40.5,29.97,NW,315,2.7,2.7,82,0.00,,,0.00,VWS V14.01,2013-03-09 14:50:00,
2013-03-09 06:52:00,48.7,43.8,29.97,ENE,68,3.4,3.4,83,0.00,,,0.00,VWS V14.01,2013-03-09 14:52:00,
2013-03-09 06:53:00,49.1,44.2,30.00,ESE,112,2.7,2.7,83,0.00,,,0.00,VWS V14.01,2013-03-09 14:53:00,
2013-03-09 06:54:00,49.1,44.2,30.00,ESE,112,1.3,1.3,83,0.00,,,0.00,VWS V14.01,2013-03-09 14:54:00,
2013-03-09 06:55:00,45.9,40.7,29.97,NW,315,3.1,3.1,82,0.00,,,0.00,VWS V14.01,2013-03-09 14:55:00,
2013-03-09 06:56:00,49.5,44.5,30.00,SE,135,0.0,0.0,83,0.00,,,0.00,VWS V14.01,2013-03-09 14:56:00,
2013-03-09 06:57:00,49.5,44.5,30.00,SE,135,0.0,0.0,83,0.00,,,0.00,VWS V14.01,2013-03-09 14:57:00,
2013-03-09 06:58:00,49.6,44.7,30.00,ESE,112,2.7,2.7,83,0.00,,,0.00,VWS V14.01,2013-03-09 14:58:00,
2013-03-09 06:59:00,49.6,44.7,30.00,ESE,112,2.7,2.7,83,0.00,,,0.00,VWS V14.01,2013-03-09 14:59:00,
2013-03-09 07:00:00,46.0,40.9,29.97,NNW,338,2.7,2.7,82,0.00,,,0.00,VWS V14.01,2013-03-09 15:00:00,
2013-03-09 07:01:00,49.8,44.5,30.00,NNE,22,2.5,2.5,82,0.00,,,0.00,VWS V14.01,2013-03-09 15:01:00,
2013-03-09 07:02:00,49.8,44.5,30.00,NNE,22,2.5,2.5,82,0.00,,,0.00,VWS V14.01,2013-03-09 15:02:00,
2013-03-09 07:03:00,49.8,44.5,30.00,ENE,68,2.7,2.7,82,0.00,,,0.00,VWS V14.01,2013-03-09 15:03:00,
2013-03-09 07:04:00,50.2,44.9,30.00,ENE,68,4.0,4.0,82,0.00,,,0.00,VWS V14.01,2013-03-09 15:04:00,
2013-03-09 07:05:00,46.2,41.3,29.97,WNW,292,2.0,2.0,83,0.00,,,0.00,VWS V14.01,2013-03-09 15:05:00,
2013-03-09 07:06:00,50.2,44.9,29.97,SE,135,3.4,3.4,82,0.00,,,0.00,VWS V14.01,2013-03-09 15:06:00,
2013-03-09 07:07:00,50.2,44.6,29.97,SE,135,3.4,3.4,81,0.00,,,0.00,VWS V14.01,2013-03-09 15:07:00,
2013-03-09 07:08:00,50.2,44.6,29.97,ESE,112,1.1,1.1,81,0.00,,,0.00,VWS V14.01,2013-03-09 15:08:00,
2013-03-09 07:09:00,50.5,45.3,29.97,ENE,68,2.5,2.5,82,0.00,,,0.00,VWS V14.01,2013-03-09 15:09:00,
2013-03-09 07:10:00,46.6,41.4,29.97,WNW,292,0.9,0.9,82,0.00,,,0.00,VWS V14.01,2013-03-09 15:10:00,
2013-03-09 07:11:00,50.5,45.3,29.97,ESE,112,2.5,2.5,82,0.00,,,0.00,VWS V14.01,2013-03-09 15:11:00,
2013-03-09 07:12:00,50.7,45.1,29.97,ESE,112,2.7,2.7,81,0.00,,,0.00,VWS V14.01,2013-03-09 15:12:00,
2013-03-09 07:13:00,50.7,45.1,29.97,ESE,112,2.7,2.7,81,0.00,,,0.00,VWS V14.01,2013-03-09 15:13:00,
2013-03-09 07:14:00,50.9,45.3,29.97,SSE,158,3.8,3.8,81,0.00,,,0.00,VWS V14.01,2013-03-09 15:14:00,
2013-03-09 07:15:00,46.8,41.6,29.97,NW,315,2.7,2.7,82,0.00,,,0.00,VWS V14.01,2013-03-09 15:15:00,
2013-03-09 07:16:00,50.9,45.3,29.97,ENE,68,1.3,1.3,81,0.00,,,0.00,VWS V14.01,2013-03-09 15:16:00,
2013-03-09 07:17:00,50.9,45.3,29.97,ENE,68,1.3,1.3,81,0.00,,,0.00,VWS V14.01,2013-03-09 15:17:00,
2013-03-09 07:18:00,50.4,44.4,29.97,ESE,112,4.0,4.0,80,0.00,,,0.00,VWS V14.01,2013-03-09 15:18:00,
2013-03-09 07:19:00,50.5,44.6,29.97,ESE,112,4.7,4.7,80,0.00,,,0.00,VWS V14.01,2013-03-09 15:19:00,
2013-03-09 07:20:00,46.9,41.7,29.97,NW,315,1.6,1.6,82,0.00,,,0.00,VWS V14.01,2013-03-09 15:20:00,
2013-03-09 07:21:00,50.7,44.8,29.97,NE,45,1.1,1.1,80,0.00,,,0.00,VWS V14.01,2013-03-09 15:21:00,
2013-03-09 07:22:00,50.7,44.8,29.97,NNE,22,2.9,2.9,80,0.00,,,0.00,VWS V14.01,2013-03-09 15:22:00,
2013-03-09 07:23:00,50.5,44.3,29.97,NNE,22,2.2,2.2,79,0.00,,,0.00,VWS V14.01,2013-03-09 15:23:00,
2013-03-09 07:24:00,50.5,44.3,29.97,ENE,68,3.4,3.4,79,0.00,,,0.00,VWS V14.01,2013-03-09 15:24:00,
2013-03-09 07:25:00,46.9,41.7,29.97,NNW,338,2.7,2.7,82,0.00,,,0.00,VWS V14.01,2013-03-09 15:25:00,
2013-03-09 07:26:00,50.5,44.0,29.97,East,90,5.6,5.6,78,0.00,,,0.00,VWS V14.01,2013-03-09 15:26:00,
2013-03-09 07:27:00,50.5,44.0,29.97,East,90,5.6,5.6,78,0.00,,,0.00,VWS V14.01,2013-03-09 15:27:00,
2013-03-09 07:28:00,50.9,44.3,29.97,ESE,112,2.5,2.5,78,0.00,,,0.00,VWS V14.01,2013-03-09 15:28:00,
2013-03-09 07:29:00,50.9,44.3,29.97,ENE,68,1.1,1.1,78,0.00,,,0.00,VWS V14.01,2013-03-09 15:29:00,
2013-03-09 07:30:00,47.1,42.2,29.97,NNW,338,2.0,2.0,83,0.00,,,0.00,VWS V14.01,2013-03-09 15:30:00,
2013-03-09 07:31:00,51.1,44.5,29.97,ENE,68,3.8,3.8,78,0.00,,,0.00,VWS V14.01,2013-03-09 15:31:00,
2013-03-09 07:32:00,51.1,44.5,29.97,NE,45,3.6,3.6,78,0.00,,,0.00,VWS V14.01,2013-03-09 15:32:00,
2013-03-09 07:33:00,51.1,44.5,29.97,NE,45,3.6,3.6,78,0.00,,,0.00,VWS V14.01,2013-03-09 15:33:00,
2013-03-09 07:34:00,51.1,44.5,29.97,NE,45,2.9,2.9,78,0.00,,,0.00,VWS V14.01,2013-03-09 15:34:00,
2013-03-09 07:35:00,47.7,42.8,29.97,NNW,338,2.0,2.0,83,0.00,,,0.00,VWS V14.01,2013-03-09 15:35:00,
2013-03-09 07:36:00,51.1,44.5,29.97,NE,45,0.0,0.0,78,0.00,,,0.00,VWS V14.01,2013-03-09 15:36:00,
2013-03-09 07:37:00,51.4,44.1,29.97,NE,45,0.0,0.0,76,0.00,,,0.00,VWS V14.01,2013-03-09 15:37:00,
2013-03-09 07:38:00,51.4,44.1,29.97,WNW,292,1.1,1.1,76,0.00,,,0.00,VWS V14.01,2013-03-09 15:38:00,
2013-03-09 07:39:00,51.6,44.3,29.97,NE,45,2.2,2.2,76,0.00,,,0.00,VWS V14.01,2013-03-09 15:39:00,
2013-03-09 07:40:00,48.2,43.3,29.97,NNE,22,1.3,1.3,83,0.00,,,0.00,VWS V14.01,2013-03-09 15:40:00,
2013-03-09 07:41:00,51.4,43.8,29.97,ENE,68,3.6,3.6,75,0.00,,,0.00,VWS V14.01,2013-03-09 15:41:00,
2013-03-09 07:42:00,51.1,43.1,29.97,NNE,22,6.5,6.5,74,0.00,,,0.00,VWS V14.01,2013-03-09 15:42:00,
2013-03-09 07:43:00,51.1,43.1,29.97,NNE,22,5.6,5.6,74,0.00,,,0.00,VWS V14.01,2013-03-09 15:43:00,
2013-03-09 07:44:00,50.5,41.9,29.97,NE,45,5.4,5.4,72,0.00,,,0.00,VWS V14.01,2013-03-09 15:44:00,
2013-03-09 07:45:00,48.7,43.8,29.97,ESE,112,2.5,2.5,83,0.00,,,0.00,VWS V14.01,2013-03-09 15:45:00,
2013-03-09 07:47:00,50.9,42.6,29.97,NNW,338,2.7,2.7,73,0.00,,,0.00,VWS V14.01,2013-03-09 15:47:00,
2013-03-09 07:48:00,51.3,42.9,29.97,NNW,338,2.7,2.7,73,0.00,,,0.00,VWS V14.01,2013-03-09 15:48:00,
2013-03-09 07:49:00,51.1,42.7,29.97,NNE,22,6.9,6.9,73,0.00,,,0.00,VWS V14.01,2013-03-09 15:49:00,
2013-03-09 07:50:00,48.7,43.8,29.97,ENE,68,3.4,3.4,83,0.00,,,0.00,VWS V14.01,2013-03-09 15:50:00,
2013-03-09 07:51:00,51.1,42.0,30.00,NNE,22,4.3,4.3,71,0.00,,,0.00,VWS V14.01,2013-03-09 15:51:00,
2013-03-09 07:52:00,51.1,42.0,30.00,North,0,5.6,5.6,71,0.00,,,0.00,VWS V14.01,2013-03-09 15:52:00,
2013-03-09 07:53:00,51.3,41.8,30.00,NNE,22,2.7,2.7,70,0.00,,,0.00,VWS V14.01,2013-03-09 15:53:00,
2013-03-09 07:54:00,51.3,41.8,30.00,ESE,112,0.0,0.0,70,0.00,,,0.00,VWS V14.01,2013-03-09 15:54:00,
2013-03-09 07:55:00,49.1,44.2,30.00,SE,135,0.0,0.0,83,0.00,,,0.00,VWS V14.01,2013-03-09 15:55:00,
2013-03-09 07:56:00,51.6,42.9,30.00,ESE,112,0.0,0.0,72,0.00,,,0.00,VWS V14.01,2013-03-09 15:56:00,
2013-03-09 07:57:00,51.6,42.9,30.00,ESE,112,0.0,0.0,72,0.00,,,0.00,VWS V14.01,2013-03-09 15:57:00,
2013-03-09 07:59:00,51.6,42.9,30.00,NE,45,2.0,2.0,72,0.00,,,0.00,VWS V14.01,2013-03-09 15:59:00,
2013-03-09 08:00:00,49.8,44.5,30.00,NNE,22,2.5,2.5,82,0.00,,,0.00,VWS V14.01,2013-03-09 16:00:00,
2013-03-09 08:01:00,52.2,43.4,30.00,ESE,112,2.9,2.9,72,0.00,,,0.00,VWS V14.01,2013-03-09 16:01:00,
2013-03-09 08:02:00,51.8,43.1,30.00,ESE,112,3.1,3.1,72,0.00,,,0.00,VWS V14.01,2013-03-09 16:02:00,
2013-03-09 08:03:00,51.8,43.1,30.00,ESE,112,1.3,1.3,72,0.00,,,0.00,VWS V14.01,2013-03-09 16:03:00,
2013-03-09 08:04:00,52.2,43.4,30.00,East,90,2.2,2.2,72,0.00,,,0.00,VWS V14.01,2013-03-09 16:04:00,
2013-03-09 08:05:00,50.2,44.9,29.97,SE,135,3.4,3.4,82,0.00,,,0.00,VWS V14.01,2013-03-09 16:05:00,
2013-03-09 08:06:00,52.3,43.6,30.00,NE,45,1.3,1.3,72,0.00,,,0.00,VWS V14.01,2013-03-09 16:06:00,
2013-03-09 08:07:00,52.5,43.8,30.00,NNE,22,2.7,2.7,72,0.00,,,0.00,VWS V14.01,2013-03-09 16:07:00,
2013-03-09 08:08:00,52.5,43.8,30.00,NNE,22,2.9,2.9,72,0.00,,,0.00,VWS V14.01,2013-03-09 16:08:00,
2013-03-09 08:09:00,52.3,43.2,30.00,NW,315,1.3,1.3,71,0.00,,,0.00,VWS V14.01,2013-03-09 16:09:00,
2013-03-09 08:10:00,50.5,45.3,29.97,ESE,112,2.5,2.5,82,0.00,,,0.00,VWS V14.01,2013-03-09 16:10:00,
2013-03-09 08:11:00,52.2,42.7,30.00,NNW,338,2.0,2.0,70,0.00,,,0.00,VWS V14.01,2013-03-09 16:11:00,
2013-03-09 08:12:00,52.2,42.7,30.00,NNW,338,2.0,2.0,70,0.00,,,0.00,VWS V14.01,2013-03-09 16:12:00,
2013-03-09 08:13:00,52.2,42.7,30.00,NW,315,4.3,4.3,70,0.00,,,0.00,VWS V14.01,2013-03-09 16:13:00,
2013-03-09 08:14:00,52.3,42.5,30.00,NW,315,4.0,4.0,69,0.00,,,0.00,VWS V14.01,2013-03-09 16:14:00,
2013-03-09 08:15:00,50.9,45.3,29.97,ENE,68,1.3,1.3,81,0.00,,,0.00,VWS V14.01,2013-03-09 16:15:00,
2013-03-09 08:16:00,52.3,42.5,30.00,WNW,292,4.3,4.3,69,0.00,,,0.00,VWS V14.01,2013-03-09 16:16:00,
2013-03-09 08:17:00,52.3,42.5,30.00,WNW,292,4.3,4.3,69,0.00,,,0.00,VWS V14.01,2013-03-09 16:17:00,
2013-03-09 08:18:00,52.3,42.1,30.00,NW,315,6.3,6.3,68,0.00,,,0.00,VWS V14.01,2013-03-09 16:18:00,
2013-03-09 08:19:00,52.3,42.1,30.00,WNW,292,4.9,4.9,68,0.00,,,0.00,VWS V14.01,2013-03-09 16:19:00,
2013-03-09 08:20:00,50.7,44.8,29.97,NE,45,1.1,1.1,80,0.00,,,0.00,VWS V14.01,2013-03-09 16:20:00,
2013-03-09 08:21:00,52.3,41.7,30.00,NNW,338,4.0,4.0,67,0.00,,,0.00,VWS V14.01,2013-03-09 16:21:00,
2013-03-09 08:22:00,52.3,41.7,30.00,WNW,292,3.8,3.8,67,0.00,,,0.00,VWS V14.01,2013-03-09 16:22:00,
2013-03-09 08:23:00,52.5,42.3,30.00,WNW,292,3.6,3.6,68,0.00,,,0.00,VWS V14.01,2013-03-09 16:23:00,
2013-03-09 08:24:00,52.5,42.3,30.00,NNW,338,3.6,3.6,68,0.00,,,0.00,VWS V14.01,2013-03-09 16:24:00,
2013-03-09 08:25:00,50.5,44.0,29.97,ENE,68,3.8,3.8,78,0.00,,,0.00,VWS V14.01,2013-03-09 16:25:00,
2013-03-09 08:26:00,52.7,41.7,30.00,NNW,338,1.6,1.6,66,0.00,,,0.00,VWS V14.01,2013-03-09 16:26:00,
2013-03-09 08:27:00,52.7,42.1,30.00,NNW,338,3.1,3.1,67,0.00,,,0.00,VWS V14.01,2013-03-09 16:27:00,
2013-03-09 08:28:00,52.7,42.1,30.00,NNW,338,2.7,2.7,67,0.00,,,0.00,VWS V14.01,2013-03-09 16:28:00,
2013-03-09 08:29:00,52.7,42.1,30.00,NNW,338,3.8,3.8,67,0.00,,,0.00,VWS V14.01,2013-03-09 16:29:00,
2013-03-09 08:30:00,51.1,44.5,29.97,ENE,68,3.8,3.8,78,0.00,,,0.00,VWS V14.01,2013-03-09 16:30:00,
2013-03-09 08:31:00,52.9,40.6,30.00,NNW,338,6.0,6.0,63,0.00,,,0.00,VWS V14.01,2013-03-09 16:31:00,
2013-03-09 08:32:00,52.7,40.1,30.00,WNW,292,5.4,5.4,62,0.00,,,0.00,VWS V14.01,2013-03-09 16:32:00,
2013-03-09 08:34:00,52.9,41.0,30.00,WNW,292,6.0,6.0,64,0.00,,,0.00,VWS V14.01,2013-03-09 16:34:00,
2013-03-09 08:35:00,51.1,44.5,29.97,NE,45,0.0,0.0,78,0.00,,,0.00,VWS V14.01,2013-03-09 16:35:00,
2013-03-09 08:36:00,52.9,41.0,30.00,NNW,338,3.8,3.8,64,0.00,,,0.00,VWS V14.01,2013-03-09 16:36:00,
2013-03-09 08:37:00,53.2,40.6,30.00,NNW,338,2.0,2.0,62,0.00,,,0.00,VWS V14.01,2013-03-09 16:37:00,
2013-03-09 08:38:00,53.2,40.6,30.00,NW,315,5.8,5.8,62,0.00,,,0.00,VWS V14.01,2013-03-09 16:38:00,
2013-03-09 08:40:00,51.4,43.8,29.97,ENE,68,3.6,3.6,75,0.00,,,0.00,VWS V14.01,2013-03-09 16:40:00,
2013-03-09 08:41:00,53.2,40.6,30.00,NNW,338,6.5,6.5,62,0.00,,,0.00,VWS V14.01,2013-03-09 16:41:00,
2013-03-09 08:42:00,53.2,40.6,30.00,NNW,338,6.5,6.5,62,0.00,,,0.00,VWS V14.01,2013-03-09 16:42:00,
2013-03-09 08:44:00,52.9,39.0,30.00,NNW,338,6.5,6.5,59,0.00,,,0.00,VWS V14.01,2013-03-09 16:44:00,
2013-03-09 08:45:00,50.9,42.6,29.97,NNW,338,2.9,2.9,73,0.00,,,0.00,VWS V14.01,2013-03-09 16:45:00,
2013-03-09 08:47:00,53.1,39.6,30.00,NNW,338,6.5,6.5,60,0.00,,,0.00,VWS V14.01,2013-03-09 16:47:00,
2013-03-09 08:48:00,53.1,39.6,30.00,NNW,338,6.5,6.5,60,0.00,,,0.00,VWS V14.01,2013-03-09 16:48:00,
2013-03-09 08:50:00,51.1,42.7,30.00,NNE,22,4.3,4.3,73,0.00,,,0.00,VWS V14.01,2013-03-09 16:50:00,
2013-03-09 08:52:00,54.0,41.2,30.00,NNW,338,0.9,0.9,62,0.00,,,0.00,VWS V14.01,2013-03-09 16:52:00,
2013-03-09 08:55:00,51.6,42.9,30.00,ESE,112,0.0,0.0,72,0.00,,,0.00,VWS V14.01,2013-03-09 16:55:00,
2013-03-09 08:57:00,54.5,41.3,30.00,North,0,3.6,3.6,61,0.00,,,0.00,VWS V14.01,2013-03-09 16:57:00,
2013-03-09 08:59:00,54.5,41.3,30.00,North,0,3.6,3.6,61,0.00,,,0.00,VWS V14.01,2013-03-09 16:59:00,
2013-03-09 09:00:00,52.2,43.4,30.00,ENE,68,4.3,4.3,72,0.00,,,0.00,VWS V14.01,2013-03-09 17:00:00,
2013-03-09 09:03:00,55.0,43.1,30.00,North,0,3.6,3.6,64,0.00,,,0.00,VWS V14.01,2013-03-09 17:03:00,
2013-03-09 09:04:00,55.0,43.1,30.00,North,0,3.6,3.6,64,0.00,,,0.00,VWS V14.01,2013-03-09 17:04:00,
2013-03-09 09:05:00,52.3,43.6,30.00,East,90,1.6,1.6,72,0.00,,,0.00,VWS V14.01,2013-03-09 17:05:00,
2013-03-09 09:07:00,56.3,43.5,30.03,NNW,338,3.6,3.6,62,0.00,,,0.00,VWS V14.01,2013-03-09 17:07:00,
2013-03-09 09:08:00,56.3,43.5,30.03,NNW,338,3.6,3.6,62,0.00,,,0.00,VWS V14.01,2013-03-09 17:08:00,
2013-03-09 09:09:00,56.3,43.5,30.03,NNW,338,3.6,3.6,62,0.00,,,0.00,VWS V14.01,2013-03-09 17:09:00,
2013-03-09 09:10:00,52.2,42.7,30.00,NNW,338,2.0,2.0,70,0.00,,,0.00,VWS V14.01,2013-03-09 17:10:00,
2013-03-09 09:14:00,57.7,44.8,30.03,NW,315,0.9,0.9,62,0.00,,,0.00,VWS V14.01,2013-03-09 17:14:00,
2013-03-09 09:15:00,52.3,42.5,30.00,WNW,292,4.3,4.3,69,0.00,,,0.00,VWS V14.01,2013-03-09 17:15:00,
2013-03-09 09:19:00,57.0,44.1,30.03,NW,315,3.1,3.1,62,0.00,,,0.00,VWS V14.01,2013-03-09 17:19:00,
2013-03-09 09:20:00,52.3,42.1,30.00,WNW,292,3.6,3.6,68,0.00,,,0.00,VWS V14.01,2013-03-09 17:20:00,
2013-03-09 09:21:00,57.0,42.8,30.03,WNW,292,0.0,0.0,59,0.00,,,0.00,VWS V14.01,2013-03-09 17:21:00,
2013-03-09 09:22:00,57.0,42.8,30.03,WNW,292,0.0,0.0,59,0.00,,,0.00,VWS V14.01,2013-03-09 17:22:00,
2013-03-09 09:23:00,57.0,42.8,30.03,WNW,292,0.0,0.0,59,0.00,,,0.00,VWS V14.01,2013-03-09 17:23:00,
2013-03-09 09:24:00,57.0,42.8,30.03,WNW,292,0.0,0.0,59,0.00,,,0.00,VWS V14.01,2013-03-09 17:24:00,
2013-03-09 09:25:00,52.7,41.7,30.00,NNW,338,1.6,1.6,66,0.00,,,0.00,VWS V14.01,2013-03-09 17:25:00,
2013-03-09 09:26:00,57.0,42.8,30.03,WNW,292,0.0,0.0,59,0.00,,,0.00,VWS V14.01,2013-03-09 17:26:00,
2013-03-09 09:27:00,57.7,44.4,30.03,WNW,292,3.4,3.4,61,0.00,,,0.00,VWS V14.01,2013-03-09 17:27:00,
2013-03-09 09:28:00,57.9,44.6,30.03,SW,225,3.1,3.1,61,0.00,,,0.00,VWS V14.01,2013-03-09 17:28:00,
2013-03-09 09:29:00,57.9,44.6,30.03,SW,225,3.1,3.1,61,0.00,,,0.00,VWS V14.01,2013-03-09 17:29:00,
2013-03-09 09:30:00,52.9,40.6,30.00,NNW,338,6.0,6.0,63,0.00,,,0.00,VWS V14.01,2013-03-09 17:30:00,
2013-03-09 09:31:00,57.6,43.4,30.03,West,270,2.7,2.7,59,0.00,,,0.00,VWS V14.01,2013-03-09 17:31:00,
2013-03-09 09:32:00,57.6,43.4,30.03,West,270,2.7,2.7,59,0.00,,,0.00,VWS V14.01,2013-03-09 17:32:00,
2013-03-09 09:33:00,57.6,43.4,30.03,WSW,248,5.6,5.6,59,0.00,,,0.00,VWS V14.01,2013-03-09 17:33:00,
2013-03-09 09:34:00,57.2,42.6,30.03,WSW,248,5.6,5.6,58,0.00,,,0.00,VWS V14.01,2013-03-09 17:34:00,
2013-03-09 09:35:00,52.9,41.0,30.00,WSW,248,4.3,4.3,64,0.00,,,0.00,VWS V14.01,2013-03-09 17:35:00,
2013-03-09 09:36:00,57.2,43.0,30.03,WSW,248,5.6,5.6,59,0.00,,,0.00,VWS V14.01,2013-03-09 17:36:00,
2013-03-09 09:37:00,57.2,42.6,30.03,WSW,248,6.3,6.3,58,0.00,,,0.00,VWS V14.01,2013-03-09 17:37:00,
2013-03-09 09:38:00,57.2,42.6,30.03,West,270,4.0,4.0,58,0.00,,,0.00,VWS V14.01,2013-03-09 17:38:00,
2013-03-09 09:39:00,57.2,43.0,30.03,West,270,4.0,4.0,59,0.00,,,0.00,VWS V14.01,2013-03-09 17:39:00,
2013-03-09 09:40:00,53.2,40.6,30.00,NNW,338,6.5,6.5,62,0.00,,,0.00,VWS V14.01,2013-03-09 17:40:00,
2013-03-09 09:41:00,57.4,43.2,30.03,WSW,248,6.0,6.0,59,0.00,,,0.00,VWS V14.01,2013-03-09 17:41:00,
2013-03-09 09:42:00,57.4,43.2,30.03,SW,225,6.5,6.5,59,0.00,,,0.00,VWS V14.01,2013-03-09 17:42:00,
2013-03-09 09:43:00,57.2,42.6,30.03,WSW,248,5.6,5.6,58,0.00,,,0.00,VWS V14.01,2013-03-09 17:43:00,
2013-03-09 09:44:00,57.4,42.7,30.03,SW,225,2.5,2.5,58,0.00,,,0.00,VWS V14.01,2013-03-09 17:44:00,
2013-03-09 09:45:00,53.1,39.6,30.00,NNW,338,6.5,6.5,60,0.00,,,0.00,VWS V14.01,2013-03-09 17:45:00,
2013-03-09 09:46:00,57.2,41.7,30.03,SSW,202,4.9,4.9,56,0.00,,,0.00,VWS V14.01,2013-03-09 17:46:00,
2013-03-09 09:47:00,57.2,41.7,30.03,WNW,292,5.8,5.8,56,0.00,,,0.00,VWS V14.01,2013-03-09 17:47:00,
2013-03-09 09:48:00,57.6,42.5,30.03,West,270,4.9,4.9,57,0.00,,,0.00,VWS V14.01,2013-03-09 17:48:00,
2013-03-09 09:49:00,57.6,42.5,30.03,West,270,4.3,4.3,57,0.00,,,0.00,VWS V14.01,2013-03-09 17:49:00,
2013-03-09 09:50:00,53.1,39.6,30.00,NNW,338,2.9,2.9,60,0.00,,,0.00,VWS V14.01,2013-03-09 17:50:00,
2013-03-09 09:51:00,57.9,42.8,30.03,WSW,248,3.6,3.6,57,0.00,,,0.00,VWS V14.01,2013-03-09 17:51:00,
2013-03-09 09:52:00,57.9,42.8,30.03,WSW,248,4.7,4.7,57,0.00,,,0.00,VWS V14.01,2013-03-09 17:52:00,
2013-03-09 09:53:00,57.9,42.3,30.03,SW,225,5.8,5.8,56,0.00,,,0.00,VWS V14.01,2013-03-09 17:53:00,
2013-03-09 09:54:00,57.9,42.3,30.03,SSW,202,6.3,6.3,56,0.00,,,0.00,VWS V14.01,2013-03-09 17:54:00,
2013-03-09 09:55:00,54.5,41.3,30.00,North,0,3.6,3.6,61,0.00,,,0.00,VWS V14.01,2013-03-09 17:55:00,
2013-03-09 09:56:00,57.9,41.9,30.03,SW,225,7.8,7.8,55,0.00,,,0.00,VWS V14.01,2013-03-09 17:56:00,
2013-03-09 09:57:00,57.9,41.9,30.03,SW,225,7.8,7.8,55,0.00,,,0.00,VWS V14.01,2013-03-09 17:57:00,
2013-03-09 09:58:00,57.9,41.9,30.03,WNW,292,7.8,7.8,55,0.00,,,0.00,VWS V14.01,2013-03-09 17:58:00,
2013-03-09 09:59:00,57.9,41.9,30.03,NW,315,4.9,4.9,55,0.00,,,0.00,VWS V14.01,2013-03-09 17:59:00,
2013-03-09 10:00:00,55.0,43.1,30.00,North,0,3.6,3.6,64,0.00,,,0.00,VWS V14.01,2013-03-09 18:00:00,
2013-03-09 10:02:00,57.6,40.6,30.03,West,270,4.3,4.3,53,0.00,,,0.00,VWS V14.01,2013-03-09 18:02:00,
2013-03-09 10:03:00,57.6,40.6,30.03,WSW,248,6.3,6.3,53,0.00,,,0.00,VWS V14.01,2013-03-09 18:03:00,
2013-03-09 10:04:00,57.4,40.4,30.03,SSW,202,7.4,7.4,53,0.00,,,0.00,VWS V14.01,2013-03-09 18:04:00,
2013-03-09 10:05:00,55.8,43.4,30.00,NNW,338,3.6,3.6,63,0.00,,,0.00,VWS V14.01,2013-03-09 18:05:00,
2013-03-09 10:06:00,57.2,40.7,30.03,WSW,248,10.7,10.7,54,0.00,,,0.00,VWS V14.01,2013-03-09 18:06:00,
2013-03-09 10:07:00,57.0,41.0,30.03,WSW,248,6.5,6.5,55,0.00,,,0.00,VWS V14.01,2013-03-09 18:07:00,
2013-03-09 10:08:00,57.0,41.0,30.03,WSW,248,6.9,6.9,55,0.00,,,0.00,VWS V14.01,2013-03-09 18:08:00,
2013-03-09 10:09:00,57.2,41.2,30.03,West,270,4.0,4.0,55,0.00,,,0.00,VWS V14.01,2013-03-09 18:09:00,
2013-03-09 10:10:00,57.2,44.3,30.03,SSE,158,1.6,1.6,62,0.00,,,0.00,VWS V14.01,2013-03-09 18:10:00,
2013-03-09 10:11:00,57.2,40.7,30.03,SSW,202,6.3,6.3,54,0.00,,,0.00,VWS V14.01,2013-03-09 18:11:00,
2013-03-09 10:12:00,57.2,40.7,30.03,WSW,248,7.6,7.6,54,0.00,,,0.00,VWS V14.01,2013-03-09 18:12:00,
2013-03-09 10:13:00,57.6,41.5,30.03,SW,225,5.6,5.6,55,0.00,,,0.00,VWS V14.01,2013-03-09 18:13:00,
2013-03-09 10:14:00,57.6,41.5,30.03,WSW,248,5.6,5.6,55,0.00,,,0.00,VWS V14.01,2013-03-09 18:14:00,
2013-03-09 10:15:00,57.9,43.2,30.03,NNW,338,2.0,2.0,58,0.00,,,0.00,VWS V14.01,2013-03-09 18:15:00,
2013-03-09 10:16:00,57.6,41.1,30.03,WSW,248,8.5,8.5,54,0.00,,,0.00,VWS V14.01,2013-03-09 18:16:00,
2013-03-09 10:18:00,57.2,40.2,30.03,WSW,248,8.7,8.7,53,0.00,,,0.00,VWS V14.01,2013-03-09 18:18:00,
2013-03-09 10:19:00,57.2,40.2,30.03,SW,225,7.2,7.2,53,0.00,,,0.00,VWS V14.01,2013-03-09 18:19:00,
2013-03-09 10:20:00,57.0,42.8,30.03,WNW,292,0.0,0.0,59,0.00,,,0.00,VWS V14.01,2013-03-09 18:20:00,
2013-03-09 10:21:00,57.7,41.2,30.03,SSW,202,7.6,7.6,54,0.00,,,0.00,VWS V14.01,2013-03-09 18:21:00,
2013-03-09 10:22:00,57.7,41.2,30.03,SSW,202,7.8,7.8,54,0.00,,,0.00,VWS V14.01,2013-03-09 18:22:00,
2013-03-09 10:23:00,57.7,41.2,30.03,SSW,202,7.8,7.8,54,0.00,,,0.00,VWS V14.01,2013-03-09 18:23:00,
2013-03-09 10:24:00,57.7,41.2,30.03,SSW,202,7.8,7.8,54,0.00,,,0.00,VWS V14.01,2013-03-09 18:24:00,
2013-03-09 10:25:00,57.0,42.8,30.03,WNW,292,0.0,0.0,59,0.00,,,0.00,VWS V14.01,2013-03-09 18:25:00,
2013-03-09 10:26:00,58.1,42.0,30.03,SW,225,7.2,7.2,55,0.00,,,0.00,VWS V14.01,2013-03-09 18:26:00,
2013-03-09 10:27:00,57.7,40.7,30.03,West,270,6.9,6.9,53,0.00,,,0.00,VWS V14.01,2013-03-09 18:27:00,
2013-03-09 10:28:00,57.9,41.4,30.03,West,270,6.9,6.9,54,0.00,,,0.00,VWS V14.01,2013-03-09 18:28:00,
2013-03-09 10:29:00,57.9,41.4,30.03,West,270,6.9,6.9,54,0.00,,,0.00,VWS V14.01,2013-03-09 18:29:00,
2013-03-09 10:30:00,57.6,43.4,30.03,WNW,292,1.6,1.6,59,0.00,,,0.00,VWS V14.01,2013-03-09 18:30:00,
2013-03-09 10:31:00,57.9,41.4,30.03,WSW,248,7.6,7.6,54,0.00,,,0.00,VWS V14.01,2013-03-09 18:31:00,
2013-03-09 10:32:00,57.2,40.7,30.03,WSW,248,7.6,7.6,54,0.00,,,0.00,VWS V14.01,2013-03-09 18:32:00,
2013-03-09 10:33:00,57.2,40.7,30.03,SW,225,4.3,4.3,54,0.00,,,0.00,VWS V14.01,2013-03-09 18:33:00,
2013-03-09 10:34:00,57.2,40.7,30.03,SW,225,7.8,7.8,54,0.00,,,0.00,VWS V14.01,2013-03-09 18:34:00,
2013-03-09 10:35:00,57.2,43.0,30.03,WSW,248,5.6,5.6,59,0.00,,,0.00,VWS V14.01,2013-03-09 18:35:00,
2013-03-09 10:36:00,57.2,40.7,30.03,SW,225,3.6,3.6,54,0.00,,,0.00,VWS V14.01,2013-03-09 18:36:00,
2013-03-09 10:37:00,57.6,41.5,30.03,WSW,248,2.9,2.9,55,0.00,,,0.00,VWS V14.01,2013-03-09 18:37:00,
2013-03-09 10:38:00,57.6,41.5,30.03,SSW,202,5.4,5.4,55,0.00,,,0.00,VWS V14.01,2013-03-09 18:38:00,
2013-03-09 10:39:00,58.1,42.0,30.03,SW,225,2.5,2.5,55,0.00,,,0.00,VWS V14.01,2013-03-09 18:39:00,
2013-03-09 10:40:00,57.4,43.2,30.03,WSW,248,6.0,6.0,59,0.00,,,0.00,VWS V14.01,2013-03-09 18:40:00,
2013-03-09 10:41:00,58.5,42.4,30.03,WSW,248,9.2,9.2,55,0.00,,,0.00,VWS V14.01,2013-03-09 18:41:00,
2013-03-09 10:42:00,58.5,42.4,30.03,WSW,248,7.4,7.4,55,0.00,,,0.00,VWS V14.01,2013-03-09 18:42:00,
2013-03-09 10:43:00,58.5,42.4,30.03,SW,225,6.3,6.3,55,0.00,,,0.00,VWS V14.01,2013-03-09 18:43:00,
2013-03-09 10:44:00,58.5,40.9,30.03,WSW,248,8.7,8.7,52,0.00,,,0.00,VWS V14.01,2013-03-09 18:44:00,
2013-03-09 10:45:00,57.2,41.7,30.03,SSW,202,4.5,4.5,56,0.00,,,0.00,VWS V14.01,2013-03-09 18:45:00,
2013-03-09 10:46:00,58.3,40.8,30.03,WSW,248,6.3,6.3,52,0.00,,,0.00,VWS V14.01,2013-03-09 18:46:00,
2013-03-09 10:47:00,58.3,40.8,30.03,WSW,248,5.8,5.8,52,0.00,,,0.00,VWS V14.01,2013-03-09 18:47:00,
2013-03-09 10:48:00,58.5,40.9,30.03,WSW,248,5.8,5.8,52,0.00,,,0.00,VWS V14.01,2013-03-09 18:48:00,
2013-03-09 10:49:00,58.5,40.9,30.03,SW,225,3.8,3.8,52,0.00,,,0.00,VWS V14.01,2013-03-09 18:49:00,
2013-03-09 10:50:00,57.7,42.6,30.03,WSW,248,3.1,3.1,57,0.00,,,0.00,VWS V14.01,2013-03-09 18:50:00,
2013-03-09 10:51:00,59.0,40.9,30.03,WNW,292,5.8,5.8,51,0.00,,,0.00,VWS V14.01,2013-03-09 18:51:00,
2013-03-09 10:52:00,59.0,40.9,30.03,WSW,248,8.1,8.1,51,0.00,,,0.00,VWS V14.01,2013-03-09 18:52:00,
2013-03-09 10:53:00,58.8,40.8,30.03,SW,225,3.6,3.6,51,0.00,,,0.00,VWS V14.01,2013-03-09 18:53:00,
2013-03-09 10:54:00,58.8,40.8,30.03,WSW,248,6.5,6.5,51,0.00,,,0.00,VWS V14.01,2013-03-09 18:54:00,
2013-03-09 10:55:00,57.9,41.9,30.03,SW,225,7.8,7.8,55,0.00,,,0.00,VWS V14.01,2013-03-09 18:55:00,
2013-03-09 10:56:00,59.2,41.1,30.03,SW,225,3.1,3.1,51,0.00,,,0.00,VWS V14.01,2013-03-09 18:56:00,
2013-03-09 10:57:00,59.4,41.2,30.03,NNW,338,3.8,3.8,51,0.00,,,0.00,VWS V14.01,2013-03-09 18:57:00,
2013-03-09 10:58:00,59.5,40.9,30.03,WSW,248,2.2,2.2,50,0.00,,,0.00,VWS V14.01,2013-03-09 18:58:00,
2013-03-09 10:59:00,59.5,40.9,30.03,WNW,292,3.6,3.6,50,0.00,,,0.00,VWS V14.01,2013-03-09 18:59:00,
2013-03-09 11:00:00,57.7,41.2,30.03,SW,225,8.5,8.5,54,0.00,,,0.00,VWS V14.01,2013-03-09 19:00:00,
2013-03-09 11:01:00,59.4,40.2,30.03,WSW,248,3.6,3.6,49,0.00,,,0.00,VWS V14.01,2013-03-09 19:01:00,
2013-03-09 11:02:00,59.5,40.9,30.03,WSW,248,3.6,3.6,50,0.00,,,0.00,VWS V14.01,2013-03-09 19:02:00,
2013-03-09 11:03:00,59.5,40.9,30.03,WNW,292,5.8,5.8,50,0.00,,,0.00,VWS V14.01,2013-03-09 19:03:00,
2013-03-09 11:04:00,59.5,40.9,30.03,WSW,248,4.3,4.3,50,0.00,,,0.00,VWS V14.01,2013-03-09 19:04:00,
2013-03-09 11:05:00,57.2,40.7,30.03,WSW,248,8.1,8.1,54,0.00,,,0.00,VWS V14.01,2013-03-09 19:05:00,
2013-03-09 11:06:00,59.5,40.9,30.03,WSW,248,6.3,6.3,50,0.00,,,0.00,VWS V14.01,2013-03-09 19:06:00,
2013-03-09 11:07:00,59.4,40.2,30.03,WSW,248,9.4,9.4,49,0.00,,,0.00,VWS V14.01,2013-03-09 19:07:00,
2013-03-09 11:08:00,59.4,40.2,30.03,West,270,6.5,6.5,49,0.00,,,0.00,VWS V14.01,2013-03-09 19:08:00,
2013-03-09 11:09:00,59.5,40.4,30.03,SSW,202,5.8,5.8,49,0.00,,,0.00,VWS V14.01,2013-03-09 19:09:00,
2013-03-09 11:10:00,57.2,40.7,30.03,SSW,202,6.3,6.3,54,0.00,,,0.00,VWS V14.01,2013-03-09 19:10:00,
2013-03-09 11:11:00,59.7,40.5,30.03,WSW,248,3.4,3.4,49,0.00,,,0.00,VWS V14.01,2013-03-09 19:11:00,
2013-03-09 11:12:00,59.7,40.5,30.03,SSW,202,5.8,5.8,49,0.00,,,0.00,VWS V14.01,2013-03-09 19:12:00,
2013-03-09 11:13:00,60.1,40.9,30.03,SSW,202,5.8,5.8,49,0.00,,,0.00,VWS V14.01,2013-03-09 19:13:00,
2013-03-09 11:14:00,60.1,40.9,30.03,WSW,248,3.6,3.6,49,0.00,,,0.00,VWS V14.01,2013-03-09 19:14:00,
2013-03-09 11:15:00,57.6,41.1,30.03,WSW,248,9.2,9.2,54,0.00,,,0.00,VWS V14.01,2013-03-09 19:15:00,
2013-03-09 11:16:00,60.1,40.3,30.03,WSW,248,5.6,5.6,48,0.00,,,0.00,VWS V14.01,2013-03-09 19:16:00,
2013-03-09 11:17:00,60.1,40.3,30.03,WSW,248,3.4,3.4,48,0.00,,,0.00,VWS V14.01,2013-03-09 19:17:00,
2013-03-09 11:18:00,60.3,41.0,30.03,SSW,202,2.0,2.0,49,0.00,,,0.00,VWS V14.01,2013-03-09 19:18:00,
2013-03-09 11:19:00,60.3,41.0,30.03,SSW,202,2.0,2.0,49,0.00,,,0.00,VWS V14.01,2013-03-09 19:19:00,
2013-03-09 11:20:00,57.2,40.2,30.03,SSW,202,7.6,7.6,53,0.00,,,0.00,VWS V14.01,2013-03-09 19:20:00,
2013-03-09 11:21:00,60.4,41.2,30.03,South,180,4.9,4.9,49,0.00,,,0.00,VWS V14.01,2013-03-09 19:21:00,
2013-03-09 11:22:00,60.4,41.2,30.03,South,180,4.9,4.9,49,0.00,,,0.00,VWS V14.01,2013-03-09 19:22:00,
2013-03-09 11:23:00,60.4,41.2,30.03,SSW,202,10.3,10.3,49,0.00,,,0.00,VWS V14.01,2013-03-09 19:23:00,
2013-03-09 11:24:00,60.4,41.2,30.03,SSW,202,10.3,10.3,49,0.00,,,0.00,VWS V14.01,2013-03-09 19:24:00,
2013-03-09 11:25:00,58.1,42.0,30.03,SW,225,7.2,7.2,55,0.00,,,0.00,VWS V14.01,2013-03-09 19:25:00,
2013-03-09 11:26:00,60.4,41.2,30.03,SSW,202,10.3,10.3,49,0.00,,,0.00,VWS V14.01,2013-03-09 19:26:00,
2013-03-09 11:27:00,60.4,41.2,30.03,SSW,202,8.5,8.5,49,0.00,,,0.00,VWS V14.01,2013-03-09 19:27:00,
2013-03-09 11:28:00,60.4,41.2,30.03,SSW,202,8.5,8.5,49,0.00,,,0.00,VWS V14.01,2013-03-09 19:28:00,
2013-03-09 11:29:00,60.4,41.2,30.03,SSW,202,8.5,8.5,49,0.00,,,0.00,VWS V14.01,2013-03-09 19:29:00,
2013-03-09 11:30:00,57.9,41.4,30.03,West,270,6.9,6.9,54,0.00,,,0.00,VWS V14.01,2013-03-09 19:30:00,
2013-03-09 11:31:00,59.2,41.1,30.03,WSW,248,12.5,12.5,51,0.00,,,0.00,VWS V14.01,2013-03-09 19:31:00,
2013-03-09 11:32:00,59.2,41.1,30.03,WSW,248,12.5,12.5,51,0.00,,,0.00,VWS V14.01,2013-03-09 19:32:00,
2013-03-09 11:33:00,59.2,41.1,30.03,WSW,248,12.5,12.5,51,0.00,,,0.00,VWS V14.01,2013-03-09 19:33:00,
2013-03-09 11:34:00,59.2,41.1,30.03,WSW,248,12.5,12.5,51,0.00,,,0.00,VWS V14.01,2013-03-09 19:34:00,
2013-03-09 11:35:00,57.2,40.7,30.03,SW,225,3.6,3.6,54,0.00,,,0.00,VWS V14.01,2013-03-09 19:35:00,
2013-03-09 11:36:00,59.2,41.1,30.03,SSW,202,8.7,8.7,51,0.00,,,0.00,VWS V14.01,2013-03-09 19:36:00,
2013-03-09 11:37:00,57.4,41.4,30.03,SW,225,7.6,7.6,55,0.00,,,0.00,VWS V14.01,2013-03-09 19:37:00,
2013-03-09 11:38:00,57.4,41.4,30.03,SW,225,11.0,11.0,55,0.00,,,0.00,VWS V14.01,2013-03-09 19:38:00,
2013-03-09 11:39:00,57.4,41.8,30.03,WSW,248,14.8,14.8,56,0.00,,,0.00,VWS V14.01,2013-03-09 19:39:00,
2013-03-09 11:40:00,58.5,42.4,30.03,WSW,248,9.2,9.2,55,0.00,,,0.00,VWS V14.01,2013-03-09 19:40:00,
2013-03-09 11:41:00,57.4,41.8,30.03,WSW,248,11.4,11.4,56,0.00,,,0.00,VWS V14.01,2013-03-09 19:41:00,
2013-03-09 11:42:00,57.4,41.8,30.03,WSW,248,11.4,11.4,56,0.00,,,0.00,VWS V14.01,2013-03-09 19:42:00,
2013-03-09 11:43:00,56.8,41.8,30.03,SW,225,8.1,8.1,57,0.00,,,0.00,VWS V14.01,2013-03-09 19:43:00,
2013-03-09 11:44:00,56.8,42.2,30.03,WSW,248,14.8,14.8,58,0.00,,,0.00,VWS V14.01,2013-03-09 19:44:00,
2013-03-09 11:45:00,58.3,40.8,30.03,SW,225,7.6,7.6,52,0.00,,,0.00,VWS V14.01,2013-03-09 19:45:00,
2013-03-09 11:46:00,56.5,42.3,30.03,WSW,248,10.3,10.3,59,0.00,,,0.00,VWS V14.01,2013-03-09 19:46:00,
2013-03-09 11:47:00,56.5,42.3,30.03,West,270,9.8,9.8,59,0.00,,,0.00,VWS V14.01,2013-03-09 19:47:00,
2013-03-09 11:48:00,56.5,42.3,30.03,West,270,9.8,9.8,59,0.00,,,0.00,VWS V14.01,2013-03-09 19:48:00,
2013-03-09 11:49:00,56.5,42.3,30.03,WSW,248,8.7,8.7,59,0.00,,,0.00,VWS V14.01,2013-03-09 19:49:00,
2013-03-09 11:50:00,58.6,41.1,30.03,WNW,292,5.8,5.8,52,0.00,,,0.00,VWS V14.01,2013-03-09 19:50:00,
2013-03-09 11:51:00,56.3,42.6,30.03,SSW,202,6.3,6.3,60,0.00,,,0.00,VWS V14.01,2013-03-09 19:51:00,
2013-03-09 11:52:00,56.3,42.6,30.03,WSW,248,9.4,9.4,60,0.00,,,0.00,VWS V14.01,2013-03-09 19:52:00,
2013-03-09 11:53:00,56.1,42.4,30.03,WNW,292,10.1,10.1,60,0.00,,,0.00,VWS V14.01,2013-03-09 19:53:00,
2013-03-09 11:54:00,56.1,42.4,30.03,WNW,292,10.1,10.1,60,0.00,,,0.00,VWS V14.01,2013-03-09 19:54:00,
2013-03-09 11:55:00,59.2,41.1,30.03,WNW,292,1.6,1.6,51,0.00,,,0.00,VWS V14.01,2013-03-09 19:55:00,
2013-03-09 11:56:00,56.1,42.4,30.03,WSW,248,7.6,7.6,60,0.00,,,0.00,VWS V14.01,2013-03-09 19:56:00,
2013-03-09 11:57:00,56.1,42.4,30.03,WSW,248,9.8,9.8,60,0.00,,,0.00,VWS V14.01,2013-03-09 19:57:00,
2013-03-09 11:58:00,56.1,42.4,30.03,West,270,8.1,8.1,60,0.00,,,0.00,VWS V14.01,2013-03-09 19:58:00,
2013-03-09 11:59:00,56.1,42.9,30.03,West,270,8.1,8.1,61,0.00,,,0.00,VWS V14.01,2013-03-09 19:59:00,
2013-03-09 12:00:00,59.4,40.2,30.03,NNW,338,3.4,3.4,49,0.00,,,0.00,VWS V14.01,2013-03-09 20:00:00,
2013-03-09 12:01:00,56.1,42.9,30.03,West,270,8.1,8.1,61,0.00,,,0.00,VWS V14.01,2013-03-09 20:01:00,
2013-03-09 12:02:00,56.1,43.3,30.03,SW,225,8.1,8.1,62,0.00,,,0.00,VWS V14.01,2013-03-09 20:02:00,
2013-03-09 12:03:00,56.1,43.3,30.03,WSW,248,3.8,3.8,62,0.00,,,0.00,VWS V14.01,2013-03-09 20:03:00,
2013-03-09 12:04:00,56.5,43.6,30.03,WSW,248,14.3,14.3,62,0.00,,,0.00,VWS V14.01,2013-03-09 20:04:00,
2013-03-09 12:05:00,59.5,40.9,30.03,WSW,248,6.3,6.3,50,0.00,,,0.00,VWS V14.01,2013-03-09 20:05:00,
2013-03-09 12:06:00,56.3,43.5,30.03,SW,225,10.5,10.5,62,0.00,,,0.00,VWS V14.01,2013-03-09 20:06:00,
2013-03-09 12:07:00,56.5,43.6,30.03,WSW,248,7.4,7.4,62,0.00,,,0.00,VWS V14.01,2013-03-09 20:07:00,
2013-03-09 12:08:00,56.5,43.6,30.03,SSW,202,7.6,7.6,62,0.00,,,0.00,VWS V14.01,2013-03-09 20:08:00,
2013-03-09 12:09:00,56.3,43.5,30.03,SSW,202,7.6,7.6,62,0.00,,,0.00,VWS V14.01,2013-03-09 20:09:00,
2013-03-09 12:10:00,59.7,40.5,30.03,SW,225,4.3,4.3,49,0.00,,,0.00,VWS V14.01,2013-03-09 20:10:00,
2013-03-09 12:11:00,56.5,43.6,30.03,WSW,248,14.8,14.8,62,0.00,,,0.00,VWS V14.01,2013-03-09 20:11:00,
2013-03-09 12:12:00,56.5,43.6,30.03,West,270,8.1,8.1,62,0.00,,,0.00,VWS V14.01,2013-03-09 20:12:00,
2013-03-09 12:13:00,56.3,43.5,30.03,WNW,292,10.7,10.7,62,0.00,,,0.00,VWS V14.01,2013-03-09 20:13:00,
2013-03-09 12:14:00,56.5,43.6,30.03,WSW,248,14.8,14.8,62,0.00,,,0.00,VWS V14.01,2013-03-09 20:14:00,
2013-03-09 12:15:00,60.1,40.9,30.03,WSW,248,5.6,5.6,49,0.00,,,0.00,VWS V14.01,2013-03-09 20:15:00,
2013-03-09 12:16:00,56.3,43.5,30.03,WSW,248,10.5,10.5,62,0.00,,,0.00,VWS V14.01,2013-03-09 20:16:00,
2013-03-09 12:17:00,56.3,43.5,30.03,WSW,248,10.5,10.5,62,0.00,,,0.00,VWS V14.01,2013-03-09 20:17:00,
2013-03-09 12:18:00,56.3,43.5,30.03,WSW,248,10.5,10.5,62,0.00,,,0.00,VWS V14.01,2013-03-09 20:18:00,
2013-03-09 12:19:00,56.3,43.5,30.03,WSW,248,10.5,10.5,62,0.00,,,0.00,VWS V14.01,2013-03-09 20:19:00,
2013-03-09 12:20:00,60.4,41.2,30.03,South,180,4.9,4.9,49,0.00,,,0.00,VWS V14.01,2013-03-09 20:20:00,
2013-03-09 12:21:00,56.3,43.5,30.03,West,270,11.0,11.0,62,0.00,,,0.00,VWS V14.01,2013-03-09 20:21:00,
2013-03-09 12:22:00,56.3,42.6,30.03,SSW,202,7.4,7.4,60,0.00,,,0.00,VWS V14.01,2013-03-09 20:22:00,
2013-03-09 12:23:00,56.3,42.2,30.03,WSW,248,6.3,6.3,59,0.00,,,0.00,VWS V14.01,2013-03-09 20:23:00,
2013-03-09 12:24:00,56.3,42.2,30.03,WSW,248,9.6,9.6,59,0.00,,,0.00,VWS V14.01,2013-03-09 20:24:00,
2013-03-09 12:25:00,60.4,41.2,30.03,SSW,202,10.3,10.3,49,0.00,,,0.00,VWS V14.01,2013-03-09 20:25:00,
2013-03-09 12:26:00,56.3,41.7,30.03,WSW,248,10.7,10.7,58,0.00,,,0.00,VWS V14.01,2013-03-09 20:26:00,
2013-03-09 12:27:00,56.3,41.7,30.03,WSW,248,10.7,10.7,58,0.00,,,0.00,VWS V14.01,2013-03-09 20:27:00,
2013-03-09 12:28:00,56.3,41.7,30.03,WSW,248,10.7,10.7,58,0.00,,,0.00,VWS V14.01,2013-03-09 20:28:00,
2013-03-09 12:29:00,56.3,42.2,30.03,WSW,248,10.7,10.7,59,0.00,,,0.00,VWS V14.01,2013-03-09 20:29:00,
2013-03-09 12:30:00,59.2,41.1,30.03,WSW,248,12.5,12.5,51,0.00,,,0.00,VWS V14.01,2013-03-09 20:30:00,
2013-03-09 12:31:00,56.3,41.7,30.03,SSW,202,12.5,12.5,58,0.00,,,0.00,VWS V14.01,2013-03-09 20:31:00,
2013-03-09 12:32:00,56.5,42.3,30.03,SSW,202,12.5,12.5,59,0.00,,,0.00,VWS V14.01,2013-03-09 20:32:00,
2013-03-09 12:33:00,56.5,42.3,30.03,SSW,202,12.5,12.5,59,0.00,,,0.00,VWS V14.01,2013-03-09 20:33:00,
2013-03-09 12:34:00,56.5,42.3,30.03,WSW,248,7.8,7.8,59,0.00,,,0.00,VWS V14.01,2013-03-09 20:34:00,
2013-03-09 12:35:00,59.2,41.1,30.03,SSW,202,8.7,8.7,51,0.00,,,0.00,VWS V14.01,2013-03-09 20:35:00,
2013-03-09 12:36:00,57.0,42.8,30.03,WSW,248,7.8,7.8,59,0.00,,,0.00,VWS V14.01,2013-03-09 20:36:00,
2013-03-09 12:37:00,56.7,42.5,30.03,WSW,248,9.2,9.2,59,0.00,,,0.00,VWS V14.01,2013-03-09 20:37:00,
2013-03-09 12:38:00,56.7,42.5,30.03,WSW,248,15.2,15.2,59,0.00,,,0.00,VWS V14.01,2013-03-09 20:38:00,
2013-03-09 12:39:00,56.5,41.9,30.03,WSW,248,15.2,15.2,58,0.00,,,0.00,VWS V14.01,2013-03-09 20:39:00,
2013-03-09 12:40:00,57.4,41.8,30.03,SW,225,7.8,7.8,56,0.00,,,0.00,VWS V14.01,2013-03-09 20:40:00,
2013-03-09 12:41:00,56.8,42.7,30.03,SW,225,10.5,10.5,59,0.00,,,0.00,VWS V14.01,2013-03-09 20:41:00,
2013-03-09 12:42:00,56.8,42.7,30.03,WSW,248,10.5,10.5,59,0.00,,,0.00,VWS V14.01,2013-03-09 20:42:00,
2013-03-09 12:43:00,56.8,42.7,30.03,WNW,292,13.2,13.2,59,0.00,,,0.00,VWS V14.01,2013-03-09 20:43:00,
2013-03-09 12:44:00,56.8,42.7,30.03,WSW,248,14.1,14.1,59,0.00,,,0.00,VWS V14.01,2013-03-09 20:44:00,
2013-03-09 12:45:00,56.8,42.2,30.03,WSW,248,10.3,10.3,58,0.00,,,0.00,VWS V14.01,2013-03-09 20:45:00,
2013-03-09 12:46:00,57.0,42.4,30.03,WSW,248,10.3,10.3,58,0.00,,,0.00,VWS V14.01,2013-03-09 20:46:00,
2013-03-09 12:47:00,57.0,42.4,30.03,WNW,292,13.0,13.0,58,0.00,,,0.00,VWS V14.01,2013-03-09 20:47:00,
2013-03-09 12:48:00,57.0,42.0,30.03,SW,225,6.3,6.3,57,0.00,,,0.00,VWS V14.01,2013-03-09 20:48:00,
2013-03-09 12:49:00,57.0,42.0,30.03,SSW,202,12.8,12.8,57,0.00,,,0.00,VWS V14.01,2013-03-09 20:49:00,
2013-03-09 12:50:00,56.3,42.2,30.03,SSW,202,6.3,6.3,59,0.00,,,0.00,VWS V14.01,2013-03-09 20:50:00,
2013-03-09 12:51:00,57.2,43.0,30.00,WSW,248,16.6,16.6,59,0.00,,,0.00,VWS V14.01,2013-03-09 20:51:00,
2013-03-09 12:52:00,57.2,43.0,30.00,WNW,292,15.4,15.4,59,0.00,,,0.00,VWS V14.01,2013-03-09 20:52:00,
2013-03-09 12:53:00,57.0,42.4,30.00,WSW,248,16.1,16.1,58,0.00,,,0.00,VWS V14.01,2013-03-09 20:53:00,
2013-03-09 12:54:00,57.0,42.4,30.00,WSW,248,14.1,14.1,58,0.00,,,0.00,VWS V14.01,2013-03-09 20:54:00,
2013-03-09 12:55:00,56.1,42.4,30.03,WSW,248,11.0,11.0,60,0.00,,,0.00,VWS V14.01,2013-03-09 20:55:00,
2013-03-09 12:56:00,56.8,42.7,30.00,SW,225,17.0,17.0,59,0.00,,,0.00,VWS V14.01,2013-03-09 20:56:00,
2013-03-09 12:57:00,56.8,43.1,30.00,WSW,248,10.5,10.5,60,0.00,,,0.00,VWS V14.01,2013-03-09 20:57:00,
2013-03-09 12:58:00,56.8,43.1,30.00,SSW,202,12.5,12.5,60,0.00,,,0.00,VWS V14.01,2013-03-09 20:58:00,
2013-03-09 12:59:00,57.0,43.7,30.00,SSW,202,13.2,13.2,61,0.00,,,0.00,VWS V14.01,2013-03-09 20:59:00,
2013-03-09 13:00:00,56.1,42.9,30.03,West,270,8.1,8.1,61,0.00,,,0.00,VWS V14.01,2013-03-09 21:00:00,
2013-03-09 13:01:00,57.0,44.1,30.00,WSW,248,10.3,10.3,62,0.00,,,0.00,VWS V14.01,2013-03-09 21:01:00,
2013-03-09 13:02:00,57.0,44.1,30.00,SW,225,10.3,10.3,62,0.00,,,0.00,VWS V14.01,2013-03-09 21:02:00,
2013-03-09 13:03:00,57.0,44.1,30.00,WSW,248,14.1,14.1,62,0.00,,,0.00,VWS V14.01,2013-03-09 21:03:00,
2013-03-09 13:04:00,57.0,44.1,30.00,WSW,248,15.2,15.2,62,0.00,,,0.00,VWS V14.01,2013-03-09 21:04:00,
2013-03-09 13:05:00,56.3,43.5,30.03,SW,225,10.5,10.5,62,0.00,,,0.00,VWS V14.01,2013-03-09 21:05:00,
2013-03-09 13:06:00,57.0,44.6,30.00,WSW,248,12.5,12.5,63,0.00,,,0.00,VWS V14.01,2013-03-09 21:06:00,
2013-03-09 13:07:00,56.8,44.8,30.00,NW,315,15.4,15.4,64,0.00,,,0.00,VWS V14.01,2013-03-09 21:07:00,
2013-03-09 13:08:00,56.8,44.8,30.00,WSW,248,15.4,15.4,64,0.00,,,0.00,VWS V14.01,2013-03-09 21:08:00,
2013-03-09 13:09:00,56.8,44.8,30.00,West,270,8.5,8.5,64,0.00,,,0.00,VWS V14.01,2013-03-09 21:09:00,
2013-03-09 13:10:00,56.5,43.6,30.03,WSW,248,14.8,14.8,62,0.00,,,0.00,VWS V14.01,2013-03-09 21:10:00,
2013-03-09 13:11:00,57.2,44.7,30.00,SSW,202,3.8,3.8,63,0.00,,,0.00,VWS V14.01,2013-03-09 21:11:00,
2013-03-09 13:12:00,57.2,44.7,30.00,WSW,248,10.7,10.7,63,0.00,,,0.00,VWS V14.01,2013-03-09 21:12:00,
2013-03-09 13:13:00,57.2,44.7,30.00,WSW,248,10.7,10.7,63,0.00,,,0.00,VWS V14.01,2013-03-09 21:13:00,
2013-03-09 13:14:00,57.2,44.7,30.00,WSW,248,10.5,10.5,63,0.00,,,0.00,VWS V14.01,2013-03-09 21:14:00,
2013-03-09 13:15:00,56.5,43.6,30.03,WSW,248,10.1,10.1,62,0.00,,,0.00,VWS V14.01,2013-03-09 21:15:00,
2013-03-09 13:16:00,56.8,44.4,30.00,WSW,248,12.5,12.5,63,0.00,,,0.00,VWS V14.01,2013-03-09 21:16:00,
2013-03-09 13:18:00,56.8,44.4,30.00,West,270,6.7,6.7,63,0.00,,,0.00,VWS V14.01,2013-03-09 21:18:00,
2013-03-09 13:19:00,56.8,44.4,30.00,SSW,202,11.0,11.0,63,0.00,,,0.00,VWS V14.01,2013-03-09 21:19:00,
2013-03-09 13:20:00,56.3,43.5,30.03,West,270,11.0,11.0,62,0.00,,,0.00,VWS V14.01,2013-03-09 21:20:00,
2013-03-09 13:21:00,57.2,43.9,30.00,WSW,248,11.2,11.2,61,0.00,,,0.00,VWS V14.01,2013-03-09 21:21:00,
2013-03-09 13:22:00,57.6,44.2,30.00,WSW,248,12.8,12.8,61,0.00,,,0.00,VWS V14.01,2013-03-09 21:22:00,
2013-03-09 13:23:00,57.6,44.2,30.00,WSW,248,10.3,10.3,61,0.00,,,0.00,VWS V14.01,2013-03-09 21:23:00,
2013-03-09 13:24:00,57.6,44.2,30.00,WNW,292,12.8,12.8,61,0.00,,,0.00,VWS V14.01,2013-03-09 21:24:00,
2013-03-09 13:25:00,56.3,41.7,30.03,SW,225,14.8,14.8,58,0.00,,,0.00,VWS V14.01,2013-03-09 21:25:00,
2013-03-09 13:26:00,57.6,43.4,30.00,WSW,248,14.3,14.3,59,0.00,,,0.00,VWS V14.01,2013-03-09 21:26:00,
2013-03-09 13:27:00,57.6,43.4,30.00,WSW,248,8.1,8.1,59,0.00,,,0.00,VWS V14.01,2013-03-09 21:27:00,
2013-03-09 13:28:00,57.7,43.5,30.00,SW,225,11.9,11.9,59,0.00,,,0.00,VWS V14.01,2013-03-09 21:28:00,
2013-03-09 13:29:00,57.7,43.5,30.00,WSW,248,11.0,11.0,59,0.00,,,0.00,VWS V14.01,2013-03-09 21:29:00,
2013-03-09 13:30:00,56.3,41.7,30.03,WSW,248,10.7,10.7,58,0.00,,,0.00,VWS V14.01,2013-03-09 21:30:00,
2013-03-09 13:31:00,57.7,43.5,30.00,SW,225,10.3,10.3,59,0.00,,,0.00,VWS V14.01,2013-03-09 21:31:00,
2013-03-09 13:32:00,57.7,43.5,30.00,West,270,10.3,10.3,59,0.00,,,0.00,VWS V14.01,2013-03-09 21:32:00,
2013-03-09 13:33:00,58.1,43.4,30.00,WSW,248,12.1,12.1,58,0.00,,,0.00,VWS V14.01,2013-03-09 21:33:00,
2013-03-09 13:34:00,58.1,43.4,30.00,WSW,248,10.1,10.1,58,0.00,,,0.00,VWS V14.01,2013-03-09 21:34:00,
2013-03-09 13:35:00,57.0,42.8,30.03,WSW,248,7.8,7.8,59,0.00,,,0.00,VWS V14.01,2013-03-09 21:35:00,
2013-03-09 13:36:00,58.5,43.8,30.00,SW,225,7.6,7.6,58,0.00,,,0.00,VWS V14.01,2013-03-09 21:36:00,
2013-03-09 13:37:00,58.5,43.8,30.00,SW,225,7.6,7.6,58,0.00,,,0.00,VWS V14.01,2013-03-09 21:37:00,
2013-03-09 13:38:00,58.1,43.0,30.00,West,270,15.2,15.2,57,0.00,,,0.00,VWS V14.01,2013-03-09 21:38:00,
2013-03-09 13:39:00,58.1,43.0,30.00,WSW,248,12.3,12.3,57,0.00,,,0.00,VWS V14.01,2013-03-09 21:39:00,
2013-03-09 13:40:00,56.8,42.7,30.03,South,180,9.6,9.6,59,0.00,,,0.00,VWS V14.01,2013-03-09 21:40:00,
2013-03-09 13:41:00,58.3,43.6,30.00,WSW,248,12.5,12.5,58,0.00,,,0.00,VWS V14.01,2013-03-09 21:41:00,
2013-03-09 13:42:00,58.3,43.1,30.00,WSW,248,14.1,14.1,57,0.00,,,0.00,VWS V14.01,2013-03-09 21:42:00,
2013-03-09 13:43:00,58.3,43.1,30.00,WSW,248,15.2,15.2,57,0.00,,,0.00,VWS V14.01,2013-03-09 21:43:00,
2013-03-09 13:44:00,58.1,43.0,30.00,NNW,338,13.6,13.6,57,0.00,,,0.00,VWS V14.01,2013-03-09 21:44:00,
2013-03-09 13:45:00,56.8,42.7,30.03,WSW,248,14.1,14.1,59,0.00,,,0.00,VWS V14.01,2013-03-09 21:45:00,
2013-03-09 13:46:00,57.9,42.8,30.00,NNW,338,13.6,13.6,57,0.00,,,0.00,VWS V14.01,2013-03-09 21:46:00,
2013-03-09 13:47:00,57.9,42.8,30.00,WNW,292,14.8,14.8,57,0.00,,,0.00,VWS V14.01,2013-03-09 21:47:00,
2013-03-09 13:48:00,57.9,42.8,30.00,WSW,248,15.4,15.4,57,0.00,,,0.00,VWS V14.01,2013-03-09 21:48:00,
2013-03-09 13:49:00,57.9,42.3,30.00,WSW,248,12.5,12.5,56,0.00,,,0.00,VWS V14.01,2013-03-09 21:49:00,
2013-03-09 13:50:00,57.2,43.0,30.03,WSW,248,16.6,16.6,59,0.00,,,0.00,VWS V14.01,2013-03-09 21:50:00,
2013-03-09 13:51:00,58.1,43.0,30.00,WSW,248,13.0,13.0,57,0.00,,,0.00,VWS V14.01,2013-03-09 21:51:00,
2013-03-09 13:52:00,58.1,43.0,30.00,West,270,13.0,13.0,57,0.00,,,0.00,VWS V14.01,2013-03-09 21:52:00,
2013-03-09 13:53:00,58.3,42.7,30.00,WSW,248,10.1,10.1,56,0.00,,,0.00,VWS V14.01,2013-03-09 21:53:00,
2013-03-09 13:54:00,58.6,42.5,30.00,West,270,13.2,13.2,55,0.00,,,0.00,VWS V14.01,2013-03-09 21:54:00,
2013-03-09 13:55:00,56.8,42.7,30.00,SSW,202,10.5,10.5,59,0.00,,,0.00,VWS V14.01,2013-03-09 21:55:00,
2013-03-09 13:56:00,58.6,41.6,30.00,West,270,13.2,13.2,53,0.00,,,0.00,VWS V14.01,2013-03-09 21:56:00,
2013-03-09 13:57:00,58.6,41.6,30.00,West,270,13.2,13.2,53,0.00,,,0.00,VWS V14.01,2013-03-09 21:57:00,
2013-03-09 13:58:00,58.8,41.7,30.00,West,270,13.2,13.2,53,0.00,,,0.00,VWS V14.01,2013-03-09 21:58:00,
2013-03-09 13:59:00,58.8,41.7,30.00,West,270,13.2,13.2,53,0.00,,,0.00,VWS V14.01,2013-03-09 21:59:00,
2013-03-09 14:00:00,57.0,44.1,30.00,WSW,248,9.6,9.6,62,0.00,,,0.00,VWS V14.01,2013-03-09 22:00:00,
2013-03-09 14:01:00,58.6,42.1,30.00,West,270,13.2,13.2,54,0.00,,,0.00,VWS V14.01,2013-03-09 22:01:00,
2013-03-09 14:02:00,58.6,42.1,30.00,West,270,13.2,13.2,54,0.00,,,0.00,VWS V14.01,2013-03-09 22:02:00,
2013-03-09 14:03:00,58.8,42.2,30.00,West,270,13.2,13.2,54,0.00,,,0.00,VWS V14.01,2013-03-09 22:03:00,
2013-03-09 14:04:00,58.8,42.2,30.00,WSW,248,10.1,10.1,54,0.00,,,0.00,VWS V14.01,2013-03-09 22:04:00,
2013-03-09 14:05:00,57.0,44.6,30.00,WSW,248,12.5,12.5,63,0.00,,,0.00,VWS V14.01,2013-03-09 22:05:00,
2013-03-09 14:06:00,58.6,42.1,30.00,SW,225,13.0,13.0,54,0.00,,,0.00,VWS V14.01,2013-03-09 22:06:00,
2013-03-09 14:07:00,58.6,42.5,30.00,SW,225,13.0,13.0,55,0.00,,,0.00,VWS V14.01,2013-03-09 22:07:00,
2013-03-09 14:08:00,58.5,41.9,30.00,SW,225,13.0,13.0,54,0.00,,,0.00,VWS V14.01,2013-03-09 22:08:00,
2013-03-09 14:09:00,58.5,41.9,30.00,SW,225,14.8,14.8,54,0.00,,,0.00,VWS V14.01,2013-03-09 22:09:00,
2013-03-09 14:10:00,57.2,44.7,30.00,West,270,8.5,8.5,63,0.00,,,0.00,VWS V14.01,2013-03-09 22:10:00,
2013-03-09 14:11:00,58.5,42.4,30.00,WSW,248,4.3,4.3,55,0.00,,,0.00,VWS V14.01,2013-03-09 22:11:00,
2013-03-09 14:12:00,58.5,42.8,30.00,WSW,248,8.1,8.1,56,0.00,,,0.00,VWS V14.01,2013-03-09 22:12:00,
2013-03-09 14:13:00,58.5,42.8,30.00,WSW,248,12.1,12.1,56,0.00,,,0.00,VWS V14.01,2013-03-09 22:13:00,
2013-03-09 14:14:00,58.5,42.8,30.00,WSW,248,12.1,12.1,56,0.00,,,0.00,VWS V14.01,2013-03-09 22:14:00,
2013-03-09 14:15:00,56.8,44.4,30.00,WSW,248,12.5,12.5,63,0.00,,,0.00,VWS V14.01,2013-03-09 22:15:00,
2013-03-09 14:16:00,58.3,43.6,30.00,WSW,248,12.1,12.1,58,0.00,,,0.00,VWS V14.01,2013-03-09 22:16:00,
2013-03-09 14:17:00,58.3,43.6,30.00,WSW,248,13.9,13.9,58,0.00,,,0.00,VWS V14.01,2013-03-09 22:17:00,
2013-03-09 14:18:00,58.3,43.6,30.00,WSW,248,13.2,13.2,58,0.00,,,0.00,VWS V14.01,2013-03-09 22:18:00,
2013-03-09 14:19:00,58.3,44.0,30.00,WSW,248,9.4,9.4,59,0.00,,,0.00,VWS V14.01,2013-03-09 22:19:00,
2013-03-09 14:20:00,57.2,43.9,30.00,WSW,248,11.2,11.2,61,0.00,,,0.00,VWS V14.01,2013-03-09 22:20:00,
2013-03-09 14:21:00,58.1,44.3,30.00,WSW,248,15.4,15.4,60,0.00,,,0.00,VWS V14.01,2013-03-09 22:21:00,
2013-03-09 14:22:00,58.1,44.3,30.00,WSW,248,13.2,13.2,60,0.00,,,0.00,VWS V14.01,2013-03-09 22:22:00,
2013-03-09 14:23:00,58.1,43.9,30.00,WSW,248,13.2,13.2,59,0.00,,,0.00,VWS V14.01,2013-03-09 22:23:00,
2013-03-09 14:24:00,58.1,43.4,30.00,West,270,13.2,13.2,58,0.00,,,0.00,VWS V14.01,2013-03-09 22:24:00,
2013-03-09 14:25:00,57.6,43.8,30.00,WSW,248,16.3,16.3,60,0.00,,,0.00,VWS V14.01,2013-03-09 22:25:00,
2013-03-09 14:26:00,58.3,44.0,30.00,West,270,11.0,11.0,59,0.00,,,0.00,VWS V14.01,2013-03-09 22:26:00,
2013-03-09 14:27:00,58.3,44.0,30.00,SW,225,15.9,15.9,59,0.00,,,0.00,VWS V14.01,2013-03-09 22:27:00,
2013-03-09 14:28:00,57.9,44.1,30.00,West,270,10.7,10.7,60,0.00,,,0.00,VWS V14.01,2013-03-09 22:28:00,
2013-03-09 14:29:00,57.9,44.1,30.00,West,270,13.0,13.0,60,0.00,,,0.00,VWS V14.01,2013-03-09 22:29:00,
2013-03-09 14:30:00,57.7,43.5,30.00,WSW,248,11.0,11.0,59,0.00,,,0.00,VWS V14.01,2013-03-09 22:30:00,
2013-03-09 14:31:00,58.1,44.7,30.00,WSW,248,8.5,8.5,61,0.00,,,0.00,VWS V14.01,2013-03-09 22:31:00,
2013-03-09 14:32:00,58.1,44.7,30.00,SW,225,9.8,9.8,61,0.00,,,0.00,VWS V14.01,2013-03-09 22:32:00,
2013-03-09 14:33:00,58.3,44.9,30.00,SW,225,13.4,13.4,61,0.00,,,0.00,VWS V14.01,2013-03-09 22:33:00,
2013-03-09 14:34:00,58.3,44.9,30.00,WSW,248,10.7,10.7,61,0.00,,,0.00,VWS V14.01,2013-03-09 22:34:00,
2013-03-09 14:35:00,58.5,43.8,30.00,SW,225,7.6,7.6,58,0.00,,,0.00,VWS V14.01,2013-03-09 22:35:00,
2013-03-09 14:36:00,58.1,44.3,30.00,SW,225,12.3,12.3,60,0.00,,,0.00,VWS V14.01,2013-03-09 22:36:00,
2013-03-09 14:37:00,58.3,44.0,30.00,SW,225,7.8,7.8,59,0.00,,,0.00,VWS V14.01,2013-03-09 22:37:00,
2013-03-09 14:38:00,58.5,44.6,30.00,WSW,248,10.1,10.1,60,0.00,,,0.00,VWS V14.01,2013-03-09 22:38:00,
2013-03-09 14:39:00,58.5,44.6,30.00,WNW,292,11.0,11.0,60,0.00,,,0.00,VWS V14.01,2013-03-09 22:39:00,
2013-03-09 14:40:00,58.3,43.6,30.00,WSW,248,13.0,13.0,58,0.00,,,0.00,VWS V14.01,2013-03-09 22:40:00,
2013-03-09 14:41:00,58.5,42.8,30.00,SW,225,12.5,12.5,56,0.00,,,0.00,VWS V14.01,2013-03-09 22:41:00,
2013-03-09 14:42:00,58.5,42.8,30.00,SSW,202,8.5,8.5,56,0.00,,,0.00,VWS V14.01,2013-03-09 22:42:00,
2013-03-09 14:43:00,58.5,42.8,30.00,WSW,248,2.9,2.9,56,0.00,,,0.00,VWS V14.01,2013-03-09 22:43:00,
2013-03-09 14:44:00,58.5,43.8,30.00,SSW,202,12.5,12.5,58,0.00,,,0.00,VWS V14.01,2013-03-09 22:44:00,
2013-03-09 14:45:00,57.9,42.8,30.00,NNW,338,13.6,13.6,57,0.00,,,0.00,VWS V14.01,2013-03-09 22:45:00,
2013-03-09 14:46:00,58.5,43.8,30.00,West,270,8.1,8.1,58,0.00,,,0.00,VWS V14.01,2013-03-09 22:46:00,
2013-03-09 14:47:00,58.8,43.2,30.00,West,270,9.4,9.4,56,0.00,,,0.00,VWS V14.01,2013-03-09 22:47:00,
2013-03-09 14:48:00,58.8,43.2,30.00,WSW,248,10.7,10.7,56,0.00,,,0.00,VWS V14.01,2013-03-09 22:48:00,
2013-03-09 14:49:00,58.8,42.7,30.00,WSW,248,8.1,8.1,55,0.00,,,0.00,VWS V14.01,2013-03-09 22:49:00,
2013-03-09 14:50:00,58.1,43.0,30.00,WSW,248,16.1,16.1,57,0.00,,,0.00,VWS V14.01,2013-03-09 22:50:00,
2013-03-09 14:51:00,58.6,42.1,30.00,WSW,248,17.9,17.9,54,0.00,,,0.00,VWS V14.01,2013-03-09 22:51:00,
2013-03-09 14:52:00,58.6,42.1,30.00,WSW,248,12.1,12.1,54,0.00,,,0.00,VWS V14.01,2013-03-09 22:52:00,
2013-03-09 14:53:00,58.5,41.9,30.00,WSW,248,8.5,8.5,54,0.00,,,0.00,VWS V14.01,2013-03-09 22:53:00,
2013-03-09 14:54:00,58.6,43.0,30.00,WNW,292,12.3,12.3,56,0.00,,,0.00,VWS V14.01,2013-03-09 22:54:00,
2013-03-09 14:55:00,58.6,42.5,30.00,West,270,13.2,13.2,55,0.00,,,0.00,VWS V14.01,2013-03-09 22:55:00,
2013-03-09 14:56:00,58.6,43.5,30.00,WSW,248,9.4,9.4,57,0.00,,,0.00,VWS V14.01,2013-03-09 22:56:00,
2013-03-09 14:57:00,58.6,43.5,30.00,SW,225,6.3,6.3,57,0.00,,,0.00,VWS V14.01,2013-03-09 22:57:00,
2013-03-09 14:58:00,58.5,42.8,30.00,WSW,248,17.5,17.5,56,0.00,,,0.00,VWS V14.01,2013-03-09 22:58:00,
2013-03-09 14:59:00,58.5,42.8,30.00,WSW,248,11.0,11.0,56,0.00,,,0.00,VWS V14.01,2013-03-09 22:59:00,
2013-03-09 15:00:00,58.6,41.1,30.00,West,270,13.2,13.2,52,0.00,,,0.00,VWS V14.01,2013-03-09 23:00:00,
2013-03-09 15:01:00,58.3,42.7,30.00,WSW,248,6.3,6.3,56,0.00,,,0.00,VWS V14.01,2013-03-09 23:01:00,
2013-03-09 15:02:00,58.3,42.7,30.00,WSW,248,6.3,6.3,56,0.00,,,0.00,VWS V14.01,2013-03-09 23:02:00,
2013-03-09 15:03:00,57.9,42.8,30.00,WSW,248,15.4,15.4,57,0.00,,,0.00,VWS V14.01,2013-03-09 23:03:00,
2013-03-09 15:04:00,57.9,42.8,30.00,WSW,248,13.4,13.4,57,0.00,,,0.00,VWS V14.01,2013-03-09 23:04:00,
2013-03-09 15:05:00,58.6,42.1,30.00,WSW,248,10.1,10.1,54,0.00,,,0.00,VWS V14.01,2013-03-09 23:05:00,
2013-03-09 15:06:00,57.7,43.1,30.00,West,270,12.1,12.1,58,0.00,,,0.00,VWS V14.01,2013-03-09 23:06:00,
2013-03-09 15:07:00,57.9,43.2,30.00,WSW,248,10.5,10.5,58,0.00,,,0.00,VWS V14.01,2013-03-09 23:07:00,
2013-03-09 15:08:00,58.1,43.4,30.00,SSW,202,10.7,10.7,58,0.00,,,0.00,VWS V14.01,2013-03-09 23:08:00,
2013-03-09 15:09:00,58.1,43.4,30.00,NW,315,7.2,7.2,58,0.00,,,0.00,VWS V14.01,2013-03-09 23:09:00,
2013-03-09 15:10:00,58.5,42.4,30.00,WSW,248,10.3,10.3,55,0.00,,,0.00,VWS V14.01,2013-03-09 23:10:00,
2013-03-09 15:11:00,58.3,43.1,30.00,WSW,248,8.5,8.5,57,0.00,,,0.00,VWS V14.01,2013-03-09 23:11:00,
2013-03-09 15:12:00,58.5,43.3,30.00,WSW,248,10.1,10.1,57,0.00,,,0.00,VWS V14.01,2013-03-09 23:12:00,
2013-03-09 15:13:00,58.5,43.3,30.00,WSW,248,9.0,9.0,57,0.00,,,0.00,VWS V14.01,2013-03-09 23:13:00,
2013-03-09 15:14:00,58.5,43.3,30.00,WSW,248,11.0,11.0,57,0.00,,,0.00,VWS V14.01,2013-03-09 23:14:00,
2013-03-09 15:15:00,58.3,43.6,30.00,WSW,248,12.1,12.1,58,0.00,,,0.00,VWS V14.01,2013-03-09 23:15:00,
2013-03-09 15:16:00,58.5,43.8,30.00,WSW,248,6.3,6.3,58,0.00,,,0.00,VWS V14.01,2013-03-09 23:16:00,
2013-03-09 15:17:00,58.5,43.8,30.00,WSW,248,6.3,6.3,58,0.00,,,0.00,VWS V14.01,2013-03-09 23:17:00,
2013-03-09 15:18:00,58.5,43.8,30.00,WSW,248,6.3,6.3,58,0.00,,,0.00,VWS V14.01,2013-03-09 23:18:00,
2013-03-09 15:19:00,58.5,43.8,30.00,WSW,248,6.3,6.3,58,0.00,,,0.00,VWS V14.01,2013-03-09 23:19:00,
2013-03-09 15:20:00,58.1,44.3,30.00,WSW,248,14.3,14.3,60,0.00,,,0.00,VWS V14.01,2013-03-09 23:20:00,
2013-03-09 15:21:00,58.5,44.2,30.00,WSW,248,6.3,6.3,59,0.00,,,0.00,VWS V14.01,2013-03-09 23:21:00,
2013-03-09 15:22:00,58.5,44.2,30.00,WSW,248,6.3,6.3,59,0.00,,,0.00,VWS V14.01,2013-03-09 23:22:00,
2013-03-09 15:23:00,58.5,44.2,30.00,WSW,248,6.3,6.3,59,0.00,,,0.00,VWS V14.01,2013-03-09 23:23:00,
2013-03-09 15:24:00,58.3,44.0,30.00,WSW,248,6.3,6.3,59,0.00,,,0.00,VWS V14.01,2013-03-09 23:24:00,
2013-03-09 15:25:00,58.1,43.4,30.00,SW,225,12.8,12.8,58,0.00,,,0.00,VWS V14.01,2013-03-09 23:25:00,
2013-03-09 15:26:00,58.3,44.0,30.00,SSW,202,5.4,5.4,59,0.00,,,0.00,VWS V14.01,2013-03-09 23:26:00,
2013-03-09 15:27:00,58.3,44.0,30.00,SSW,202,5.4,5.4,59,0.00,,,0.00,VWS V14.01,2013-03-09 23:27:00,
2013-03-09 15:28:00,58.1,44.3,30.00,WSW,248,9.0,9.0,60,0.00,,,0.00,VWS V14.01,2013-03-09 23:28:00,
2013-03-09 15:29:00,58.1,44.3,30.00,WSW,248,9.0,9.0,60,0.00,,,0.00,VWS V14.01,2013-03-09 23:29:00,
2013-03-09 15:30:00,58.1,44.3,30.00,WSW,248,8.5,8.5,60,0.00,,,0.00,VWS V14.01,2013-03-09 23:30:00,
2013-03-09 15:31:00,57.9,44.1,30.00,West,270,9.2,9.2,60,0.00,,,0.00,VWS V14.01,2013-03-09 23:31:00,
2013-03-09 15:32:00,57.9,44.1,30.00,SW,225,12.8,12.8,60,0.00,,,0.00,VWS V14.01,2013-03-09 23:32:00,
2013-03-09 15:33:00,57.9,44.1,30.00,SW,225,12.8,12.8,60,0.00,,,0.00,VWS V14.01,2013-03-09 23:33:00,
2013-03-09 15:34:00,57.9,44.1,30.00,WSW,248,6.3,6.3,60,0.00,,,0.00,VWS V14.01,2013-03-09 23:34:00,
2013-03-09 15:35:00,58.1,44.3,30.00,WSW,248,10.3,10.3,60,0.00,,,0.00,VWS V14.01,2013-03-09 23:35:00,
2013-03-09 15:36:00,57.9,44.1,30.03,WSW,248,6.3,6.3,60,0.00,,,0.00,VWS V14.01,2013-03-09 23:36:00,
2013-03-09 15:37:00,57.9,44.1,30.03,WSW,248,6.3,6.3,60,0.00,,,0.00,VWS V14.01,2013-03-09 23:37:00,
2013-03-09 15:38:00,57.9,44.1,30.03,WSW,248,6.3,6.3,60,0.00,,,0.00,VWS V14.01,2013-03-09 23:38:00,
2013-03-09 15:39:00,57.9,44.1,30.03,SSW,202,9.8,9.8,60,0.00,,,0.00,VWS V14.01,2013-03-09 23:39:00,
2013-03-09 15:40:00,58.5,42.8,30.00,SW,225,12.5,12.5,56,0.00,,,0.00,VWS V14.01,2013-03-09 23:40:00,
2013-03-09 15:41:00,57.7,43.5,30.03,WSW,248,12.5,12.5,59,0.00,,,0.00,VWS V14.01,2013-03-09 23:41:00,
2013-03-09 15:42:00,57.7,43.5,30.03,WSW,248,12.5,12.5,59,0.00,,,0.00,VWS V14.01,2013-03-09 23:42:00,
2013-03-09 15:43:00,57.7,43.5,30.03,WSW,248,12.5,12.5,59,0.00,,,0.00,VWS V14.01,2013-03-09 23:43:00,
2013-03-09 15:44:00,57.7,43.5,30.03,WSW,248,12.5,12.5,59,0.00,,,0.00,VWS V14.01,2013-03-09 23:44:00,
2013-03-09 15:45:00,58.5,43.8,30.00,WSW,248,13.6,13.6,58,0.00,,,0.00,VWS V14.01,2013-03-09 23:45:00,
2013-03-09 15:46:00,58.1,43.0,30.03,WSW,248,12.5,12.5,57,0.00,,,0.00,VWS V14.01,2013-03-09 23:46:00,
2013-03-09 15:47:00,58.1,43.0,30.03,SW,225,12.1,12.1,57,0.00,,,0.00,VWS V14.01,2013-03-09 23:47:00,
2013-03-09 15:48:00,58.1,43.0,30.03,WSW,248,11.0,11.0,57,0.00,,,0.00,VWS V14.01,2013-03-09 23:48:00,
2013-03-09 15:49:00,57.7,42.6,30.03,WSW,248,14.5,14.5,57,0.00,,,0.00,VWS V14.01,2013-03-09 23:49:00,
2013-03-09 15:50:00,58.8,42.7,30.00,SSW,202,17.0,17.0,55,0.00,,,0.00,VWS V14.01,2013-03-09 23:50:00,
2013-03-09 15:51:00,57.6,42.9,30.00,WSW,248,10.5,10.5,58,0.00,,,0.00,VWS V14.01,2013-03-09 23:51:00,
2013-03-09 15:52:00,57.6,42.9,30.00,WNW,292,10.1,10.1,58,0.00,,,0.00,VWS V14.01,2013-03-09 23:52:00,
2013-03-09 15:53:00,57.7,43.1,30.00,WSW,248,8.5,8.5,58,0.00,,,0.00,VWS V14.01,2013-03-09 23:53:00,
2013-03-09 15:55:00,58.6,43.0,30.00,WNW,292,8.1,8.1,56,0.00,,,0.00,VWS V14.01,2013-03-09 23:55:00,
2013-03-09 15:56:00,57.7,43.1,30.00,WSW,248,14.3,14.3,58,0.00,,,0.00,VWS V14.01,2013-03-09 23:56:00,
2013-03-09 15:57:00,57.7,43.1,30.00,SSW,202,6.3,6.3,58,0.00,,,0.00,VWS V14.01,2013-03-09 23:57:00,
2013-03-09 15:58:00,57.7,42.6,30.00,SSW,202,8.5,8.5,57,0.00,,,0.00,VWS V14.01,2013-03-09 23:58:00,
2013-03-09 15:59:00,57.7,42.6,30.00,WSW,248,5.6,5.6,57,0.00,,,0.00,VWS V14.01,2013-03-09 23:59:00,
2013-03-09 16:00:00,58.3,42.7,30.00,WNW,292,10.3,10.3,56,0.00,,,0.00,VWS V14.01,2013-03-10 00:00:00,
2013-03-09 16:01:00,57.9,43.2,30.00,SW,225,8.7,8.7,58,0.00,,,0.00,VWS V14.01,2013-03-10 00:01:00,
2013-03-09 16:02:00,57.9,43.2,30.00,WSW,248,10.5,10.5,58,0.00,,,0.00,VWS V14.01,2013-03-10 00:02:00,
2013-03-09 16:03:00,57.9,43.2,30.00,SW,225,7.4,7.4,58,0.00,,,0.00,VWS V14.01,2013-03-10 00:03:00,
2013-03-09 16:04:00,57.9,43.2,30.00,SSW,202,7.4,7.4,58,0.00,,,0.00,VWS V14.01,2013-03-10 00:04:00,
2013-03-09 16:05:00,57.7,43.1,30.00,West,270,10.7,10.7,58,0.00,,,0.00,VWS V14.01,2013-03-10 00:05:00,
2013-03-09 16:06:00,57.9,43.2,30.00,WNW,292,7.8,7.8,58,0.00,,,0.00,VWS V14.01,2013-03-10 00:06:00,
2013-03-09 16:07:00,57.9,43.7,30.00,SW,225,9.4,9.4,59,0.00,,,0.00,VWS V14.01,2013-03-10 00:07:00,
2013-03-09 16:08:00,57.9,43.7,30.00,SSW,202,8.5,8.5,59,0.00,,,0.00,VWS V14.01,2013-03-10 00:08:00,
2013-03-09 16:09:00,57.6,43.4,30.00,SW,225,11.0,11.0,59,0.00,,,0.00,VWS V14.01,2013-03-10 00:09:00,
2013-03-09 16:10:00,58.3,43.1,30.00,SW,225,12.1,12.1,57,0.00,,,0.00,VWS V14.01,2013-03-10 00:10:00,
2013-03-09 16:11:00,57.4,43.6,30.00,SSW,202,10.3,10.3,60,0.00,,,0.00,VWS V14.01,2013-03-10 00:11:00,
2013-03-09 16:12:00,57.4,43.6,30.00,SW,225,15.4,15.4,60,0.00,,,0.00,VWS V14.01,2013-03-10 00:12:00,
2013-03-09 16:13:00,57.4,43.6,30.00,SSW,202,13.2,13.2,60,0.00,,,0.00,VWS V14.01,2013-03-10 00:13:00,
2013-03-09 16:14:00,57.0,43.7,30.00,SW,225,13.0,13.0,61,0.00,,,0.00,VWS V14.01,2013-03-10 00:14:00,
2013-03-09 16:15:00,58.5,43.8,30.00,WSW,248,5.4,5.4,58,0.00,,,0.00,VWS V14.01,2013-03-10 00:15:00,
2013-03-09 16:16:00,56.7,43.8,30.00,SW,225,13.0,13.0,62,0.00,,,0.00,VWS V14.01,2013-03-10 00:16:00,
2013-03-09 16:17:00,56.7,44.2,30.00,SW,225,10.3,10.3,63,0.00,,,0.00,VWS V14.01,2013-03-10 00:17:00,
2013-03-09 16:18:00,56.7,44.2,30.00,WSW,248,10.1,10.1,63,0.00,,,0.00,VWS V14.01,2013-03-10 00:18:00,
2013-03-09 16:19:00,56.3,44.3,30.00,SW,225,12.3,12.3,64,0.00,,,0.00,VWS V14.01,2013-03-10 00:19:00,
2013-03-09 16:20:00,58.5,43.8,30.00,WSW,248,6.3,6.3,58,0.00,,,0.00,VWS V14.01,2013-03-10 00:20:00,
2013-03-09 16:21:00,56.1,44.5,30.00,South,180,13.0,13.0,65,0.00,,,0.00,VWS V14.01,2013-03-10 00:21:00,
2013-03-09 16:22:00,56.1,44.5,30.00,West,270,12.5,12.5,65,0.00,,,0.00,VWS V14.01,2013-03-10 00:22:00,
2013-03-09 16:23:00,55.9,44.4,30.00,SSW,202,12.3,12.3,65,0.00,,,0.00,VWS V14.01,2013-03-10 00:23:00,
2013-03-09 16:24:00,55.9,44.8,30.00,SW,225,14.1,14.1,66,0.00,,,0.00,VWS V14.01,2013-03-10 00:24:00,
2013-03-09 16:25:00,58.3,44.0,30.00,SSW,202,5.4,5.4,59,0.00,,,0.00,VWS V14.01,2013-03-10 00:25:00,
2013-03-09 16:26:00,55.8,44.6,30.00,WSW,248,11.9,11.9,66,0.00,,,0.00,VWS V14.01,2013-03-10 00:26:00,
2013-03-09 16:28:00,55.6,44.4,30.00,WSW,248,12.5,12.5,66,0.00,,,0.00,VWS V14.01,2013-03-10 00:28:00,
2013-03-09 16:29:00,55.6,44.4,30.00,SW,225,11.0,11.0,66,0.00,,,0.00,VWS V14.01,2013-03-10 00:29:00,
2013-03-09 16:30:00,57.9,44.1,30.00,West,270,9.2,9.2,60,0.00,,,0.00,VWS V14.01,2013-03-10 00:30:00,
2013-03-09 16:31:00,55.6,44.8,30.00,WSW,248,13.6,13.6,67,0.00,,,0.00,VWS V14.01,2013-03-10 00:31:00,
2013-03-09 16:32:00,55.6,44.8,30.00,South,180,14.3,14.3,67,0.00,,,0.00,VWS V14.01,2013-03-10 00:32:00,
2013-03-09 16:33:00,55.6,44.8,30.00,WSW,248,9.8,9.8,67,0.00,,,0.00,VWS V14.01,2013-03-10 00:33:00,
2013-03-09 16:34:00,55.6,44.8,30.00,WSW,248,14.1,14.1,67,0.00,,,0.00,VWS V14.01,2013-03-10 00:34:00,
2013-03-09 16:35:00,57.9,44.1,30.00,WSW,248,6.3,6.3,60,0.00,,,0.00,VWS V14.01,2013-03-10 00:35:00,
2013-03-09 16:36:00,55.6,44.8,30.00,SW,225,12.8,12.8,67,0.00,,,0.00,VWS V14.01,2013-03-10 00:36:00,
2013-03-09 16:37:00,55.4,44.6,30.00,WSW,248,13.4,13.4,67,0.00,,,0.00,VWS V14.01,2013-03-10 00:37:00,
2013-03-09 16:38:00,55.4,44.6,30.00,SW,225,12.3,12.3,67,0.00,,,0.00,VWS V14.01,2013-03-10 00:38:00,
2013-03-09 16:39:00,55.2,44.9,30.00,WSW,248,12.1,12.1,68,0.00,,,0.00,VWS V14.01,2013-03-10 00:39:00,
2013-03-09 16:40:00,57.7,43.5,30.03,WSW,248,12.5,12.5,59,0.00,,,0.00,VWS V14.01,2013-03-10 00:40:00,
2013-03-09 16:41:00,55.0,44.7,30.00,West,270,8.1,8.1,68,0.00,,,0.00,VWS V14.01,2013-03-10 00:41:00,
2013-03-09 16:42:00,55.0,45.1,30.00,SW,225,12.3,12.3,69,0.00,,,0.00,VWS V14.01,2013-03-10 00:42:00,
2013-03-09 16:43:00,55.0,45.1,30.00,West,270,11.9,11.9,69,0.00,,,0.00,VWS V14.01,2013-03-10 00:43:00,
2013-03-09 16:44:00,55.0,45.1,30.00,WSW,248,10.1,10.1,69,0.00,,,0.00,VWS V14.01,2013-03-10 00:44:00,
2013-03-09 16:45:00,58.1,43.0,30.03,WSW,248,12.5,12.5,57,0.00,,,0.00,VWS V14.01,2013-03-10 00:45:00,
2013-03-09 16:46:00,54.9,44.9,30.00,WSW,248,19.0,19.0,69,0.00,,,0.00,VWS V14.01,2013-03-10 00:46:00,
2013-03-09 16:47:00,54.7,44.7,30.00,WSW,248,10.7,10.7,69,0.00,,,0.00,VWS V14.01,2013-03-10 00:47:00,
2013-03-09 16:48:00,54.7,44.7,30.00,WSW,248,10.1,10.1,69,0.00,,,0.00,VWS V14.01,2013-03-10 00:48:00,
2013-03-09 16:49:00,54.7,45.1,30.00,WSW,248,12.5,12.5,70,0.00,,,0.00,VWS V14.01,2013-03-10 00:49:00,
2013-03-09 16:50:00,57.7,42.6,30.03,WSW,248,12.1,12.1,57,0.00,,,0.00,VWS V14.01,2013-03-10 00:50:00,
2013-03-09 16:51:00,54.5,44.9,30.00,WSW,248,13.9,13.9,70,0.00,,,0.00,VWS V14.01,2013-03-10 00:51:00,
2013-03-09 16:52:00,54.5,44.9,30.00,WSW,248,10.5,10.5,70,0.00,,,0.00,VWS V14.01,2013-03-10 00:52:00,
2013-03-09 16:53:00,54.5,44.9,30.00,SSW,202,10.5,10.5,70,0.00,,,0.00,VWS V14.01,2013-03-10 00:53:00,
2013-03-09 16:54:00,54.1,45.0,30.00,SSW,202,12.1,12.1,71,0.00,,,0.00,VWS V14.01,2013-03-10 00:54:00,
2013-03-09 16:55:00,57.7,43.1,30.00,WSW,248,7.4,7.4,58,0.00,,,0.00,VWS V14.01,2013-03-10 00:55:00,
2013-03-09 16:56:00,54.1,45.0,30.00,SSW,202,8.7,8.7,71,0.00,,,0.00,VWS V14.01,2013-03-10 00:56:00,
2013-03-09 16:57:00,54.1,45.0,30.00,WSW,248,7.8,7.8,71,0.00,,,0.00,VWS V14.01,2013-03-10 00:57:00,
2013-03-09 16:58:00,54.0,44.8,30.00,SW,225,12.5,12.5,71,0.00,,,0.00,VWS V14.01,2013-03-10 00:58:00,
2013-03-09 16:59:00,54.0,44.8,30.00,SW,225,8.7,8.7,71,0.00,,,0.00,VWS V14.01,2013-03-10 00:59:00,
2013-03-09 17:00:00,57.9,43.2,30.00,WSW,248,10.1,10.1,58,0.00,,,0.00,VWS V14.01,2013-03-10 01:00:00,
2013-03-09 17:01:00,54.0,44.8,30.00,SSW,202,7.8,7.8,71,0.00,,,0.00,VWS V14.01,2013-03-10 01:01:00,
2013-03-09 17:02:00,53.8,44.6,30.00,SW,225,8.7,8.7,71,0.00,,,0.00,VWS V14.01,2013-03-10 01:02:00,
2013-03-09 17:03:00,53.8,44.6,30.00,SW,225,10.1,10.1,71,0.00,,,0.00,VWS V14.01,2013-03-10 01:03:00,
2013-03-09 17:04:00,53.8,44.6,30.00,SSW,202,8.1,8.1,71,0.00,,,0.00,VWS V14.01,2013-03-10 01:04:00,
2013-03-09 17:05:00,57.9,43.2,30.00,SW,225,10.7,10.7,58,0.00,,,0.00,VWS V14.01,2013-03-10 01:05:00,
2013-03-09 17:06:00,53.6,44.8,30.03,SSW,202,10.1,10.1,72,0.00,,,0.00,VWS V14.01,2013-03-10 01:06:00,
2013-03-09 17:07:00,53.4,44.6,30.03,SW,225,7.6,7.6,72,0.00,,,0.00,VWS V14.01,2013-03-10 01:07:00,
2013-03-09 17:08:00,53.4,44.6,30.03,WSW,248,10.5,10.5,72,0.00,,,0.00,VWS V14.01,2013-03-10 01:08:00,
2013-03-09 17:09:00,53.2,44.8,30.03,WSW,248,10.5,10.5,73,0.00,,,0.00,VWS V14.01,2013-03-10 01:09:00,
2013-03-09 17:10:00,57.4,43.6,30.00,WSW,248,12.3,12.3,60,0.00,,,0.00,VWS V14.01,2013-03-10 01:10:00,
2013-03-09 17:11:00,53.2,44.8,30.03,WSW,248,10.1,10.1,73,0.00,,,0.00,VWS V14.01,2013-03-10 01:11:00,
2013-03-09 17:12:00,53.2,44.8,30.03,WSW,248,10.7,10.7,73,0.00,,,0.00,VWS V14.01,2013-03-10 01:12:00,
2013-03-09 17:13:00,53.2,44.8,30.03,WSW,248,8.7,8.7,73,0.00,,,0.00,VWS V14.01,2013-03-10 01:13:00,
2013-03-09 17:14:00,53.1,44.7,30.03,WSW,248,10.5,10.5,73,0.00,,,0.00,VWS V14.01,2013-03-10 01:14:00,
2013-03-09 17:15:00,56.7,43.8,30.00,SW,225,13.0,13.0,62,0.00,,,0.00,VWS V14.01,2013-03-10 01:15:00,
2013-03-09 17:16:00,53.1,44.7,30.03,SSW,202,15.2,15.2,73,0.00,,,0.00,VWS V14.01,2013-03-10 01:16:00,
2013-03-09 17:17:00,53.1,44.7,30.03,WSW,248,10.7,10.7,73,0.00,,,0.00,VWS V14.01,2013-03-10 01:17:00,
2013-03-09 17:18:00,53.1,44.7,30.03,WSW,248,9.6,9.6,73,0.00,,,0.00,VWS V14.01,2013-03-10 01:18:00,
2013-03-09 17:19:00,53.1,45.0,30.03,SSW,202,10.7,10.7,74,0.00,,,0.00,VWS V14.01,2013-03-10 01:19:00,
2013-03-09 17:20:00,56.3,44.3,30.00,SW,225,13.0,13.0,64,0.00,,,0.00,VWS V14.01,2013-03-10 01:20:00,
2013-03-09 17:21:00,52.9,44.8,30.03,WSW,248,13.4,13.4,74,0.00,,,0.00,VWS V14.01,2013-03-10 01:21:00,
2013-03-09 17:22:00,52.9,44.8,30.03,WSW,248,14.5,14.5,74,0.00,,,0.00,VWS V14.01,2013-03-10 01:22:00,
2013-03-09 17:23:00,52.9,44.8,30.00,SSW,202,12.1,12.1,74,0.00,,,0.00,VWS V14.01,2013-03-10 01:23:00,
2013-03-09 17:24:00,52.9,44.8,30.00,SSW,202,14.1,14.1,74,0.00,,,0.00,VWS V14.01,2013-03-10 01:24:00,
2013-03-09 17:25:00,55.9,44.8,30.00,WSW,248,12.8,12.8,66,0.00,,,0.00,VWS V14.01,2013-03-10 01:25:00,
2013-03-09 17:26:00,52.9,44.8,30.00,WSW,248,14.5,14.5,74,0.00,,,0.00,VWS V14.01,2013-03-10 01:26:00,
2013-03-09 17:27:00,52.9,44.8,30.00,SW,225,13.0,13.0,74,0.00,,,0.00,VWS V14.01,2013-03-10 01:27:00,
2013-03-09 17:28:00,52.7,44.7,30.00,WSW,248,12.1,12.1,74,0.00,,,0.00,VWS V14.01,2013-03-10 01:28:00,
2013-03-09 17:29:00,52.7,44.7,30.00,West,270,13.2,13.2,74,0.00,,,0.00,VWS V14.01,2013-03-10 01:29:00,
2013-03-09 17:30:00,55.6,44.8,30.00,WSW,248,12.3,12.3,67,0.00,,,0.00,VWS V14.01,2013-03-10 01:30:00,
2013-03-09 17:31:00,52.7,45.0,30.00,WSW,248,13.2,13.2,75,0.00,,,0.00,VWS V14.01,2013-03-10 01:31:00,
2013-03-09 17:32:00,52.5,44.8,30.00,WSW,248,11.0,11.0,75,0.00,,,0.00,VWS V14.01,2013-03-10 01:32:00,
2013-03-09 17:33:00,52.5,44.8,30.00,SW,225,15.2,15.2,75,0.00,,,0.00,VWS V14.01,2013-03-10 01:33:00,
2013-03-09 17:34:00,52.5,44.8,30.00,WSW,248,9.4,9.4,75,0.00,,,0.00,VWS V14.01,2013-03-10 01:34:00,
2013-03-09 17:35:00,55.6,44.8,30.00,WSW,248,11.2,11.2,67,0.00,,,0.00,VWS V14.01,2013-03-10 01:35:00,
2013-03-09 17:36:00,52.5,44.8,30.03,SW,225,10.5,10.5,75,0.00,,,0.00,VWS V14.01,2013-03-10 01:36:00,
2013-03-09 17:37:00,52.2,44.8,30.03,SSW,202,11.0,11.0,76,0.00,,,0.00,VWS V14.01,2013-03-10 01:37:00,
2013-03-09 17:38:00,52.2,44.8,30.03,SW,225,16.3,16.3,76,0.00,,,0.00,VWS V14.01,2013-03-10 01:38:00,
2013-03-09 17:39:00,52.0,44.7,30.03,SW,225,12.8,12.8,76,0.00,,,0.00,VWS V14.01,2013-03-10 01:39:00,
2013-03-09 17:40:00,55.0,44.7,30.00,SSW,202,10.7,10.7,68,0.00,,,0.00,VWS V14.01,2013-03-10 01:40:00,
2013-03-09 17:41:00,52.0,45.0,30.03,WSW,248,13.2,13.2,77,0.00,,,0.00,VWS V14.01,2013-03-10 01:41:00,
2013-03-09 17:42:00,51.8,44.8,30.03,SSW,202,13.4,13.4,77,0.00,,,0.00,VWS V14.01,2013-03-10 01:42:00,
2013-03-09 17:43:00,51.8,44.8,30.03,WSW,248,13.9,13.9,77,0.00,,,0.00,VWS V14.01,2013-03-10 01:43:00,
2013-03-09 17:44:00,51.8,45.2,30.03,SSW,202,15.9,15.9,78,0.00,,,0.00,VWS V14.01,2013-03-10 01:44:00,
2013-03-09 17:45:00,55.0,45.1,30.00,WSW,248,12.5,12.5,69,0.00,,,0.00,VWS V14.01,2013-03-10 01:45:00,
2013-03-09 17:46:00,51.6,45.0,30.03,SSW,202,13.6,13.6,78,0.00,,,0.00,VWS V14.01,2013-03-10 01:46:00,
2013-03-09 17:47:00,51.6,45.3,30.03,WSW,248,14.8,14.8,79,0.00,,,0.00,VWS V14.01,2013-03-10 01:47:00,
2013-03-09 17:48:00,51.6,45.3,30.03,WSW,248,11.0,11.0,79,0.00,,,0.00,VWS V14.01,2013-03-10 01:48:00,
2013-03-09 17:49:00,51.6,45.3,30.03,SSW,202,11.0,11.0,79,0.00,,,0.00,VWS V14.01,2013-03-10 01:49:00,
2013-03-09 17:50:00,54.7,45.1,30.00,WSW,248,13.9,13.9,70,0.00,,,0.00,VWS V14.01,2013-03-10 01:50:00,
2013-03-09 17:51:00,51.6,45.7,30.03,WSW,248,11.9,11.9,80,0.00,,,0.00,VWS V14.01,2013-03-10 01:51:00,
2013-03-09 17:52:00,51.6,45.7,30.03,WSW,248,16.3,16.3,80,0.00,,,0.00,VWS V14.01,2013-03-10 01:52:00,
2013-03-09 17:53:00,51.6,45.7,30.03,SW,225,13.0,13.0,80,0.00,,,0.00,VWS V14.01,2013-03-10 01:53:00,
2013-03-09 17:54:00,51.6,45.7,30.03,SSW,202,11.0,11.0,80,0.00,,,0.00,VWS V14.01,2013-03-10 01:54:00,
2013-03-09 17:55:00,54.1,45.0,30.00,WSW,248,13.2,13.2,71,0.00,,,0.00,VWS V14.01,2013-03-10 01:55:00,
2013-03-09 17:56:00,51.4,45.2,30.03,SSW,202,15.2,15.2,79,0.00,,,0.00,VWS V14.01,2013-03-10 01:56:00,
2013-03-09 17:57:00,51.4,45.2,30.03,SW,225,13.0,13.0,79,0.00,,,0.00,VWS V14.01,2013-03-10 01:57:00,
2013-03-09 17:58:00,51.4,45.2,30.03,West,270,13.4,13.4,79,0.00,,,0.00,VWS V14.01,2013-03-10 01:58:00,
2013-03-09 17:59:00,51.4,45.2,30.03,SSW,202,10.3,10.3,79,0.00,,,0.00,VWS V14.01,2013-03-10 01:59:00,
2013-03-09 18:00:00,54.0,44.8,30.00,WSW,248,11.2,11.2,71,0.00,,,0.00,VWS V14.01,2013-03-10 02:00:00,
2013-03-09 18:01:00,51.4,45.2,30.03,WSW,248,12.3,12.3,79,0.00,,,0.00,VWS V14.01,2013-03-10 02:01:00,
2013-03-09 18:02:00,51.4,45.2,30.03,SSW,202,16.8,16.8,79,0.00,,,0.00,VWS V14.01,2013-03-10 02:02:00,
2013-03-09 18:03:00,51.3,45.0,30.03,SSW,202,16.8,16.8,79,0.00,,,0.00,VWS V14.01,2013-03-10 02:03:00,
2013-03-09 18:04:00,51.3,45.0,30.03,South,180,12.3,12.3,79,0.00,,,0.00,VWS V14.01,2013-03-10 02:04:00,
2013-03-09 18:05:00,53.6,44.8,30.00,SW,225,12.3,12.3,72,0.00,,,0.00,VWS V14.01,2013-03-10 02:05:00,
2013-03-09 18:06:00,51.3,45.0,30.03,SW,225,13.9,13.9,79,0.00,,,0.00,VWS V14.01,2013-03-10 02:06:00,
2013-03-09 18:07:00,51.3,45.0,30.03,SW,225,12.8,12.8,79,0.00,,,0.00,VWS V14.01,2013-03-10 02:07:00,
2013-03-09 18:08:00,51.3,45.0,30.03,SSW,202,14.5,14.5,79,0.00,,,0.00,VWS V14.01,2013-03-10 02:08:00,
2013-03-09 18:09:00,51.3,45.0,30.03,South,180,10.3,10.3,79,0.00,,,0.00,VWS V14.01,2013-03-10 02:09:00,
2013-03-09 18:10:00,53.2,44.8,30.03,SW,225,10.3,10.3,73,0.00,,,0.00,VWS V14.01,2013-03-10 02:10:00,
2013-03-09 18:11:00,51.1,44.8,30.03,SW,225,11.4,11.4,79,0.00,,,0.00,VWS V14.01,2013-03-10 02:11:00,
2013-03-09 18:12:00,51.1,44.8,30.03,WSW,248,9.8,9.8,79,0.00,,,0.00,VWS V14.01,2013-03-10 02:12:00,
2013-03-09 18:13:00,51.1,44.8,30.03,SSW,202,13.2,13.2,79,0.00,,,0.00,VWS V14.01,2013-03-10 02:13:00,
2013-03-09 18:14:00,51.1,44.8,30.03,SSW,202,9.8,9.8,79,0.00,,,0.00,VWS V14.01,2013-03-10 02:14:00,
2013-03-09 18:15:00,53.1,44.7,30.03,WSW,248,13.9,13.9,73,0.00,,,0.00,VWS V14.01,2013-03-10 02:15:00,
2013-03-09 18:16:00,50.9,45.0,30.03,SW,225,11.0,11.0,80,0.00,,,0.00,VWS V14.01,2013-03-10 02:16:00,
2013-03-09 18:17:00,50.9,45.0,30.03,West,270,7.8,7.8,80,0.00,,,0.00,VWS V14.01,2013-03-10 02:17:00,
2013-03-09 18:18:00,50.9,45.0,30.03,WSW,248,12.5,12.5,80,0.00,,,0.00,VWS V14.01,2013-03-10 02:18:00,
2013-03-09 18:19:00,50.9,45.0,30.03,SSW,202,10.7,10.7,80,0.00,,,0.00,VWS V14.01,2013-03-10 02:19:00,
2013-03-09 18:20:00,53.1,45.0,30.03,WSW,248,13.4,13.4,74,0.00,,,0.00,VWS V14.01,2013-03-10 02:20:00,
2013-03-09 18:21:00,50.9,45.0,30.03,SW,225,9.6,9.6,80,0.00,,,0.00,VWS V14.01,2013-03-10 02:21:00,
2013-03-09 18:22:00,50.9,45.0,30.03,SW,225,9.6,9.6,80,0.00,,,0.00,VWS V14.01,2013-03-10 02:22:00,
2013-03-09 18:23:00,50.7,44.8,30.03,SW,225,8.7,8.7,80,0.00,,,0.00,VWS V14.01,2013-03-10 02:23:00,
2013-03-09 18:24:00,50.7,44.8,30.03,WSW,248,13.2,13.2,80,0.00,,,0.00,VWS V14.01,2013-03-10 02:24:00,
2013-03-09 18:25:00,52.9,44.8,30.00,WSW,248,13.6,13.6,74,0.00,,,0.00,VWS V14.01,2013-03-10 02:25:00,
2013-03-09 18:26:00,50.7,45.1,30.03,SW,225,8.7,8.7,81,0.00,,,0.00,VWS V14.01,2013-03-10 02:26:00,
2013-03-09 18:27:00,50.7,45.1,30.03,SW,225,9.8,9.8,81,0.00,,,0.00,VWS V14.01,2013-03-10 02:27:00,
2013-03-09 18:28:00,50.7,45.1,30.03,SW,225,9.8,9.8,81,0.00,,,0.00,VWS V14.01,2013-03-10 02:28:00,
2013-03-09 18:29:00,50.7,45.1,30.03,SSW,202,14.5,14.5,81,0.00,,,0.00,VWS V14.01,2013-03-10 02:29:00,
2013-03-09 18:30:00,52.7,45.0,30.00,WSW,248,15.2,15.2,75,0.00,,,0.00,VWS V14.01,2013-03-10 02:30:00,
2013-03-09 18:31:00,50.7,45.1,30.03,South,180,9.8,9.8,81,0.00,,,0.00,VWS V14.01,2013-03-10 02:31:00,
2013-03-09 18:32:00,50.5,44.9,30.03,South,180,9.8,9.8,81,0.00,,,0.00,VWS V14.01,2013-03-10 02:32:00,
2013-03-09 18:33:00,50.5,44.9,30.03,WSW,248,10.7,10.7,81,0.00,,,0.00,VWS V14.01,2013-03-10 02:33:00,
2013-03-09 18:34:00,50.5,44.9,30.03,SW,225,11.0,11.0,81,0.00,,,0.00,VWS V14.01,2013-03-10 02:34:00,
2013-03-09 18:35:00,52.5,44.8,30.00,WSW,248,10.1,10.1,75,0.00,,,0.00,VWS V14.01,2013-03-10 02:35:00,
2013-03-09 18:36:00,50.5,44.9,30.03,SW,225,11.0,11.0,81,0.00,,,0.00,VWS V14.01,2013-03-10 02:36:00,
2013-03-09 18:37:00,50.5,44.9,30.03,SW,225,11.0,11.0,81,0.00,,,0.00,VWS V14.01,2013-03-10 02:37:00,
2013-03-09 18:38:00,50.5,44.9,30.03,SW,225,8.7,8.7,81,0.00,,,0.00,VWS V14.01,2013-03-10 02:38:00,
2013-03-09 18:39:00,50.5,45.3,30.03,West,270,10.7,10.7,82,0.00,,,0.00,VWS V14.01,2013-03-10 02:39:00,
2013-03-09 18:40:00,52.0,45.0,30.03,SW,225,13.2,13.2,77,0.00,,,0.00,VWS V14.01,2013-03-10 02:40:00,
2013-03-09 18:41:00,50.5,45.3,30.03,WSW,248,10.5,10.5,82,0.00,,,0.00,VWS V14.01,2013-03-10 02:41:00,
2013-03-09 18:42:00,50.5,45.3,30.03,WSW,248,10.5,10.5,82,0.00,,,0.00,VWS V14.01,2013-03-10 02:42:00,
2013-03-09 18:43:00,50.5,45.3,30.03,WSW,248,10.5,10.5,82,0.00,,,0.00,VWS V14.01,2013-03-10 02:43:00,
2013-03-09 18:44:00,50.5,45.6,30.03,SW,225,12.1,12.1,83,0.00,,,0.00,VWS V14.01,2013-03-10 02:44:00,
2013-03-09 18:45:00,51.8,45.2,30.03,SSW,202,13.6,13.6,78,0.00,,,0.00,VWS V14.01,2013-03-10 02:45:00,
2013-03-09 18:46:00,50.5,45.6,30.03,WSW,248,11.0,11.0,83,0.00,,,0.00,VWS V14.01,2013-03-10 02:46:00,
2013-03-09 18:47:00,50.5,45.6,30.03,SSW,202,11.9,11.9,83,0.00,,,0.00,VWS V14.01,2013-03-10 02:47:00,
2013-03-09 18:48:00,50.5,45.6,30.03,SSW,202,11.9,11.9,83,0.00,,,0.00,VWS V14.01,2013-03-10 02:48:00,
2013-03-09 18:49:00,50.4,45.4,30.03,WSW,248,9.6,9.6,83,0.00,,,0.00,VWS V14.01,2013-03-10 02:49:00,
2013-03-09 18:50:00,51.6,45.3,30.03,WSW,248,23.7,23.7,79,0.00,,,0.00,VWS V14.01,2013-03-10 02:50:00,
2013-03-09 18:51:00,50.4,45.4,30.03,West,270,7.8,7.8,83,0.00,,,0.00,VWS V14.01,2013-03-10 02:51:00,
2013-03-09 18:52:00,50.4,45.4,30.03,West,270,7.8,7.8,83,0.00,,,0.00,VWS V14.01,2013-03-10 02:52:00,
2013-03-09 18:53:00,50.4,45.4,30.03,West,270,7.8,7.8,83,0.00,,,0.00,VWS V14.01,2013-03-10 02:53:00,
2013-03-09 18:54:00,50.4,45.4,30.03,West,270,7.8,7.8,83,0.00,,,0.00,VWS V14.01,2013-03-10 02:54:00,
2013-03-09 18:55:00,51.4,45.5,30.03,SSW,202,15.2,15.2,80,0.00,,,0.00,VWS V14.01,2013-03-10 02:55:00,
2013-03-09 18:56:00,50.4,45.7,30.03,SW,225,7.8,7.8,84,0.00,,,0.00,VWS V14.01,2013-03-10 02:56:00,
2013-03-09 18:57:00,50.4,45.7,30.03,WNW,292,9.8,9.8,84,0.00,,,0.00,VWS V14.01,2013-03-10 02:57:00,
2013-03-09 18:58:00,50.4,45.7,30.03,WSW,248,11.4,11.4,84,0.00,,,0.00,VWS V14.01,2013-03-10 02:58:00,
2013-03-09 18:59:00,50.4,45.7,30.03,WSW,248,11.4,11.4,84,0.00,,,0.00,VWS V14.01,2013-03-10 02:59:00,
2013-03-09 19:00:00,51.4,45.2,30.03,WSW,248,9.8,9.8,79,0.00,,,0.00,VWS V14.01,2013-03-10 03:00:00,
2013-03-09 19:01:00,50.4,45.7,30.03,WSW,248,12.5,12.5,84,0.00,,,0.00,VWS V14.01,2013-03-10 03:01:00,
2013-03-09 19:02:00,50.4,45.7,30.03,SW,225,10.7,10.7,84,0.00,,,0.00,VWS V14.01,2013-03-10 03:02:00,
2013-03-09 19:03:00,50.4,45.7,30.03,SW,225,8.1,8.1,84,0.00,,,0.00,VWS V14.01,2013-03-10 03:03:00,
2013-03-09 19:04:00,50.4,45.7,30.03,SSW,202,12.5,12.5,84,0.00,,,0.00,VWS V14.01,2013-03-10 03:04:00,
2013-03-09 19:05:00,51.3,45.0,30.03,WSW,248,12.8,12.8,79,0.00,,,0.00,VWS V14.01,2013-03-10 03:05:00,
2013-03-09 19:06:00,50.4,45.7,30.03,WSW,248,12.5,12.5,84,0.00,,,0.00,VWS V14.01,2013-03-10 03:06:00,
2013-03-09 19:07:00,50.4,45.7,30.03,SSW,202,8.5,8.5,84,0.00,,,0.00,VWS V14.01,2013-03-10 03:07:00,
2013-03-09 19:08:00,50.4,45.7,30.03,SSW,202,8.5,8.5,84,0.00,,,0.00,VWS V14.01,2013-03-10 03:08:00,
2013-03-09 19:09:00,50.4,45.7,30.03,SSW,202,8.5,8.5,84,0.00,,,0.00,VWS V14.01,2013-03-10 03:09:00,
2013-03-09 19:10:00,51.1,44.8,30.03,WSW,248,12.5,12.5,79,0.00,,,0.00,VWS V14.01,2013-03-10 03:10:00,
2013-03-09 19:11:00,50.4,45.7,30.03,SSW,202,8.5,8.5,84,0.00,,,0.00,VWS V14.01,2013-03-10 03:11:00,
2013-03-09 19:12:00,50.4,45.7,30.03,SSW,202,8.5,8.5,84,0.00,,,0.00,VWS V14.01,2013-03-10 03:12:00,
2013-03-09 19:13:00,50.4,45.7,30.03,SSW,202,8.5,8.5,84,0.00,,,0.00,VWS V14.01,2013-03-10 03:13:00,
2013-03-09 19:14:00,50.4,45.7,30.03,WSW,248,12.3,12.3,84,0.00,,,0.00,VWS V14.01,2013-03-10 03:14:00,
2013-03-09 19:15:00,51.1,44.8,30.03,SSW,202,9.8,9.8,79,0.00,,,0.00,VWS V14.01,2013-03-10 03:15:00,
2013-03-09 19:16:00,50.4,46.0,30.03,WSW,248,9.8,9.8,85,0.00,,,0.00,VWS V14.01,2013-03-10 03:16:00,
2013-03-09 19:17:00,50.4,46.0,30.03,WSW,248,9.8,9.8,85,0.00,,,0.00,VWS V14.01,2013-03-10 03:17:00,
2013-03-09 19:18:00,50.4,46.0,30.03,WSW,248,9.8,9.8,85,0.00,,,0.00,VWS V14.01,2013-03-10 03:18:00,
2013-03-09 19:19:00,50.2,45.8,30.03,WSW,248,9.8,9.8,85,0.00,,,0.00,VWS V14.01,2013-03-10 03:19:00,
2013-03-09 19:20:00,50.9,45.0,30.03,SW,225,11.4,11.4,80,0.00,,,0.00,VWS V14.01,2013-03-10 03:20:00,
2013-03-09 19:21:00,50.4,46.0,30.03,SSW,202,10.1,10.1,85,0.00,,,0.00,VWS V14.01,2013-03-10 03:21:00,
2013-03-09 19:22:00,50.4,46.0,30.03,SSW,202,10.1,10.1,85,0.00,,,0.00,VWS V14.01,2013-03-10 03:22:00,
2013-03-09 19:23:00,50.4,46.0,30.03,WNW,292,12.8,12.8,85,0.00,,,0.00,VWS V14.01,2013-03-10 03:23:00,
2013-03-09 19:24:00,50.4,46.0,30.03,WNW,292,12.8,12.8,85,0.00,,,0.00,VWS V14.01,2013-03-10 03:24:00,
2013-03-09 19:25:00,50.7,44.8,30.03,WSW,248,13.2,13.2,80,0.00,,,0.00,VWS V14.01,2013-03-10 03:25:00,
2013-03-09 19:26:00,50.4,46.0,30.03,WSW,248,12.5,12.5,85,0.00,,,0.00,VWS V14.01,2013-03-10 03:26:00,
2013-03-09 19:27:00,50.2,45.8,30.03,SW,225,10.5,10.5,85,0.00,,,0.00,VWS V14.01,2013-03-10 03:27:00,
2013-03-09 19:28:00,50.2,45.8,30.03,SW,225,12.5,12.5,85,0.00,,,0.00,VWS V14.01,2013-03-10 03:28:00,
2013-03-09 19:29:00,50.2,45.8,30.03,West,270,13.4,13.4,85,0.00,,,0.00,VWS V14.01,2013-03-10 03:29:00,
2013-03-09 19:30:00,50.7,45.1,30.03,WSW,248,10.1,10.1,81,0.00,,,0.00,VWS V14.01,2013-03-10 03:30:00,
2013-03-09 19:31:00,50.2,45.8,30.03,WSW,248,12.5,12.5,85,0.00,,,0.00,VWS V14.01,2013-03-10 03:31:00,
2013-03-09 19:32:00,50.2,45.8,30.03,WSW,248,13.0,13.0,85,0.00,,,0.00,VWS V14.01,2013-03-10 03:32:00,
2013-03-09 19:33:00,50.2,45.8,30.03,SW,225,10.7,10.7,85,0.00,,,0.00,VWS V14.01,2013-03-10 03:33:00,
2013-03-09 19:34:00,50.2,45.8,30.03,SSW,202,15.4,15.4,85,0.00,,,0.00,VWS V14.01,2013-03-10 03:34:00,
2013-03-09 19:35:00,50.5,44.9,30.03,SW,225,11.0,11.0,81,0.00,,,0.00,VWS V14.01,2013-03-10 03:35:00,
2013-03-09 19:36:00,50.2,45.8,30.03,WSW,248,7.8,7.8,85,0.00,,,0.00,VWS V14.01,2013-03-10 03:36:00,
2013-03-09 19:37:00,50.2,45.8,30.03,WSW,248,7.8,7.8,85,0.00,,,0.00,VWS V14.01,2013-03-10 03:37:00,
2013-03-09 19:38:00,50.2,45.8,30.03,WSW,248,7.8,7.8,85,0.00,,,0.00,VWS V14.01,2013-03-10 03:38:00,
2013-03-09 19:39:00,50.2,45.8,30.03,WSW,248,12.8,12.8,85,0.00,,,0.00,VWS V14.01,2013-03-10 03:39:00,
2013-03-09 19:40:00,50.5,45.3,30.03,WSW,248,10.5,10.5,82,0.00,,,0.00,VWS V14.01,2013-03-10 03:40:00,
2013-03-09 19:41:00,50.2,45.8,30.03,SW,225,8.1,8.1,85,0.00,,,0.00,VWS V14.01,2013-03-10 03:41:00,
2013-03-09 19:42:00,50.2,45.8,30.03,WSW,248,13.0,13.0,85,0.00,,,0.00,VWS V14.01,2013-03-10 03:42:00,
2013-03-09 19:43:00,50.2,45.8,30.03,SW,225,9.2,9.2,85,0.00,,,0.00,VWS V14.01,2013-03-10 03:43:00,
2013-03-09 19:44:00,50.2,45.8,30.03,SW,225,12.3,12.3,85,0.00,,,0.00,VWS V14.01,2013-03-10 03:44:00,
2013-03-09 19:45:00,50.5,45.6,30.03,WSW,248,14.5,14.5,83,0.00,,,0.00,VWS V14.01,2013-03-10 03:45:00,
2013-03-09 19:46:00,50.2,45.8,30.03,SW,225,10.3,10.3,85,0.00,,,0.00,VWS V14.01,2013-03-10 03:46:00,
2013-03-09 19:47:00,50.2,45.8,30.03,WSW,248,10.1,10.1,85,0.00,,,0.00,VWS V14.01,2013-03-10 03:47:00,
2013-03-09 19:48:00,50.2,45.8,30.03,WSW,248,10.1,10.1,85,0.00,,,0.00,VWS V14.01,2013-03-10 03:48:00,
2013-03-09 19:49:00,50.2,45.8,30.03,WSW,248,12.8,12.8,85,0.00,,,0.00,VWS V14.01,2013-03-10 03:49:00,
2013-03-09 19:50:00,50.4,45.4,30.03,West,270,7.8,7.8,83,0.00,,,0.00,VWS V14.01,2013-03-10 03:50:00,
2013-03-09 19:51:00,50.2,45.8,30.03,WSW,248,11.2,11.2,85,0.00,,,0.00,VWS V14.01,2013-03-10 03:51:00,
2013-03-09 19:53:00,50.2,45.8,30.03,SW,225,8.1,8.1,85,0.00,,,0.00,VWS V14.01,2013-03-10 03:53:00,
2013-03-09 19:54:00,50.2,45.8,30.03,WSW,248,5.6,5.6,85,0.00,,,0.00,VWS V14.01,2013-03-10 03:54:00,
2013-03-09 19:55:00,50.4,45.7,30.03,WSW,248,10.7,10.7,84,0.00,,,0.00,VWS V14.01,2013-03-10 03:55:00,
2013-03-09 19:56:00,50.5,45.6,30.03,WSW,248,10.5,10.5,83,0.00,,,0.00,VWS V14.01,2013-03-10 03:56:00,
2013-03-09 19:57:00,50.5,45.6,30.03,WSW,248,7.2,7.2,83,0.00,,,0.00,VWS V14.01,2013-03-10 03:57:00,
2013-03-09 19:58:00,50.7,45.8,30.03,NW,315,11.0,11.0,83,0.00,,,0.00,VWS V14.01,2013-03-10 03:58:00,
2013-03-09 19:59:00,50.7,45.8,30.03,WSW,248,7.6,7.6,83,0.00,,,0.00,VWS V14.01,2013-03-10 03:59:00,
2013-03-09 20:00:00,50.4,45.7,30.03,WSW,248,10.7,10.7,84,0.00,,,0.00,VWS V14.01,2013-03-10 04:00:00,
2013-03-09 20:01:00,50.7,45.4,30.03,West,270,8.1,8.1,82,0.00,,,0.00,VWS V14.01,2013-03-10 04:01:00,
2013-03-09 20:02:00,50.7,45.4,30.03,NW,315,7.8,7.8,82,0.00,,,0.00,VWS V14.01,2013-03-10 04:02:00,
2013-03-09 20:03:00,50.7,45.4,30.03,West,270,10.7,10.7,82,0.00,,,0.00,VWS V14.01,2013-03-10 04:03:00,
2013-03-09 20:04:00,50.7,45.4,30.03,WSW,248,7.6,7.6,82,0.00,,,0.00,VWS V14.01,2013-03-10 04:04:00,
2013-03-09 20:05:00,50.4,45.7,30.03,SSW,202,12.8,12.8,84,0.00,,,0.00,VWS V14.01,2013-03-10 04:05:00,
2013-03-09 20:06:00,50.5,45.3,30.03,NW,315,9.8,9.8,82,0.00,,,0.00,VWS V14.01,2013-03-10 04:06:00,
2013-03-09 20:07:00,50.5,44.9,30.03,WSW,248,5.8,5.8,81,0.00,,,0.00,VWS V14.01,2013-03-10 04:07:00,
2013-03-09 20:08:00,50.5,44.9,30.03,WNW,292,8.1,8.1,81,0.00,,,0.00,VWS V14.01,2013-03-10 04:08:00,
2013-03-09 20:09:00,50.5,44.9,30.03,WSW,248,6.3,6.3,81,0.00,,,0.00,VWS V14.01,2013-03-10 04:09:00,
2013-03-09 20:10:00,50.4,45.7,30.03,SSW,202,8.5,8.5,84,0.00,,,0.00,VWS V14.01,2013-03-10 04:10:00,
2013-03-09 20:11:00,50.5,44.9,30.03,West,270,8.5,8.5,81,0.00,,,0.00,VWS V14.01,2013-03-10 04:11:00,
2013-03-09 20:12:00,50.5,44.9,30.03,WNW,292,10.7,10.7,81,0.00,,,0.00,VWS V14.01,2013-03-10 04:12:00,
2013-03-09 20:13:00,50.5,44.9,30.03,WNW,292,10.7,10.7,81,0.00,,,0.00,VWS V14.01,2013-03-10 04:13:00,
2013-03-09 20:14:00,50.5,44.9,30.03,West,270,9.0,9.0,81,0.00,,,0.00,VWS V14.01,2013-03-10 04:14:00,
2013-03-09 20:15:00,50.4,45.7,30.03,WSW,248,9.8,9.8,84,0.00,,,0.00,VWS V14.01,2013-03-10 04:15:00,
2013-03-09 20:16:00,50.5,45.3,30.03,SW,225,13.4,13.4,82,0.00,,,0.00,VWS V14.01,2013-03-10 04:16:00,
2013-03-09 20:18:00,50.5,45.3,30.03,South,180,5.6,5.6,82,0.00,,,0.00,VWS V14.01,2013-03-10 04:18:00,
2013-03-09 20:19:00,50.5,45.3,30.03,WNW,292,7.6,7.6,82,0.00,,,0.00,VWS V14.01,2013-03-10 04:19:00,
2013-03-09 20:20:00,50.2,45.8,30.03,SSW,202,10.1,10.1,85,0.00,,,0.00,VWS V14.01,2013-03-10 04:20:00,
2013-03-09 20:22:00,50.5,45.3,30.06,West,270,11.4,11.4,82,0.00,,,0.00,VWS V14.01,2013-03-10 04:22:00,
2013-03-09 20:23:00,50.5,45.3,30.06,SSW,202,10.3,10.3,82,0.00,,,0.00,VWS V14.01,2013-03-10 04:23:00,
2013-03-09 20:24:00,50.5,45.3,30.06,SW,225,8.1,8.1,82,0.00,,,0.00,VWS V14.01,2013-03-10 04:24:00,
2013-03-09 20:25:00,50.4,46.0,30.03,WSW,248,10.3,10.3,85,0.00,,,0.00,VWS V14.01,2013-03-10 04:25:00,
2013-03-09 20:26:00,50.4,45.4,30.06,SW,225,10.7,10.7,83,0.00,,,0.00,VWS V14.01,2013-03-10 04:26:00,
2013-03-09 20:27:00,50.4,45.4,30.06,WSW,248,8.1,8.1,83,0.00,,,0.00,VWS V14.01,2013-03-10 04:27:00,
2013-03-09 20:29:00,50.4,45.4,30.06,WSW,248,8.1,8.1,83,0.00,,,0.00,VWS V14.01,2013-03-10 04:29:00,
2013-03-09 20:30:00,50.2,45.8,30.03,WSW,248,12.5,12.5,85,0.00,,,0.00,VWS V14.01,2013-03-10 04:30:00,
2013-03-09 20:31:00,50.2,45.2,30.06,West,270,7.8,7.8,83,0.00,,,0.00,VWS V14.01,2013-03-10 04:31:00,
2013-03-09 20:32:00,50.2,45.2,30.06,West,270,7.4,7.4,83,0.00,,,0.00,VWS V14.01,2013-03-10 04:32:00,
2013-03-09 20:33:00,50.2,45.2,30.06,WSW,248,6.7,6.7,83,0.00,,,0.00,VWS V14.01,2013-03-10 04:33:00,
2013-03-09 20:34:00,50.2,45.5,30.06,WSW,248,9.6,9.6,84,0.00,,,0.00,VWS V14.01,2013-03-10 04:34:00,
2013-03-09 20:35:00,50.2,45.8,30.03,SSW,202,12.3,12.3,85,0.00,,,0.00,VWS V14.01,2013-03-10 04:35:00,
2013-03-09 20:36:00,50.2,45.5,30.06,WSW,248,12.5,12.5,84,0.00,,,0.00,VWS V14.01,2013-03-10 04:36:00,
2013-03-09 20:37:00,50.0,45.4,30.06,West,270,8.5,8.5,84,0.00,,,0.00,VWS V14.01,2013-03-10 04:37:00,
2013-03-09 20:38:00,50.0,45.4,30.06,WSW,248,9.6,9.6,84,0.00,,,0.00,VWS V14.01,2013-03-10 04:38:00,
2013-03-09 20:39:00,50.0,45.7,30.06,SSW,202,10.5,10.5,85,0.00,,,0.00,VWS V14.01,2013-03-10 04:39:00,
2013-03-09 20:40:00,50.2,45.8,30.03,SSW,202,9.8,9.8,85,0.00,,,0.00,VWS V14.01,2013-03-10 04:40:00,
2013-03-09 20:41:00,50.0,45.7,30.06,WSW,248,8.5,8.5,85,0.00,,,0.00,VWS V14.01,2013-03-10 04:41:00,
2013-03-09 20:42:00,50.0,45.7,30.06,SW,225,13.2,13.2,85,0.00,,,0.00,VWS V14.01,2013-03-10 04:42:00,
2013-03-09 20:43:00,50.0,45.7,30.06,South,180,9.6,9.6,85,0.00,,,0.00,VWS V14.01,2013-03-10 04:43:00,
2013-03-09 20:44:00,50.0,46.0,30.06,WSW,248,12.3,12.3,86,0.00,,,0.00,VWS V14.01,2013-03-10 04:44:00,
2013-03-09 20:45:00,50.2,45.8,30.03,SSW,202,9.6,9.6,85,0.00,,,0.00,VWS V14.01,2013-03-10 04:45:00,
2013-03-09 20:46:00,49.8,46.1,30.06,WSW,248,7.8,7.8,87,0.00,,,0.00,VWS V14.01,2013-03-10 04:46:00,
2013-03-09 20:48:00,49.8,46.1,30.06,SW,225,9.6,9.6,87,0.00,,,0.00,VWS V14.01,2013-03-10 04:48:00,
2013-03-09 20:49:00,49.8,46.1,30.06,WSW,248,7.8,7.8,87,0.00,,,0.00,VWS V14.01,2013-03-10 04:49:00,
2013-03-09 20:50:00,50.2,45.8,30.03,WSW,248,8.5,8.5,85,0.00,,,0.00,VWS V14.01,2013-03-10 04:50:00,
2013-03-09 20:51:00,49.8,46.4,30.03,WSW,248,13.0,13.0,88,0.00,,,0.00,VWS V14.01,2013-03-10 04:51:00,
2013-03-09 20:52:00,49.8,46.4,30.03,WSW,248,10.7,10.7,88,0.00,,,0.00,VWS V14.01,2013-03-10 04:52:00,
2013-03-09 20:53:00,49.8,46.4,30.03,SW,225,13.0,13.0,88,0.00,,,0.00,VWS V14.01,2013-03-10 04:53:00,
2013-03-09 20:54:00,49.8,46.4,30.03,SSW,202,11.4,11.4,88,0.00,,,0.00,VWS V14.01,2013-03-10 04:54:00,
2013-03-09 20:55:00,50.5,45.9,30.03,WSW,248,13.0,13.0,84,0.00,,,0.00,VWS V14.01,2013-03-10 04:55:00,
2013-03-09 20:56:00,49.6,46.5,30.03,WSW,248,8.7,8.7,89,0.00,,,0.00,VWS V14.01,2013-03-10 04:56:00,
2013-03-09 20:57:00,49.6,46.5,30.03,WSW,248,9.8,9.8,89,0.00,,,0.00,VWS V14.01,2013-03-10 04:57:00,
2013-03-09 20:58:00,49.6,46.5,30.03,SW,225,7.6,7.6,89,0.00,,,0.00,VWS V14.01,2013-03-10 04:58:00,
2013-03-09 20:59:00,49.6,46.5,30.03,SSW,202,12.5,12.5,89,0.00,,,0.00,VWS V14.01,2013-03-10 04:59:00,
2013-03-09 21:00:00,50.7,45.4,30.03,WSW,248,8.1,8.1,82,0.00,,,0.00,VWS V14.01,2013-03-10 05:00:00,
2013-03-09 21:01:00,50.7,45.4,30.03,West,270,8.1,8.1,82,0.00,,,0.00,VWS V14.01,2013-03-10 05:01:00,
2013-03-09 21:02:00,49.6,46.5,30.03,SW,225,10.1,10.1,89,0.00,,,0.00,VWS V14.01,2013-03-10 05:02:00,
2013-03-09 21:03:00,49.6,46.5,30.03,SW,225,13.2,13.2,89,0.00,,,0.00,VWS V14.01,2013-03-10 05:03:00,
2013-03-09 21:04:00,49.6,46.5,30.03,WSW,248,8.5,8.5,89,0.00,,,0.00,VWS V14.01,2013-03-10 05:04:00,
2013-03-09 21:05:00,49.6,46.5,30.03,SSW,202,11.0,11.0,89,0.00,,,0.00,VWS V14.01,2013-03-10 05:05:00,
2013-03-09 21:06:00,50.5,45.3,30.03,NW,315,9.8,9.8,82,0.00,,,0.00,VWS V14.01,2013-03-10 05:06:00,
2013-03-09 21:07:00,49.6,46.8,30.03,SSW,202,7.6,7.6,90,0.00,,,0.00,VWS V14.01,2013-03-10 05:07:00,
2013-03-09 21:08:00,49.6,46.8,30.03,WSW,248,10.5,10.5,90,0.00,,,0.00,VWS V14.01,2013-03-10 05:08:00,
2013-03-09 21:09:00,49.6,46.8,30.03,WSW,248,11.2,11.2,90,0.00,,,0.00,VWS V14.01,2013-03-10 05:09:00,
2013-03-09 21:10:00,49.6,46.8,30.03,WSW,248,12.3,12.3,90,0.00,,,0.00,VWS V14.01,2013-03-10 05:10:00,
2013-03-09 21:11:00,50.5,44.9,30.03,West,270,8.5,8.5,81,0.00,,,0.00,VWS V14.01,2013-03-10 05:11:00,
2013-03-09 21:12:00,49.5,46.7,30.03,SSW,202,8.7,8.7,90,0.00,,,0.00,VWS V14.01,2013-03-10 05:12:00,
2013-03-09 21:13:00,49.5,46.7,30.03,WSW,248,8.5,8.5,90,0.00,,,0.00,VWS V14.01,2013-03-10 05:13:00,
2013-03-09 21:14:00,49.5,47.0,30.03,SW,225,10.5,10.5,91,0.00,,,0.00,VWS V14.01,2013-03-10 05:14:00,
2013-03-09 21:15:00,49.5,47.0,30.03,South,180,10.1,10.1,91,0.00,,,0.00,VWS V14.01,2013-03-10 05:15:00,
2013-03-09 21:16:00,50.5,45.3,30.03,SW,225,13.4,13.4,82,0.00,,,0.00,VWS V14.01,2013-03-10 05:16:00,
2013-03-09 21:17:00,49.5,47.0,30.03,SW,225,11.4,11.4,91,0.00,,,0.00,VWS V14.01,2013-03-10 05:17:00,
2013-03-09 21:18:00,49.5,47.0,30.03,WSW,248,10.5,10.5,91,0.00,,,0.00,VWS V14.01,2013-03-10 05:18:00,
2013-03-09 21:19:00,49.5,47.0,30.03,West,270,9.8,9.8,91,0.00,,,0.00,VWS V14.01,2013-03-10 05:19:00,
2013-03-09 21:20:00,49.5,47.0,30.03,WSW,248,11.2,11.2,91,0.00,,,0.00,VWS V14.01,2013-03-10 05:20:00,
2013-03-09 21:21:00,50.5,45.3,30.06,WSW,248,8.7,8.7,82,0.00,,,0.00,VWS V14.01,2013-03-10 05:21:00,
2013-03-09 21:22:00,49.5,47.0,30.06,WSW,248,10.7,10.7,91,0.00,,,0.00,VWS V14.01,2013-03-10 05:22:00,
2013-03-09 21:23:00,49.5,47.0,30.06,WSW,248,10.7,10.7,91,0.00,,,0.00,VWS V14.01,2013-03-10 05:23:00,
2013-03-09 21:24:00,49.5,47.0,30.06,SW,225,6.5,6.5,91,0.00,,,0.00,VWS V14.01,2013-03-10 05:24:00,
2013-03-09 21:25:00,49.5,47.0,30.06,SW,225,6.5,6.5,91,0.00,,,0.00,VWS V14.01,2013-03-10 05:25:00,
2013-03-09 21:26:00,50.4,45.4,30.06,SW,225,10.7,10.7,83,0.00,,,0.00,VWS V14.01,2013-03-10 05:26:00,
2013-03-09 21:27:00,49.5,47.0,30.06,WSW,248,8.7,8.7,91,0.00,,,0.00,VWS V14.01,2013-03-10 05:27:00,
2013-03-09 21:28:00,49.5,47.0,30.06,WSW,248,10.5,10.5,91,0.00,,,0.00,VWS V14.01,2013-03-10 05:28:00,
2013-03-09 21:29:00,49.5,47.0,30.06,SW,225,7.8,7.8,91,0.00,,,0.00,VWS V14.01,2013-03-10 05:29:00,
2013-03-09 21:30:00,49.5,47.0,30.06,WSW,248,11.0,11.0,91,0.00,,,0.00,VWS V14.01,2013-03-10 05:30:00,
2013-03-09 21:31:00,50.2,45.2,30.06,West,270,7.8,7.8,83,0.00,,,0.00,VWS V14.01,2013-03-10 05:31:00,
2013-03-09 21:32:00,49.6,47.1,30.06,SW,225,6.3,6.3,91,0.00,,,0.00,VWS V14.01,2013-03-10 05:32:00,
2013-03-09 21:33:00,49.6,47.1,30.06,WSW,248,3.8,3.8,91,0.00,,,0.00,VWS V14.01,2013-03-10 05:33:00,
2013-03-09 21:34:00,49.6,46.8,30.06,WSW,248,3.8,3.8,90,0.00,,,0.00,VWS V14.01,2013-03-10 05:34:00,
2013-03-09 21:35:00,49.6,46.8,30.06,WSW,248,3.6,3.6,90,0.00,,,0.00,VWS V14.01,2013-03-10 05:35:00,
2013-03-09 21:36:00,50.2,45.5,30.06,WSW,248,12.5,12.5,84,0.00,,,0.00,VWS V14.01,2013-03-10 05:36:00,
2013-03-09 21:37:00,49.6,46.8,30.06,WSW,248,6.3,6.3,90,0.00,,,0.00,VWS V14.01,2013-03-10 05:37:00,
2013-03-09 21:38:00,49.6,46.8,30.06,WSW,248,6.3,6.3,90,0.00,,,0.00,VWS V14.01,2013-03-10 05:38:00,
2013-03-09 21:39:00,49.6,46.8,30.06,WSW,248,4.7,4.7,90,0.00,,,0.00,VWS V14.01,2013-03-10 05:39:00,
2013-03-09 21:40:00,49.6,46.8,30.06,WSW,248,5.8,5.8,90,0.00,,,0.00,VWS V14.01,2013-03-10 05:40:00,
2013-03-09 21:41:00,50.0,45.7,30.06,WSW,248,8.5,8.5,85,0.00,,,0.00,VWS V14.01,2013-03-10 05:41:00,
2013-03-09 21:42:00,49.8,46.7,30.06,SW,225,7.2,7.2,89,0.00,,,0.00,VWS V14.01,2013-03-10 05:42:00,
2013-03-09 21:43:00,49.8,46.7,30.06,WSW,248,7.4,7.4,89,0.00,,,0.00,VWS V14.01,2013-03-10 05:43:00,
2013-03-09 21:44:00,49.8,46.7,30.06,SSW,202,6.5,6.5,89,0.00,,,0.00,VWS V14.01,2013-03-10 05:44:00,
2013-03-09 21:45:00,49.8,46.7,30.06,WSW,248,5.6,5.6,89,0.00,,,0.00,VWS V14.01,2013-03-10 05:45:00,
2013-03-09 21:46:00,49.8,46.1,30.06,WSW,248,7.8,7.8,87,0.00,,,0.00,VWS V14.01,2013-03-10 05:46:00,
2013-03-09 21:47:00,49.8,46.7,30.06,SW,225,4.9,4.9,89,0.00,,,0.00,VWS V14.01,2013-03-10 05:47:00,
2013-03-09 21:48:00,49.8,46.7,30.06,WSW,248,2.7,2.7,89,0.00,,,0.00,VWS V14.01,2013-03-10 05:48:00,
2013-03-09 21:49:00,49.8,46.7,30.06,SW,225,2.2,2.2,89,0.00,,,0.00,VWS V14.01,2013-03-10 05:49:00,
2013-03-09 21:50:00,49.8,46.4,30.06,SW,225,1.1,1.1,88,0.00,,,0.00,VWS V14.01,2013-03-10 05:50:00,
2013-03-09 21:51:00,49.8,46.4,30.03,WSW,248,13.0,13.0,88,0.00,,,0.00,VWS V14.01,2013-03-10 05:51:00,
2013-03-09 21:52:00,49.8,46.4,30.03,West,270,0.0,0.0,88,0.00,,,0.00,VWS V14.01,2013-03-10 05:52:00,
2013-03-09 21:53:00,49.8,46.4,30.03,West,270,0.9,0.9,88,0.00,,,0.00,VWS V14.01,2013-03-10 05:53:00,
2013-03-09 21:54:00,49.8,46.4,30.03,WSW,248,3.8,3.8,88,0.00,,,0.00,VWS V14.01,2013-03-10 05:54:00,
2013-03-09 21:55:00,49.6,46.2,30.03,WSW,248,4.5,4.5,88,0.00,,,0.00,VWS V14.01,2013-03-10 05:55:00,
2013-03-09 21:56:00,49.6,46.5,30.03,WSW,248,8.7,8.7,89,0.00,,,0.00,VWS V14.01,2013-03-10 05:56:00,
2013-03-09 21:57:00,49.8,46.4,30.03,WSW,248,5.6,5.6,88,0.00,,,0.00,VWS V14.01,2013-03-10 05:57:00,
2013-03-09 21:58:00,49.8,46.4,30.03,WSW,248,6.3,6.3,88,0.00,,,0.00,VWS V14.01,2013-03-10 05:58:00,
2013-03-09 21:59:00,49.8,46.4,30.03,WSW,248,6.3,6.3,88,0.00,,,0.00,VWS V14.01,2013-03-10 05:59:00,
2013-03-09 22:00:00,49.8,46.1,30.03,WSW,248,6.0,6.0,87,0.00,,,0.00,VWS V14.01,2013-03-10 06:00:00,
2013-03-09 22:01:00,49.6,46.5,30.03,SSW,202,7.4,7.4,89,0.00,,,0.00,VWS V14.01,2013-03-10 06:01:00,
2013-03-09 22:02:00,49.6,45.9,30.03,WSW,248,6.0,6.0,87,0.00,,,0.00,VWS V14.01,2013-03-10 06:02:00,
2013-03-09 22:03:00,49.6,45.9,30.03,WSW,248,7.8,7.8,87,0.00,,,0.00,VWS V14.01,2013-03-10 06:03:00,
2013-03-09 22:04:00,49.6,45.9,30.03,WSW,248,7.8,7.8,87,0.00,,,0.00,VWS V14.01,2013-03-10 06:04:00,
2013-03-09 22:05:00,49.8,46.1,30.03,WSW,248,8.5,8.5,87,0.00,,,0.00,VWS V14.01,2013-03-10 06:05:00,
2013-03-09 22:06:00,49.6,46.5,30.03,WSW,248,8.1,8.1,89,0.00,,,0.00,VWS V14.01,2013-03-10 06:06:00,
2013-03-09 22:07:00,49.8,46.1,30.06,WSW,248,8.1,8.1,87,0.00,,,0.00,VWS V14.01,2013-03-10 06:07:00,
2013-03-09 22:08:00,49.8,46.1,30.06,SSW,202,6.5,6.5,87,0.00,,,0.00,VWS V14.01,2013-03-10 06:08:00,
2013-03-09 22:09:00,49.6,45.9,30.06,West,270,8.1,8.1,87,0.00,,,0.00,VWS V14.01,2013-03-10 06:09:00,
2013-03-09 22:10:00,49.6,45.9,30.06,West,270,6.3,6.3,87,0.00,,,0.00,VWS V14.01,2013-03-10 06:10:00,
2013-03-09 22:11:00,49.5,46.7,30.03,WSW,248,12.3,12.3,90,0.00,,,0.00,VWS V14.01,2013-03-10 06:11:00,
2013-03-09 22:12:00,49.5,45.8,30.06,WSW,248,8.7,8.7,87,0.00,,,0.00,VWS V14.01,2013-03-10 06:12:00,
2013-03-09 22:13:00,49.5,45.8,30.06,WSW,248,8.7,8.7,87,0.00,,,0.00,VWS V14.01,2013-03-10 06:13:00,
2013-03-09 22:14:00,49.3,45.6,30.06,WSW,248,6.3,6.3,87,0.00,,,0.00,VWS V14.01,2013-03-10 06:14:00,
2013-03-09 22:15:00,49.3,45.6,30.06,SW,225,7.8,7.8,87,0.00,,,0.00,VWS V14.01,2013-03-10 06:15:00,
2013-03-09 22:16:00,49.5,47.0,30.03,South,180,10.1,10.1,91,0.00,,,0.00,VWS V14.01,2013-03-10 06:16:00,
2013-03-09 22:17:00,49.3,45.9,30.06,WSW,248,8.7,8.7,88,0.00,,,0.00,VWS V14.01,2013-03-10 06:17:00,
2013-03-09 22:18:00,49.3,45.9,30.06,WSW,248,9.6,9.6,88,0.00,,,0.00,VWS V14.01,2013-03-10 06:18:00,
2013-03-09 22:19:00,49.3,45.9,30.06,WSW,248,9.6,9.6,88,0.00,,,0.00,VWS V14.01,2013-03-10 06:19:00,
2013-03-09 22:20:00,49.3,45.9,30.06,West,270,8.1,8.1,88,0.00,,,0.00,VWS V14.01,2013-03-10 06:20:00,
2013-03-09 22:21:00,49.5,47.0,30.03,WSW,248,11.2,11.2,91,0.00,,,0.00,VWS V14.01,2013-03-10 06:21:00,
2013-03-09 22:22:00,49.1,46.0,30.06,SW,225,8.7,8.7,89,0.00,,,0.00,VWS V14.01,2013-03-10 06:22:00,
2013-03-09 22:23:00,49.1,46.0,30.06,WSW,248,11.0,11.0,89,0.00,,,0.00,VWS V14.01,2013-03-10 06:23:00,
2013-03-09 22:24:00,49.1,46.0,30.06,West,270,7.8,7.8,89,0.00,,,0.00,VWS V14.01,2013-03-10 06:24:00,
2013-03-09 22:25:00,49.1,46.0,30.06,WSW,248,8.7,8.7,89,0.00,,,0.00,VWS V14.01,2013-03-10 06:25:00,
2013-03-09 22:26:00,49.5,47.0,30.06,WSW,248,8.7,8.7,91,0.00,,,0.00,VWS V14.01,2013-03-10 06:26:00,
2013-03-09 22:27:00,49.1,46.3,30.06,SSW,202,6.5,6.5,90,0.00,,,0.00,VWS V14.01,2013-03-10 06:27:00,
2013-03-09 22:28:00,48.9,46.1,30.06,SW,225,10.3,10.3,90,0.00,,,0.00,VWS V14.01,2013-03-10 06:28:00,
2013-03-09 22:29:00,48.9,46.1,30.06,WSW,248,8.7,8.7,90,0.00,,,0.00,VWS V14.01,2013-03-10 06:29:00,
2013-03-09 22:30:00,49.1,46.6,30.06,WSW,248,10.1,10.1,91,0.00,,,0.00,VWS V14.01,2013-03-10 06:30:00,
2013-03-09 22:31:00,49.5,47.0,30.06,SW,225,5.6,5.6,91,0.00,,,0.00,VWS V14.01,2013-03-10 06:31:00,
2013-03-09 22:32:00,48.9,46.4,30.06,South,180,12.8,12.8,91,0.00,,,0.00,VWS V14.01,2013-03-10 06:32:00,
2013-03-09 22:33:00,48.9,46.4,30.06,SW,225,8.5,8.5,91,0.00,,,0.00,VWS V14.01,2013-03-10 06:33:00,
2013-03-09 22:34:00,48.9,46.7,30.06,SW,225,10.1,10.1,92,0.00,,,0.00,VWS V14.01,2013-03-10 06:34:00,
2013-03-09 22:35:00,48.9,46.7,30.06,WSW,248,9.8,9.8,92,0.00,,,0.00,VWS V14.01,2013-03-10 06:35:00,
2013-03-09 22:36:00,49.6,46.8,30.06,SW,225,3.6,3.6,90,0.00,,,0.00,VWS V14.01,2013-03-10 06:36:00,
2013-03-09 22:37:00,48.9,46.7,30.06,West,270,7.8,7.8,92,0.00,,,0.00,VWS V14.01,2013-03-10 06:37:00,
2013-03-09 22:38:00,48.9,46.7,30.06,WSW,248,9.8,9.8,92,0.00,,,0.00,VWS V14.01,2013-03-10 06:38:00,
2013-03-09 22:39:00,48.9,46.7,30.06,SW,225,6.0,6.0,92,0.00,,,0.00,VWS V14.01,2013-03-10 06:39:00,
2013-03-09 22:40:00,48.9,46.7,30.06,SW,225,12.1,12.1,92,0.00,,,0.00,VWS V14.01,2013-03-10 06:40:00,
2013-03-09 22:41:00,49.8,47.0,30.06,WSW,248,5.8,5.8,90,0.00,,,0.00,VWS V14.01,2013-03-10 06:41:00,
2013-03-09 22:42:00,48.9,47.0,30.06,SSW,202,9.0,9.0,93,0.00,,,0.00,VWS V14.01,2013-03-10 06:42:00,
2013-03-09 22:43:00,48.9,47.0,30.06,SW,225,8.5,8.5,93,0.00,,,0.00,VWS V14.01,2013-03-10 06:43:00,
2013-03-09 22:44:00,48.9,47.0,30.06,SW,225,8.1,8.1,93,0.00,,,0.00,VWS V14.01,2013-03-10 06:44:00,
2013-03-09 22:45:00,48.9,47.0,30.06,WSW,248,9.8,9.8,93,0.00,,,0.00,VWS V14.01,2013-03-10 06:45:00,
2013-03-09 22:46:00,49.8,46.7,30.06,WSW,248,4.3,4.3,89,0.00,,,0.00,VWS V14.01,2013-03-10 06:46:00,
2013-03-09 22:47:00,48.7,46.8,30.06,WSW,248,6.9,6.9,93,0.00,,,0.00,VWS V14.01,2013-03-10 06:47:00,
2013-03-09 22:50:00,49.8,46.4,30.06,West,270,0.0,0.0,88,0.00,,,0.00,VWS V14.01,2013-03-10 06:50:00,
2013-03-09 22:51:00,48.7,47.1,30.06,WNW,292,12.5,12.5,94,0.00,,,0.00,VWS V14.01,2013-03-10 06:51:00,
2013-03-09 22:52:00,48.7,47.1,30.06,West,270,10.3,10.3,94,0.00,,,0.00,VWS V14.01,2013-03-10 06:52:00,
2013-03-09 22:53:00,48.7,47.1,30.06,WSW,248,7.4,7.4,94,0.00,,,0.00,VWS V14.01,2013-03-10 06:53:00,
2013-03-09 22:54:00,48.7,47.1,30.06,SW,225,9.2,9.2,94,0.00,,,0.00,VWS V14.01,2013-03-10 06:54:00,
2013-03-09 22:55:00,49.6,46.2,30.03,West,270,6.9,6.9,88,0.00,,,0.00,VWS V14.01,2013-03-10 06:55:00,
2013-03-09 22:56:00,48.7,47.1,30.06,SW,225,13.2,13.2,94,0.00,,,0.00,VWS V14.01,2013-03-10 06:56:00,
2013-03-09 22:57:00,48.7,47.1,30.06,WSW,248,8.7,8.7,94,0.00,,,0.00,VWS V14.01,2013-03-10 06:57:00,
2013-03-09 22:58:00,48.7,47.1,30.06,WSW,248,9.8,9.8,94,0.00,,,0.00,VWS V14.01,2013-03-10 06:58:00,
2013-03-09 22:59:00,48.7,47.1,30.06,SSW,202,12.8,12.8,94,0.00,,,0.00,VWS V14.01,2013-03-10 06:59:00,
2013-03-09 23:00:00,49.8,46.1,30.03,WSW,248,6.0,6.0,87,0.00,,,0.00,VWS V14.01,2013-03-10 07:00:00,
2013-03-09 23:01:00,48.7,47.1,30.06,West,270,7.6,7.6,94,0.00,,,0.00,VWS V14.01,2013-03-10 07:01:00,
2013-03-09 23:02:00,48.7,47.1,30.06,SSW,202,6.5,6.5,94,0.00,,,0.00,VWS V14.01,2013-03-10 07:02:00,
2013-03-09 23:03:00,48.7,47.1,30.06,WSW,248,8.7,8.7,94,0.00,,,0.00,VWS V14.01,2013-03-10 07:03:00,
2013-03-09 23:04:00,48.7,47.1,30.06,WSW,248,5.6,5.6,94,0.00,,,0.00,VWS V14.01,2013-03-10 07:04:00,
2013-03-09 23:05:00,49.8,46.1,30.06,WSW,248,7.2,7.2,87,0.00,,,0.00,VWS V14.01,2013-03-10 07:05:00,
2013-03-09 23:06:00,48.7,47.1,30.06,WSW,248,7.8,7.8,94,0.00,,,0.00,VWS V14.01,2013-03-10 07:06:00,
2013-03-09 23:07:00,48.7,47.1,30.06,WSW,248,6.5,6.5,94,0.00,,,0.00,VWS V14.01,2013-03-10 07:07:00,
2013-03-09 23:08:00,48.7,47.1,30.06,WSW,248,7.8,7.8,94,0.00,,,0.00,VWS V14.01,2013-03-10 07:08:00,
2013-03-09 23:09:00,48.7,47.1,30.06,WSW,248,6.3,6.3,94,0.00,,,0.00,VWS V14.01,2013-03-10 07:09:00,
2013-03-09 23:10:00,49.6,45.9,30.06,West,270,6.3,6.3,87,0.00,,,0.00,VWS V14.01,2013-03-10 07:10:00,
2013-03-09 23:11:00,48.7,47.1,30.06,SW,225,7.6,7.6,94,0.00,,,0.00,VWS V14.01,2013-03-10 07:11:00,
2013-03-09 23:12:00,48.7,47.1,30.06,SW,225,5.8,5.8,94,0.00,,,0.00,VWS V14.01,2013-03-10 07:12:00,
2013-03-09 23:13:00,48.7,47.1,30.06,WSW,248,6.0,6.0,94,0.00,,,0.00,VWS V14.01,2013-03-10 07:13:00,
2013-03-09 23:14:00,48.7,47.4,30.06,SSW,202,5.4,5.4,95,0.00,,,0.00,VWS V14.01,2013-03-10 07:14:00,
2013-03-09 23:15:00,49.3,45.9,30.06,WSW,248,6.5,6.5,88,0.00,,,0.00,VWS V14.01,2013-03-10 07:15:00,
2013-03-09 23:16:00,48.7,47.1,30.06,West,270,6.3,6.3,94,0.00,,,0.00,VWS V14.01,2013-03-10 07:16:00,
2013-03-09 23:17:00,48.7,47.1,30.06,SW,225,5.6,5.6,94,0.00,,,0.00,VWS V14.01,2013-03-10 07:17:00,
2013-03-09 23:18:00,48.9,47.3,30.06,WSW,248,4.9,4.9,94,0.00,,,0.00,VWS V14.01,2013-03-10 07:18:00,
2013-03-09 23:19:00,48.9,47.3,30.06,WSW,248,4.0,4.0,94,0.00,,,0.00,VWS V14.01,2013-03-10 07:19:00,
2013-03-09 23:20:00,48.9,47.3,30.06,West,270,5.6,5.6,94,0.00,,,0.00,VWS V14.01,2013-03-10 07:20:00,
2013-03-09 23:21:00,49.1,46.0,30.06,West,270,11.2,11.2,89,0.00,,,0.00,VWS V14.01,2013-03-10 07:21:00,
2013-03-09 23:22:00,49.1,47.5,30.06,WSW,248,4.9,4.9,94,0.00,,,0.00,VWS V14.01,2013-03-10 07:22:00,
2013-03-09 23:23:00,49.1,47.5,30.06,WSW,248,4.9,4.9,94,0.00,,,0.00,VWS V14.01,2013-03-10 07:23:00,
2013-03-09 23:24:00,49.1,47.5,30.06,WSW,248,4.9,4.9,94,0.00,,,0.00,VWS V14.01,2013-03-10 07:24:00,
2013-03-09 23:25:00,49.1,46.0,30.06,WSW,248,11.0,11.0,89,0.00,,,0.00,VWS V14.01,2013-03-10 07:25:00,
2013-03-09 23:26:00,49.1,47.5,30.06,WSW,248,4.0,4.0,94,0.00,,,0.00,VWS V14.01,2013-03-10 07:26:00,
2013-03-09 23:27:00,49.1,47.5,30.06,WNW,292,5.6,5.6,94,0.00,,,0.00,VWS V14.01,2013-03-10 07:27:00,
2013-03-09 23:29:00,49.1,47.5,30.06,WSW,248,4.9,4.9,94,0.00,,,0.00,VWS V14.01,2013-03-10 07:29:00,
2013-03-09 23:30:00,49.1,46.6,30.06,WSW,248,11.0,11.0,91,0.00,,,0.00,VWS V14.01,2013-03-10 07:30:00,
2013-03-09 23:31:00,49.1,47.5,30.06,West,270,6.0,6.0,94,0.00,,,0.00,VWS V14.01,2013-03-10 07:31:00,
2013-03-09 23:32:00,49.1,47.5,30.06,West,270,6.0,6.0,94,0.00,,,0.00,VWS V14.01,2013-03-10 07:32:00,
2013-03-09 23:33:00,49.1,47.5,30.06,WSW,248,5.6,5.6,94,0.00,,,0.00,VWS V14.01,2013-03-10 07:33:00,
2013-03-09 23:34:00,49.1,47.5,30.06,WSW,248,4.3,4.3,94,0.00,,,0.00,VWS V14.01,2013-03-10 07:34:00,
2013-03-09 23:35:00,48.9,46.7,30.06,West,270,10.7,10.7,92,0.00,,,0.00,VWS V14.01,2013-03-10 07:35:00,
2013-03-09 23:36:00,49.1,47.5,30.06,WSW,248,6.3,6.3,94,0.00,,,0.00,VWS V14.01,2013-03-10 07:36:00,
2013-03-09 23:37:00,49.1,47.5,30.06,WSW,248,4.0,4.0,94,0.00,,,0.00,VWS V14.01,2013-03-10 07:37:00,
2013-03-09 23:38:00,49.1,47.5,30.06,WSW,248,4.0,4.0,94,0.00,,,0.00,VWS V14.01,2013-03-10 07:38:00,
2013-03-09 23:39:00,49.1,47.5,30.06,WSW,248,4.0,4.0,94,0.00,,,0.00,VWS V14.01,2013-03-10 07:39:00,
2013-03-09 23:40:00,48.9,47.0,30.06,WSW,248,9.0,9.0,93,0.00,,,0.00,VWS V14.01,2013-03-10 07:40:00,
2013-03-09 23:41:00,49.1,47.5,30.06,WSW,248,4.3,4.3,94,0.00,,,0.00,VWS V14.01,2013-03-10 07:41:00,
2013-03-09 23:42:00,49.1,47.5,30.06,West,270,4.3,4.3,94,0.00,,,0.00,VWS V14.01,2013-03-10 07:42:00,
2013-03-09 23:43:00,49.1,47.5,30.06,West,270,5.6,5.6,94,0.00,,,0.00,VWS V14.01,2013-03-10 07:43:00,
2013-03-09 23:44:00,49.1,47.2,30.06,West,270,3.4,3.4,93,0.00,,,0.00,VWS V14.01,2013-03-10 07:44:00,
2013-03-09 23:45:00,48.7,46.8,30.06,WSW,248,10.3,10.3,93,0.00,,,0.00,VWS V14.01,2013-03-10 07:45:00,
2013-03-09 23:46:00,48.9,47.0,30.06,WSW,248,6.7,6.7,93,0.00,,,0.00,VWS V14.01,2013-03-10 07:46:00,
2013-03-09 23:47:00,48.9,47.0,30.06,WNW,292,3.4,3.4,93,0.00,,,0.00,VWS V14.01,2013-03-10 07:47:00,
2013-03-09 23:48:00,49.1,47.2,30.06,WSW,248,2.9,2.9,93,0.00,,,0.00,VWS V14.01,2013-03-10 07:48:00,
2013-03-09 23:49:00,49.1,47.2,30.06,West,270,4.3,4.3,93,0.00,,,0.00,VWS V14.01,2013-03-10 07:49:00,
2013-03-09 23:50:00,48.7,47.1,30.06,WNW,292,12.5,12.5,94,0.00,,,0.00,VWS V14.01,2013-03-10 07:50:00,
2013-03-09 23:51:00,49.1,47.2,30.06,West,270,4.9,4.9,93,0.00,,,0.00,VWS V14.01,2013-03-10 07:51:00,
2013-03-09 23:52:00,49.1,47.2,30.06,WSW,248,6.5,6.5,93,0.00,,,0.00,VWS V14.01,2013-03-10 07:52:00,
2013-03-09 23:53:00,48.9,47.0,30.06,WSW,248,6.3,6.3,93,0.00,,,0.00,VWS V14.01,2013-03-10 07:53:00,
2013-03-09 23:54:00,48.9,47.0,30.06,WSW,248,6.5,6.5,93,0.00,,,0.00,VWS V14.01,2013-03-10 07:54:00,
2013-03-09 23:55:00,48.7,47.1,30.06,WSW,248,7.2,7.2,94,0.00,,,0.00,VWS V14.01,2013-03-10 07:55:00,
2013-03-09 23:56:00,48.9,47.0,30.06,WSW,248,6.5,6.5,93,0.00,,,0.00,VWS V14.01,2013-03-10 07:56:00,
2013-03-09 23:57:00,48.9,47.0,30.06,SW,225,4.0,4.0,93,0.00,,,0.00,VWS V14.01,2013-03-10 07:57:00,
2013-03-09 23:58:00,48.9,47.0,30.06,WSW,248,4.3,4.3,93,0.00,,,0.00,VWS V14.01,2013-03-10 07:58:00,
2013-03-09 23:59:00,48.9,47.0,30.06,WSW,248,4.3,4.3,93,0.00,,,0.00,VWS V14.01,2013-03-10 07:59:00,